<?xml version="1.0" encoding="UTF-8" standalone="no" ?>
<gpx xmlns="http://www.topografix.com/GPX/1/1" xmlns:xsi="http://www.w3.org/2001/XMLSchema-instance" xsi:schemaLocation="http://www.topografix.com/GPX/1/1 http://www.topografix.com/GPX/1/1/gpx.xsd" version="1.1" creator="VisuGPX - https://www.visugpx.com">
  <metadata>
    <name>Thoras - 29km </name>
    <desc><![CDATA[T3 fait le 15/08 via la Tour de la Clauze]]></desc>
  </metadata>
  <wpt lat="44.84155" lon="3.54892">
    <ele>1180.5</ele>
    <name><![CDATA[gite]]></name>
    <type><![CDATA[hotel]]></type>
  </wpt>
  <wpt lat="44.76081" lon="3.52335">
    <ele>1407.8</ele>
  </wpt>
  <trk>
    <name><![CDATA[28.5 km la Tour de la Clauze]]></name>
    <extensions>
      <line xmlns="http://www.topografix.com/GPX/gpx_style/0/2">
        <color>0000FF</color>
        <width>4</width>
      </line>
    </extensions>
    <trkseg>
      <trkpt lat="44.84081" lon="3.54869">
        <ele>1271.48</ele>
        <time>2024-08-15T07:27:29Z</time>
      </trkpt>
      <trkpt lat="44.84095" lon="3.5489">
        <ele>1222.93</ele>
        <time>2024-08-15T07:27:45Z</time>
      </trkpt>
      <trkpt lat="44.84097" lon="3.54889">
        <ele>1218.61</ele>
        <time>2024-08-15T07:28:05Z</time>
      </trkpt>
      <trkpt lat="44.84103" lon="3.54887">
        <ele>1216.21</ele>
        <time>2024-08-15T07:28:21Z</time>
      </trkpt>
      <trkpt lat="44.84109" lon="3.54889">
        <ele>1207.55</ele>
        <time>2024-08-15T07:28:52Z</time>
      </trkpt>
      <trkpt lat="44.84111" lon="3.54881">
        <ele>1193.13</ele>
        <time>2024-08-15T07:29:10Z</time>
      </trkpt>
      <trkpt lat="44.84107" lon="3.5488">
        <ele>1189.29</ele>
        <time>2024-08-15T07:29:33Z</time>
      </trkpt>
      <trkpt lat="44.84105" lon="3.54878">
        <ele>1183.04</ele>
        <time>2024-08-15T07:30:05Z</time>
      </trkpt>
      <trkpt lat="44.84106" lon="3.54878">
        <ele>1182.08</ele>
        <time>2024-08-15T07:30:36Z</time>
      </trkpt>
      <trkpt lat="44.84111" lon="3.54876">
        <ele>1182.08</ele>
        <time>2024-08-15T07:30:50Z</time>
      </trkpt>
      <trkpt lat="44.84119" lon="3.5488">
        <ele>1183.04</ele>
        <time>2024-08-15T07:31:03Z</time>
      </trkpt>
      <trkpt lat="44.84123" lon="3.54878">
        <ele>1184</ele>
        <time>2024-08-15T07:31:19Z</time>
      </trkpt>
      <trkpt lat="44.8413" lon="3.54872">
        <ele>1184</ele>
        <time>2024-08-15T07:31:45Z</time>
      </trkpt>
      <trkpt lat="44.84132" lon="3.54871">
        <ele>1183.52</ele>
        <time>2024-08-15T07:31:47Z</time>
      </trkpt>
      <trkpt lat="44.84149" lon="3.54872">
        <ele>1180.16</ele>
        <time>2024-08-15T07:32:02Z</time>
      </trkpt>
      <trkpt lat="44.84164" lon="3.54879">
        <ele>1177.27</ele>
        <time>2024-08-15T07:32:15Z</time>
      </trkpt>
      <trkpt lat="44.84174" lon="3.54885">
        <ele>1175.35</ele>
        <time>2024-08-15T07:32:25Z</time>
      </trkpt>
      <trkpt lat="44.84194" lon="3.54899">
        <ele>1176.79</ele>
        <time>2024-08-15T07:32:42Z</time>
      </trkpt>
      <trkpt lat="44.84213" lon="3.54912">
        <ele>1176.31</ele>
        <time>2024-08-15T07:32:58Z</time>
      </trkpt>
      <trkpt lat="44.84229" lon="3.5492">
        <ele>1179.19</ele>
        <time>2024-08-15T07:33:14Z</time>
      </trkpt>
      <trkpt lat="44.84245" lon="3.54929">
        <ele>1182.08</ele>
        <time>2024-08-15T07:33:30Z</time>
      </trkpt>
      <trkpt lat="44.84261" lon="3.5494">
        <ele>1184.48</ele>
        <time>2024-08-15T07:33:45Z</time>
      </trkpt>
      <trkpt lat="44.8428" lon="3.54956">
        <ele>1185.44</ele>
        <time>2024-08-15T07:34:03Z</time>
      </trkpt>
      <trkpt lat="44.84292" lon="3.54968">
        <ele>1186.4</ele>
        <time>2024-08-15T07:34:17Z</time>
      </trkpt>
      <trkpt lat="44.84305" lon="3.54986">
        <ele>1189.77</ele>
        <time>2024-08-15T07:34:34Z</time>
      </trkpt>
      <trkpt lat="44.84308" lon="3.54985">
        <ele>1186.88</ele>
        <time>2024-08-15T07:34:49Z</time>
      </trkpt>
      <trkpt lat="44.8431" lon="3.54983">
        <ele>1185.44</ele>
        <time>2024-08-15T07:35:03Z</time>
      </trkpt>
      <trkpt lat="44.84313" lon="3.54962">
        <ele>1186.88</ele>
        <time>2024-08-15T07:35:20Z</time>
      </trkpt>
      <trkpt lat="44.8431" lon="3.54962">
        <ele>1189.77</ele>
        <time>2024-08-15T07:35:35Z</time>
      </trkpt>
      <trkpt lat="44.84308" lon="3.54959">
        <ele>1190.25</ele>
        <time>2024-08-15T07:35:52Z</time>
      </trkpt>
      <trkpt lat="44.8431" lon="3.54949">
        <ele>1193.13</ele>
        <time>2024-08-15T07:36:07Z</time>
      </trkpt>
      <trkpt lat="44.84312" lon="3.54943">
        <ele>1196.98</ele>
        <time>2024-08-15T07:36:23Z</time>
      </trkpt>
      <trkpt lat="44.84311" lon="3.54937">
        <ele>1200.34</ele>
        <time>2024-08-15T07:36:47Z</time>
      </trkpt>
      <trkpt lat="44.84312" lon="3.54936">
        <ele>1200.34</ele>
        <time>2024-08-15T07:37:15Z</time>
      </trkpt>
      <trkpt lat="44.84312" lon="3.54918">
        <ele>1200.34</ele>
        <time>2024-08-15T07:37:31Z</time>
      </trkpt>
      <trkpt lat="44.8431" lon="3.54878">
        <ele>1199.38</ele>
        <time>2024-08-15T07:37:52Z</time>
      </trkpt>
      <trkpt lat="44.84318" lon="3.54839">
        <ele>1204.19</ele>
        <time>2024-08-15T07:38:14Z</time>
      </trkpt>
      <trkpt lat="44.84319" lon="3.54792">
        <ele>1203.23</ele>
        <time>2024-08-15T07:38:37Z</time>
      </trkpt>
      <trkpt lat="44.84323" lon="3.54746">
        <ele>1203.71</ele>
        <time>2024-08-15T07:39:00Z</time>
      </trkpt>
      <trkpt lat="44.84315" lon="3.54708">
        <ele>1202.75</ele>
        <time>2024-08-15T07:39:21Z</time>
      </trkpt>
      <trkpt lat="44.84306" lon="3.5466">
        <ele>1203.71</ele>
        <time>2024-08-15T07:39:44Z</time>
      </trkpt>
      <trkpt lat="44.84299" lon="3.54619">
        <ele>1206.59</ele>
        <time>2024-08-15T07:40:05Z</time>
      </trkpt>
      <trkpt lat="44.84287" lon="3.54578">
        <ele>1214.76</ele>
        <time>2024-08-15T07:40:29Z</time>
      </trkpt>
      <trkpt lat="44.84281" lon="3.54536">
        <ele>1222.93</ele>
        <time>2024-08-15T07:40:51Z</time>
      </trkpt>
      <trkpt lat="44.84282" lon="3.54497">
        <ele>1227.74</ele>
        <time>2024-08-15T07:41:11Z</time>
      </trkpt>
      <trkpt lat="44.84282" lon="3.54491">
        <ele>1228.22</ele>
        <time>2024-08-15T07:41:14Z</time>
      </trkpt>
      <trkpt lat="44.8429" lon="3.54442">
        <ele>1228.22</ele>
        <time>2024-08-15T07:41:36Z</time>
      </trkpt>
      <trkpt lat="44.84317" lon="3.54422">
        <ele>1220.53</ele>
        <time>2024-08-15T07:41:55Z</time>
      </trkpt>
      <trkpt lat="44.84341" lon="3.54406">
        <ele>1215.72</ele>
        <time>2024-08-15T07:42:12Z</time>
      </trkpt>
      <trkpt lat="44.84363" lon="3.54385">
        <ele>1214.76</ele>
        <time>2024-08-15T07:42:31Z</time>
      </trkpt>
      <trkpt lat="44.84383" lon="3.54371">
        <ele>1213.8</ele>
        <time>2024-08-15T07:42:47Z</time>
      </trkpt>
      <trkpt lat="44.8441" lon="3.54353">
        <ele>1209</ele>
        <time>2024-08-15T07:43:06Z</time>
      </trkpt>
      <trkpt lat="44.84443" lon="3.54344">
        <ele>1205.63</ele>
        <time>2024-08-15T07:43:26Z</time>
      </trkpt>
      <trkpt lat="44.84464" lon="3.54359">
        <ele>1205.63</ele>
        <time>2024-08-15T07:43:41Z</time>
      </trkpt>
      <trkpt lat="44.84497" lon="3.54382">
        <ele>1208.03</ele>
        <time>2024-08-15T07:44:03Z</time>
      </trkpt>
      <trkpt lat="44.84518" lon="3.54395">
        <ele>1209.48</ele>
        <time>2024-08-15T07:44:20Z</time>
      </trkpt>
      <trkpt lat="44.84547" lon="3.544">
        <ele>1215.24</ele>
        <time>2024-08-15T07:44:40Z</time>
      </trkpt>
      <trkpt lat="44.84573" lon="3.54423">
        <ele>1211.88</ele>
        <time>2024-08-15T07:44:59Z</time>
      </trkpt>
      <trkpt lat="44.84596" lon="3.54443">
        <ele>1209.96</ele>
        <time>2024-08-15T07:45:17Z</time>
      </trkpt>
      <trkpt lat="44.84623" lon="3.54447">
        <ele>1208.03</ele>
        <time>2024-08-15T07:45:36Z</time>
      </trkpt>
      <trkpt lat="44.84651" lon="3.54436">
        <ele>1204.67</ele>
        <time>2024-08-15T07:45:55Z</time>
      </trkpt>
      <trkpt lat="44.84677" lon="3.54428">
        <ele>1201.79</ele>
        <time>2024-08-15T07:46:13Z</time>
      </trkpt>
      <trkpt lat="44.84711" lon="3.54451">
        <ele>1200.34</ele>
        <time>2024-08-15T07:46:36Z</time>
      </trkpt>
      <trkpt lat="44.84733" lon="3.54491">
        <ele>1201.79</ele>
        <time>2024-08-15T07:46:58Z</time>
      </trkpt>
      <trkpt lat="44.84746" lon="3.54551">
        <ele>1202.27</ele>
        <time>2024-08-15T07:47:24Z</time>
      </trkpt>
      <trkpt lat="44.84759" lon="3.54596">
        <ele>1200.82</ele>
        <time>2024-08-15T07:47:47Z</time>
      </trkpt>
      <trkpt lat="44.8478" lon="3.54632">
        <ele>1200.82</ele>
        <time>2024-08-15T07:48:09Z</time>
      </trkpt>
      <trkpt lat="44.84811" lon="3.54647">
        <ele>1201.79</ele>
        <time>2024-08-15T07:48:30Z</time>
      </trkpt>
      <trkpt lat="44.84837" lon="3.54655">
        <ele>1201.79</ele>
        <time>2024-08-15T07:48:49Z</time>
      </trkpt>
      <trkpt lat="44.84869" lon="3.54665">
        <ele>1198.9</ele>
        <time>2024-08-15T07:49:09Z</time>
      </trkpt>
      <trkpt lat="44.84901" lon="3.54673">
        <ele>1200.34</ele>
        <time>2024-08-15T07:49:30Z</time>
      </trkpt>
      <trkpt lat="44.84925" lon="3.54679">
        <ele>1204.19</ele>
        <time>2024-08-15T07:49:47Z</time>
      </trkpt>
      <trkpt lat="44.84949" lon="3.54683">
        <ele>1210.44</ele>
        <time>2024-08-15T07:50:06Z</time>
      </trkpt>
      <trkpt lat="44.84975" lon="3.54686">
        <ele>1209</ele>
        <time>2024-08-15T07:50:22Z</time>
      </trkpt>
      <trkpt lat="44.85001" lon="3.54689">
        <ele>1210.44</ele>
        <time>2024-08-15T07:50:39Z</time>
      </trkpt>
      <trkpt lat="44.8503" lon="3.54692">
        <ele>1210.44</ele>
        <time>2024-08-15T07:50:58Z</time>
      </trkpt>
      <trkpt lat="44.85041" lon="3.5469">
        <ele>1210.92</ele>
        <time>2024-08-15T07:51:13Z</time>
      </trkpt>
      <trkpt lat="44.85041" lon="3.5469">
        <ele>1209.96</ele>
        <time>2024-08-15T07:51:40Z</time>
      </trkpt>
      <trkpt lat="44.85058" lon="3.5468">
        <ele>1210.44</ele>
        <time>2024-08-15T07:51:52Z</time>
      </trkpt>
      <trkpt lat="44.85073" lon="3.54658">
        <ele>1212.84</ele>
        <time>2024-08-15T07:52:08Z</time>
      </trkpt>
      <trkpt lat="44.85085" lon="3.54628">
        <ele>1213.32</ele>
        <time>2024-08-15T07:52:26Z</time>
      </trkpt>
      <trkpt lat="44.85096" lon="3.54599">
        <ele>1209</ele>
        <time>2024-08-15T07:52:44Z</time>
      </trkpt>
      <trkpt lat="44.85106" lon="3.54562">
        <ele>1201.3</ele>
        <time>2024-08-15T07:53:03Z</time>
      </trkpt>
      <trkpt lat="44.85115" lon="3.54521">
        <ele>1198.9</ele>
        <time>2024-08-15T07:53:22Z</time>
      </trkpt>
      <trkpt lat="44.85121" lon="3.54482">
        <ele>1199.86</ele>
        <time>2024-08-15T07:53:39Z</time>
      </trkpt>
      <trkpt lat="44.85141" lon="3.54445">
        <ele>1198.9</ele>
        <time>2024-08-15T07:53:59Z</time>
      </trkpt>
      <trkpt lat="44.85163" lon="3.54411">
        <ele>1198.9</ele>
        <time>2024-08-15T07:54:19Z</time>
      </trkpt>
      <trkpt lat="44.85185" lon="3.54388">
        <ele>1198.9</ele>
        <time>2024-08-15T07:54:37Z</time>
      </trkpt>
      <trkpt lat="44.85204" lon="3.54357">
        <ele>1198.9</ele>
        <time>2024-08-15T07:54:55Z</time>
      </trkpt>
      <trkpt lat="44.85224" lon="3.54327">
        <ele>1203.23</ele>
        <time>2024-08-15T07:55:13Z</time>
      </trkpt>
      <trkpt lat="44.85244" lon="3.54305">
        <ele>1206.59</ele>
        <time>2024-08-15T07:55:28Z</time>
      </trkpt>
      <trkpt lat="44.85268" lon="3.54278">
        <ele>1209.48</ele>
        <time>2024-08-15T07:55:46Z</time>
      </trkpt>
      <trkpt lat="44.85272" lon="3.54273">
        <ele>1209.48</ele>
        <time>2024-08-15T07:55:49Z</time>
      </trkpt>
      <trkpt lat="44.85301" lon="3.54262">
        <ele>1207.07</ele>
        <time>2024-08-15T07:56:09Z</time>
      </trkpt>
      <trkpt lat="44.8533" lon="3.54246">
        <ele>1205.63</ele>
        <time>2024-08-15T07:56:30Z</time>
      </trkpt>
      <trkpt lat="44.85351" lon="3.54228">
        <ele>1208.51</ele>
        <time>2024-08-15T07:56:48Z</time>
      </trkpt>
      <trkpt lat="44.85374" lon="3.54202">
        <ele>1209</ele>
        <time>2024-08-15T07:57:06Z</time>
      </trkpt>
      <trkpt lat="44.85397" lon="3.54176">
        <ele>1210.44</ele>
        <time>2024-08-15T07:57:24Z</time>
      </trkpt>
      <trkpt lat="44.8542" lon="3.5415">
        <ele>1207.07</ele>
        <time>2024-08-15T07:57:44Z</time>
      </trkpt>
      <trkpt lat="44.85444" lon="3.54122">
        <ele>1204.67</ele>
        <time>2024-08-15T07:58:02Z</time>
      </trkpt>
      <trkpt lat="44.8547" lon="3.54112">
        <ele>1200.34</ele>
        <time>2024-08-15T07:58:20Z</time>
      </trkpt>
      <trkpt lat="44.85502" lon="3.5412">
        <ele>1196.98</ele>
        <time>2024-08-15T07:58:40Z</time>
      </trkpt>
      <trkpt lat="44.85527" lon="3.54142">
        <ele>1196.02</ele>
        <time>2024-08-15T07:58:57Z</time>
      </trkpt>
      <trkpt lat="44.85555" lon="3.54156">
        <ele>1196.02</ele>
        <time>2024-08-15T07:59:14Z</time>
      </trkpt>
      <trkpt lat="44.85577" lon="3.54164">
        <ele>1195.54</ele>
        <time>2024-08-15T07:59:28Z</time>
      </trkpt>
      <trkpt lat="44.85603" lon="3.5417">
        <ele>1194.58</ele>
        <time>2024-08-15T07:59:44Z</time>
      </trkpt>
      <trkpt lat="44.85627" lon="3.54181">
        <ele>1194.09</ele>
        <time>2024-08-15T08:00:00Z</time>
      </trkpt>
      <trkpt lat="44.85628" lon="3.54182">
        <ele>1194.09</ele>
        <time>2024-08-15T08:00:01Z</time>
      </trkpt>
      <trkpt lat="44.8563" lon="3.54182">
        <ele>1193.61</ele>
        <time>2024-08-15T08:00:02Z</time>
      </trkpt>
      <trkpt lat="44.85631" lon="3.54182">
        <ele>1193.61</ele>
        <time>2024-08-15T08:00:03Z</time>
      </trkpt>
      <trkpt lat="44.85633" lon="3.54181">
        <ele>1193.61</ele>
        <time>2024-08-15T08:00:04Z</time>
      </trkpt>
      <trkpt lat="44.85634" lon="3.54179">
        <ele>1193.13</ele>
        <time>2024-08-15T08:00:05Z</time>
      </trkpt>
      <trkpt lat="44.85648" lon="3.5415">
        <ele>1193.61</ele>
        <time>2024-08-15T08:00:21Z</time>
      </trkpt>
      <trkpt lat="44.85664" lon="3.54118">
        <ele>1194.09</ele>
        <time>2024-08-15T08:00:38Z</time>
      </trkpt>
      <trkpt lat="44.85682" lon="3.54089">
        <ele>1196.02</ele>
        <time>2024-08-15T08:00:54Z</time>
      </trkpt>
      <trkpt lat="44.85685" lon="3.54084">
        <ele>1195.06</ele>
        <time>2024-08-15T08:00:57Z</time>
      </trkpt>
      <trkpt lat="44.85706" lon="3.54053">
        <ele>1192.65</ele>
        <time>2024-08-15T08:01:17Z</time>
      </trkpt>
      <trkpt lat="44.85722" lon="3.54027">
        <ele>1190.25</ele>
        <time>2024-08-15T08:01:32Z</time>
      </trkpt>
      <trkpt lat="44.85738" lon="3.53984">
        <ele>1190.25</ele>
        <time>2024-08-15T08:01:52Z</time>
      </trkpt>
      <trkpt lat="44.85757" lon="3.53937">
        <ele>1187.85</ele>
        <time>2024-08-15T08:02:14Z</time>
      </trkpt>
      <trkpt lat="44.85774" lon="3.53903">
        <ele>1188.81</ele>
        <time>2024-08-15T08:02:32Z</time>
      </trkpt>
      <trkpt lat="44.85792" lon="3.53869">
        <ele>1188.81</ele>
        <time>2024-08-15T08:02:50Z</time>
      </trkpt>
      <trkpt lat="44.85815" lon="3.53838">
        <ele>1186.4</ele>
        <time>2024-08-15T08:03:08Z</time>
      </trkpt>
      <trkpt lat="44.85839" lon="3.53808">
        <ele>1181.12</ele>
        <time>2024-08-15T08:03:26Z</time>
      </trkpt>
      <trkpt lat="44.85863" lon="3.53778">
        <ele>1178.23</ele>
        <time>2024-08-15T08:03:44Z</time>
      </trkpt>
      <trkpt lat="44.8589" lon="3.53747">
        <ele>1180.64</ele>
        <time>2024-08-15T08:04:06Z</time>
      </trkpt>
      <trkpt lat="44.85911" lon="3.53728">
        <ele>1180.16</ele>
        <time>2024-08-15T08:04:20Z</time>
      </trkpt>
      <trkpt lat="44.85932" lon="3.53713">
        <ele>1180.16</ele>
        <time>2024-08-15T08:04:34Z</time>
      </trkpt>
      <trkpt lat="44.85957" lon="3.53686">
        <ele>1178.71</ele>
        <time>2024-08-15T08:04:52Z</time>
      </trkpt>
      <trkpt lat="44.85986" lon="3.53673">
        <ele>1171.02</ele>
        <time>2024-08-15T08:05:09Z</time>
      </trkpt>
      <trkpt lat="44.86013" lon="3.53663">
        <ele>1168.62</ele>
        <time>2024-08-15T08:05:26Z</time>
      </trkpt>
      <trkpt lat="44.86022" lon="3.53627">
        <ele>1169.1</ele>
        <time>2024-08-15T08:05:44Z</time>
      </trkpt>
      <trkpt lat="44.86021" lon="3.53576">
        <ele>1168.14</ele>
        <time>2024-08-15T08:06:08Z</time>
      </trkpt>
      <trkpt lat="44.8602" lon="3.53541">
        <ele>1162.85</ele>
        <time>2024-08-15T08:06:24Z</time>
      </trkpt>
      <trkpt lat="44.86018" lon="3.53496">
        <ele>1156.12</ele>
        <time>2024-08-15T08:06:44Z</time>
      </trkpt>
      <trkpt lat="44.86019" lon="3.5346">
        <ele>1153.24</ele>
        <time>2024-08-15T08:07:01Z</time>
      </trkpt>
      <trkpt lat="44.86016" lon="3.53422">
        <ele>1150.35</ele>
        <time>2024-08-15T08:07:18Z</time>
      </trkpt>
      <trkpt lat="44.86016" lon="3.53388">
        <ele>1147.95</ele>
        <time>2024-08-15T08:07:33Z</time>
      </trkpt>
      <trkpt lat="44.8602" lon="3.53378">
        <ele>1147.95</ele>
        <time>2024-08-15T08:07:42Z</time>
      </trkpt>
      <trkpt lat="44.86023" lon="3.53376">
        <ele>1147.95</ele>
        <time>2024-08-15T08:07:56Z</time>
      </trkpt>
      <trkpt lat="44.86023" lon="3.53375">
        <ele>1146.03</ele>
        <time>2024-08-15T08:08:14Z</time>
      </trkpt>
      <trkpt lat="44.86023" lon="3.53373">
        <ele>1146.03</ele>
        <time>2024-08-15T08:08:43Z</time>
      </trkpt>
      <trkpt lat="44.86026" lon="3.53372">
        <ele>1146.99</ele>
        <time>2024-08-15T08:09:06Z</time>
      </trkpt>
      <trkpt lat="44.86027" lon="3.5337">
        <ele>1147.95</ele>
        <time>2024-08-15T08:09:13Z</time>
      </trkpt>
      <trkpt lat="44.86028" lon="3.53368">
        <ele>1147.95</ele>
        <time>2024-08-15T08:09:14Z</time>
      </trkpt>
      <trkpt lat="44.86029" lon="3.53367">
        <ele>1147.95</ele>
        <time>2024-08-15T08:09:15Z</time>
      </trkpt>
      <trkpt lat="44.86036" lon="3.53355">
        <ele>1147.95</ele>
        <time>2024-08-15T08:09:22Z</time>
      </trkpt>
      <trkpt lat="44.86048" lon="3.53328">
        <ele>1150.84</ele>
        <time>2024-08-15T08:09:39Z</time>
      </trkpt>
      <trkpt lat="44.86063" lon="3.5331">
        <ele>1158.53</ele>
        <time>2024-08-15T08:09:56Z</time>
      </trkpt>
      <trkpt lat="44.86089" lon="3.53294">
        <ele>1161.89</ele>
        <time>2024-08-15T08:10:15Z</time>
      </trkpt>
      <trkpt lat="44.86107" lon="3.53281">
        <ele>1165.74</ele>
        <time>2024-08-15T08:10:30Z</time>
      </trkpt>
      <trkpt lat="44.86124" lon="3.53254">
        <ele>1167.66</ele>
        <time>2024-08-15T08:10:49Z</time>
      </trkpt>
      <trkpt lat="44.86146" lon="3.53228">
        <ele>1160.45</ele>
        <time>2024-08-15T08:11:07Z</time>
      </trkpt>
      <trkpt lat="44.86173" lon="3.53226">
        <ele>1150.35</ele>
        <time>2024-08-15T08:11:26Z</time>
      </trkpt>
      <trkpt lat="44.86197" lon="3.53232">
        <ele>1143.14</ele>
        <time>2024-08-15T08:11:44Z</time>
      </trkpt>
      <trkpt lat="44.86221" lon="3.53245">
        <ele>1137.86</ele>
        <time>2024-08-15T08:12:01Z</time>
      </trkpt>
      <trkpt lat="44.86239" lon="3.53249">
        <ele>1130.17</ele>
        <time>2024-08-15T08:12:19Z</time>
      </trkpt>
      <trkpt lat="44.86248" lon="3.53236">
        <ele>1128.73</ele>
        <time>2024-08-15T08:12:33Z</time>
      </trkpt>
      <trkpt lat="44.86267" lon="3.53236">
        <ele>1123.44</ele>
        <time>2024-08-15T08:12:48Z</time>
      </trkpt>
      <trkpt lat="44.86271" lon="3.53239">
        <ele>1122.96</ele>
        <time>2024-08-15T08:12:51Z</time>
      </trkpt>
      <trkpt lat="44.86296" lon="3.53265">
        <ele>1115.75</ele>
        <time>2024-08-15T08:13:09Z</time>
      </trkpt>
      <trkpt lat="44.86302" lon="3.53263">
        <ele>1115.75</ele>
        <time>2024-08-15T08:13:15Z</time>
      </trkpt>
      <trkpt lat="44.86314" lon="3.5324">
        <ele>1111.42</ele>
        <time>2024-08-15T08:13:32Z</time>
      </trkpt>
      <trkpt lat="44.86317" lon="3.53235">
        <ele>1110.46</ele>
        <time>2024-08-15T08:13:46Z</time>
      </trkpt>
      <trkpt lat="44.86323" lon="3.53228">
        <ele>1110.46</ele>
        <time>2024-08-15T08:14:03Z</time>
      </trkpt>
      <trkpt lat="44.86332" lon="3.53223">
        <ele>1112.38</ele>
        <time>2024-08-15T08:14:16Z</time>
      </trkpt>
      <trkpt lat="44.86355" lon="3.53202">
        <ele>1114.79</ele>
        <time>2024-08-15T08:14:35Z</time>
      </trkpt>
      <trkpt lat="44.86369" lon="3.5318">
        <ele>1110.94</ele>
        <time>2024-08-15T08:14:49Z</time>
      </trkpt>
      <trkpt lat="44.86373" lon="3.53148">
        <ele>1111.9</ele>
        <time>2024-08-15T08:15:06Z</time>
      </trkpt>
      <trkpt lat="44.86393" lon="3.5311">
        <ele>1113.82</ele>
        <time>2024-08-15T08:15:27Z</time>
      </trkpt>
      <trkpt lat="44.86404" lon="3.53081">
        <ele>1116.71</ele>
        <time>2024-08-15T08:15:44Z</time>
      </trkpt>
      <trkpt lat="44.86411" lon="3.53048">
        <ele>1115.75</ele>
        <time>2024-08-15T08:16:00Z</time>
      </trkpt>
      <trkpt lat="44.8642" lon="3.53018">
        <ele>1116.71</ele>
        <time>2024-08-15T08:16:17Z</time>
      </trkpt>
      <trkpt lat="44.86434" lon="3.52981">
        <ele>1121.03</ele>
        <time>2024-08-15T08:16:36Z</time>
      </trkpt>
      <trkpt lat="44.86441" lon="3.5295">
        <ele>1124.88</ele>
        <time>2024-08-15T08:16:53Z</time>
      </trkpt>
      <trkpt lat="44.86441" lon="3.52911">
        <ele>1128.73</ele>
        <time>2024-08-15T08:17:11Z</time>
      </trkpt>
      <trkpt lat="44.86423" lon="3.52874">
        <ele>1134.49</ele>
        <time>2024-08-15T08:17:30Z</time>
      </trkpt>
      <trkpt lat="44.86416" lon="3.52842">
        <ele>1137.86</ele>
        <time>2024-08-15T08:17:48Z</time>
      </trkpt>
      <trkpt lat="44.86415" lon="3.52837">
        <ele>1138.34</ele>
        <time>2024-08-15T08:17:51Z</time>
      </trkpt>
      <trkpt lat="44.86419" lon="3.52802">
        <ele>1138.82</ele>
        <time>2024-08-15T08:18:09Z</time>
      </trkpt>
      <trkpt lat="44.86421" lon="3.52797">
        <ele>1138.82</ele>
        <time>2024-08-15T08:18:11Z</time>
      </trkpt>
      <trkpt lat="44.8644" lon="3.52767">
        <ele>1139.3</ele>
        <time>2024-08-15T08:18:30Z</time>
      </trkpt>
      <trkpt lat="44.86462" lon="3.52735">
        <ele>1139.78</ele>
        <time>2024-08-15T08:18:46Z</time>
      </trkpt>
      <trkpt lat="44.86486" lon="3.52699">
        <ele>1148.91</ele>
        <time>2024-08-15T08:19:05Z</time>
      </trkpt>
      <trkpt lat="44.86516" lon="3.52679">
        <ele>1154.68</ele>
        <time>2024-08-15T08:19:22Z</time>
      </trkpt>
      <trkpt lat="44.86542" lon="3.52658">
        <ele>1162.37</ele>
        <time>2024-08-15T08:19:41Z</time>
      </trkpt>
      <trkpt lat="44.86569" lon="3.52642">
        <ele>1166.7</ele>
        <time>2024-08-15T08:19:58Z</time>
      </trkpt>
      <trkpt lat="44.86595" lon="3.52627">
        <ele>1170.06</ele>
        <time>2024-08-15T08:20:15Z</time>
      </trkpt>
      <trkpt lat="44.86626" lon="3.5261">
        <ele>1171.98</ele>
        <time>2024-08-15T08:20:35Z</time>
      </trkpt>
      <trkpt lat="44.86657" lon="3.52579">
        <ele>1172.95</ele>
        <time>2024-08-15T08:20:59Z</time>
      </trkpt>
      <trkpt lat="44.86683" lon="3.52561">
        <ele>1172.95</ele>
        <time>2024-08-15T08:21:19Z</time>
      </trkpt>
      <trkpt lat="44.86711" lon="3.52543">
        <ele>1172.47</ele>
        <time>2024-08-15T08:21:38Z</time>
      </trkpt>
      <trkpt lat="44.86734" lon="3.52527">
        <ele>1172.47</ele>
        <time>2024-08-15T08:21:55Z</time>
      </trkpt>
      <trkpt lat="44.86747" lon="3.52505">
        <ele>1172.47</ele>
        <time>2024-08-15T08:22:09Z</time>
      </trkpt>
      <trkpt lat="44.86749" lon="3.52486">
        <ele>1177.75</ele>
        <time>2024-08-15T08:22:27Z</time>
      </trkpt>
      <trkpt lat="44.86747" lon="3.52476">
        <ele>1179.67</ele>
        <time>2024-08-15T08:22:46Z</time>
      </trkpt>
      <trkpt lat="44.86746" lon="3.5247">
        <ele>1181.6</ele>
        <time>2024-08-15T08:22:56Z</time>
      </trkpt>
      <trkpt lat="44.86749" lon="3.52464">
        <ele>1182.08</ele>
        <time>2024-08-15T08:23:11Z</time>
      </trkpt>
      <trkpt lat="44.8675" lon="3.52463">
        <ele>1181.12</ele>
        <time>2024-08-15T08:23:17Z</time>
      </trkpt>
      <trkpt lat="44.86773" lon="3.52447">
        <ele>1177.75</ele>
        <time>2024-08-15T08:23:36Z</time>
      </trkpt>
      <trkpt lat="44.86795" lon="3.52441">
        <ele>1176.31</ele>
        <time>2024-08-15T08:23:51Z</time>
      </trkpt>
      <trkpt lat="44.86812" lon="3.52415">
        <ele>1179.67</ele>
        <time>2024-08-15T08:24:07Z</time>
      </trkpt>
      <trkpt lat="44.86833" lon="3.52379">
        <ele>1184</ele>
        <time>2024-08-15T08:24:27Z</time>
      </trkpt>
      <trkpt lat="44.86854" lon="3.52345">
        <ele>1187.85</ele>
        <time>2024-08-15T08:24:47Z</time>
      </trkpt>
      <trkpt lat="44.8688" lon="3.52318">
        <ele>1193.13</ele>
        <time>2024-08-15T08:25:07Z</time>
      </trkpt>
      <trkpt lat="44.86913" lon="3.52301">
        <ele>1195.54</ele>
        <time>2024-08-15T08:25:29Z</time>
      </trkpt>
      <trkpt lat="44.86945" lon="3.5229">
        <ele>1197.46</ele>
        <time>2024-08-15T08:25:50Z</time>
      </trkpt>
      <trkpt lat="44.8697" lon="3.52277">
        <ele>1197.94</ele>
        <time>2024-08-15T08:26:07Z</time>
      </trkpt>
      <trkpt lat="44.86993" lon="3.52257">
        <ele>1199.86</ele>
        <time>2024-08-15T08:26:25Z</time>
      </trkpt>
      <trkpt lat="44.8701" lon="3.52239">
        <ele>1202.27</ele>
        <time>2024-08-15T08:26:40Z</time>
      </trkpt>
      <trkpt lat="44.8703" lon="3.52213">
        <ele>1202.75</ele>
        <time>2024-08-15T08:26:56Z</time>
      </trkpt>
      <trkpt lat="44.87053" lon="3.52194">
        <ele>1206.11</ele>
        <time>2024-08-15T08:27:12Z</time>
      </trkpt>
      <trkpt lat="44.87082" lon="3.52163">
        <ele>1204.19</ele>
        <time>2024-08-15T08:27:33Z</time>
      </trkpt>
      <trkpt lat="44.87103" lon="3.52133">
        <ele>1201.79</ele>
        <time>2024-08-15T08:27:52Z</time>
      </trkpt>
      <trkpt lat="44.8712" lon="3.52108">
        <ele>1202.75</ele>
        <time>2024-08-15T08:28:09Z</time>
      </trkpt>
      <trkpt lat="44.87132" lon="3.52088">
        <ele>1206.59</ele>
        <time>2024-08-15T08:28:25Z</time>
      </trkpt>
      <trkpt lat="44.87143" lon="3.52062">
        <ele>1209.96</ele>
        <time>2024-08-15T08:28:41Z</time>
      </trkpt>
      <trkpt lat="44.8715" lon="3.52039">
        <ele>1212.36</ele>
        <time>2024-08-15T08:28:56Z</time>
      </trkpt>
      <trkpt lat="44.87157" lon="3.51999">
        <ele>1212.36</ele>
        <time>2024-08-15T08:29:12Z</time>
      </trkpt>
      <trkpt lat="44.87158" lon="3.51987">
        <ele>1212.36</ele>
        <time>2024-08-15T08:29:18Z</time>
      </trkpt>
      <trkpt lat="44.87166" lon="3.5195">
        <ele>1213.32</ele>
        <time>2024-08-15T08:29:36Z</time>
      </trkpt>
      <trkpt lat="44.87173" lon="3.51923">
        <ele>1216.21</ele>
        <time>2024-08-15T08:29:52Z</time>
      </trkpt>
      <trkpt lat="44.87177" lon="3.51884">
        <ele>1219.57</ele>
        <time>2024-08-15T08:30:11Z</time>
      </trkpt>
      <trkpt lat="44.87172" lon="3.51861">
        <ele>1221.01</ele>
        <time>2024-08-15T08:30:24Z</time>
      </trkpt>
      <trkpt lat="44.87169" lon="3.51853">
        <ele>1221.01</ele>
        <time>2024-08-15T08:30:28Z</time>
      </trkpt>
      <trkpt lat="44.87167" lon="3.5183">
        <ele>1222.93</ele>
        <time>2024-08-15T08:30:41Z</time>
      </trkpt>
      <trkpt lat="44.87163" lon="3.51805">
        <ele>1230.62</ele>
        <time>2024-08-15T08:30:59Z</time>
      </trkpt>
      <trkpt lat="44.87169" lon="3.51765">
        <ele>1240.24</ele>
        <time>2024-08-15T08:31:15Z</time>
      </trkpt>
      <trkpt lat="44.8717" lon="3.51722">
        <ele>1249.37</ele>
        <time>2024-08-15T08:31:35Z</time>
      </trkpt>
      <trkpt lat="44.87173" lon="3.51692">
        <ele>1253.7</ele>
        <time>2024-08-15T08:31:51Z</time>
      </trkpt>
      <trkpt lat="44.87174" lon="3.51647">
        <ele>1254.18</ele>
        <time>2024-08-15T08:32:09Z</time>
      </trkpt>
      <trkpt lat="44.87174" lon="3.51625">
        <ele>1251.29</ele>
        <time>2024-08-15T08:32:19Z</time>
      </trkpt>
      <trkpt lat="44.87179" lon="3.51587">
        <ele>1248.89</ele>
        <time>2024-08-15T08:32:36Z</time>
      </trkpt>
      <trkpt lat="44.87184" lon="3.51557">
        <ele>1247.93</ele>
        <time>2024-08-15T08:32:52Z</time>
      </trkpt>
      <trkpt lat="44.87185" lon="3.51551">
        <ele>1247.93</ele>
        <time>2024-08-15T08:32:55Z</time>
      </trkpt>
      <trkpt lat="44.87197" lon="3.51518">
        <ele>1247.45</ele>
        <time>2024-08-15T08:33:11Z</time>
      </trkpt>
      <trkpt lat="44.87206" lon="3.51487">
        <ele>1250.33</ele>
        <time>2024-08-15T08:33:28Z</time>
      </trkpt>
      <trkpt lat="44.87217" lon="3.51454">
        <ele>1258.02</ele>
        <time>2024-08-15T08:33:47Z</time>
      </trkpt>
      <trkpt lat="44.87227" lon="3.51425">
        <ele>1267.64</ele>
        <time>2024-08-15T08:34:06Z</time>
      </trkpt>
      <trkpt lat="44.87234" lon="3.51416">
        <ele>1274.85</ele>
        <time>2024-08-15T08:34:23Z</time>
      </trkpt>
      <trkpt lat="44.87252" lon="3.51382">
        <ele>1268.6</ele>
        <time>2024-08-15T08:34:39Z</time>
      </trkpt>
      <trkpt lat="44.87262" lon="3.51349">
        <ele>1254.66</ele>
        <time>2024-08-15T08:34:45Z</time>
      </trkpt>
      <trkpt lat="44.87278" lon="3.51299">
        <ele>1242.16</ele>
        <time>2024-08-15T08:35:02Z</time>
      </trkpt>
      <trkpt lat="44.87286" lon="3.51269">
        <ele>1237.83</ele>
        <time>2024-08-15T08:35:16Z</time>
      </trkpt>
      <trkpt lat="44.87287" lon="3.51267">
        <ele>1237.83</ele>
        <time>2024-08-15T08:35:17Z</time>
      </trkpt>
      <trkpt lat="44.87293" lon="3.5123">
        <ele>1237.35</ele>
        <time>2024-08-15T08:35:33Z</time>
      </trkpt>
      <trkpt lat="44.87299" lon="3.51194">
        <ele>1237.83</ele>
        <time>2024-08-15T08:35:47Z</time>
      </trkpt>
      <trkpt lat="44.87304" lon="3.51149">
        <ele>1234.95</ele>
        <time>2024-08-15T08:36:05Z</time>
      </trkpt>
      <trkpt lat="44.87308" lon="3.51114">
        <ele>1231.59</ele>
        <time>2024-08-15T08:36:19Z</time>
      </trkpt>
      <trkpt lat="44.87312" lon="3.51084">
        <ele>1230.14</ele>
        <time>2024-08-15T08:36:33Z</time>
      </trkpt>
      <trkpt lat="44.87316" lon="3.51043">
        <ele>1226.78</ele>
        <time>2024-08-15T08:36:49Z</time>
      </trkpt>
      <trkpt lat="44.87312" lon="3.50995">
        <ele>1218.13</ele>
        <time>2024-08-15T08:37:06Z</time>
      </trkpt>
      <trkpt lat="44.87305" lon="3.50965">
        <ele>1214.28</ele>
        <time>2024-08-15T08:37:21Z</time>
      </trkpt>
      <trkpt lat="44.87302" lon="3.5096">
        <ele>1213.32</ele>
        <time>2024-08-15T08:37:24Z</time>
      </trkpt>
      <trkpt lat="44.87287" lon="3.50932">
        <ele>1210.92</ele>
        <time>2024-08-15T08:37:41Z</time>
      </trkpt>
      <trkpt lat="44.87274" lon="3.50905">
        <ele>1210.92</ele>
        <time>2024-08-15T08:37:58Z</time>
      </trkpt>
      <trkpt lat="44.87263" lon="3.50878">
        <ele>1215.24</ele>
        <time>2024-08-15T08:38:14Z</time>
      </trkpt>
      <trkpt lat="44.87255" lon="3.50855">
        <ele>1225.34</ele>
        <time>2024-08-15T08:38:29Z</time>
      </trkpt>
      <trkpt lat="44.87237" lon="3.50836">
        <ele>1227.74</ele>
        <time>2024-08-15T08:38:44Z</time>
      </trkpt>
      <trkpt lat="44.87212" lon="3.50826">
        <ele>1225.34</ele>
        <time>2024-08-15T08:39:00Z</time>
      </trkpt>
      <trkpt lat="44.87206" lon="3.50822">
        <ele>1224.38</ele>
        <time>2024-08-15T08:39:04Z</time>
      </trkpt>
      <trkpt lat="44.87195" lon="3.50802">
        <ele>1222.93</ele>
        <time>2024-08-15T08:39:14Z</time>
      </trkpt>
      <trkpt lat="44.87203" lon="3.50761">
        <ele>1215.72</ele>
        <time>2024-08-15T08:39:31Z</time>
      </trkpt>
      <trkpt lat="44.87222" lon="3.50719">
        <ele>1210.92</ele>
        <time>2024-08-15T08:39:49Z</time>
      </trkpt>
      <trkpt lat="44.87235" lon="3.50708">
        <ele>1211.4</ele>
        <time>2024-08-15T08:39:58Z</time>
      </trkpt>
      <trkpt lat="44.87239" lon="3.50702">
        <ele>1211.88</ele>
        <time>2024-08-15T08:40:02Z</time>
      </trkpt>
      <trkpt lat="44.87245" lon="3.50694">
        <ele>1212.36</ele>
        <time>2024-08-15T08:40:07Z</time>
      </trkpt>
      <trkpt lat="44.87252" lon="3.50686">
        <ele>1212.84</ele>
        <time>2024-08-15T08:40:13Z</time>
      </trkpt>
      <trkpt lat="44.87292" lon="3.5067">
        <ele>1203.23</ele>
        <time>2024-08-15T08:40:32Z</time>
      </trkpt>
      <trkpt lat="44.87307" lon="3.50671">
        <ele>1198.42</ele>
        <time>2024-08-15T08:40:42Z</time>
      </trkpt>
      <trkpt lat="44.87322" lon="3.50658">
        <ele>1191.69</ele>
        <time>2024-08-15T08:40:54Z</time>
      </trkpt>
      <trkpt lat="44.87315" lon="3.50634">
        <ele>1181.12</ele>
        <time>2024-08-15T08:41:10Z</time>
      </trkpt>
      <trkpt lat="44.87316" lon="3.50634">
        <ele>1174.87</ele>
        <time>2024-08-15T08:41:17Z</time>
      </trkpt>
      <trkpt lat="44.87321" lon="3.50642">
        <ele>1170.06</ele>
        <time>2024-08-15T08:41:32Z</time>
      </trkpt>
      <trkpt lat="44.87326" lon="3.50643">
        <ele>1166.7</ele>
        <time>2024-08-15T08:42:01Z</time>
      </trkpt>
      <trkpt lat="44.87325" lon="3.50644">
        <ele>1165.26</ele>
        <time>2024-08-15T08:42:24Z</time>
      </trkpt>
      <trkpt lat="44.87323" lon="3.50644">
        <ele>1163.81</ele>
        <time>2024-08-15T08:42:48Z</time>
      </trkpt>
      <trkpt lat="44.87321" lon="3.50645">
        <ele>1160.45</ele>
        <time>2024-08-15T08:43:13Z</time>
      </trkpt>
      <trkpt lat="44.87321" lon="3.50645">
        <ele>1161.89</ele>
        <time>2024-08-15T08:43:49Z</time>
      </trkpt>
      <trkpt lat="44.87322" lon="3.50646">
        <ele>1162.85</ele>
        <time>2024-08-15T08:44:15Z</time>
      </trkpt>
      <trkpt lat="44.87321" lon="3.50644">
        <ele>1163.33</ele>
        <time>2024-08-15T08:44:45Z</time>
      </trkpt>
      <trkpt lat="44.8732" lon="3.50647">
        <ele>1160.93</ele>
        <time>2024-08-15T08:45:13Z</time>
      </trkpt>
      <trkpt lat="44.87309" lon="3.5062">
        <ele>1161.41</ele>
        <time>2024-08-15T08:45:30Z</time>
      </trkpt>
      <trkpt lat="44.87304" lon="3.50586">
        <ele>1161.41</ele>
        <time>2024-08-15T08:45:46Z</time>
      </trkpt>
      <trkpt lat="44.87305" lon="3.50539">
        <ele>1159.97</ele>
        <time>2024-08-15T08:46:06Z</time>
      </trkpt>
      <trkpt lat="44.87322" lon="3.505">
        <ele>1159.01</ele>
        <time>2024-08-15T08:46:25Z</time>
      </trkpt>
      <trkpt lat="44.87337" lon="3.50474">
        <ele>1159.01</ele>
        <time>2024-08-15T08:46:41Z</time>
      </trkpt>
      <trkpt lat="44.87352" lon="3.50446">
        <ele>1157.56</ele>
        <time>2024-08-15T08:46:57Z</time>
      </trkpt>
      <trkpt lat="44.87374" lon="3.50413">
        <ele>1156.12</ele>
        <time>2024-08-15T08:47:15Z</time>
      </trkpt>
      <trkpt lat="44.87393" lon="3.50383">
        <ele>1154.68</ele>
        <time>2024-08-15T08:47:32Z</time>
      </trkpt>
      <trkpt lat="44.87417" lon="3.50349">
        <ele>1154.68</ele>
        <time>2024-08-15T08:47:52Z</time>
      </trkpt>
      <trkpt lat="44.87436" lon="3.50321">
        <ele>1157.56</ele>
        <time>2024-08-15T08:48:11Z</time>
      </trkpt>
      <trkpt lat="44.87449" lon="3.50283">
        <ele>1155.64</ele>
        <time>2024-08-15T08:48:30Z</time>
      </trkpt>
      <trkpt lat="44.8746" lon="3.50252">
        <ele>1154.68</ele>
        <time>2024-08-15T08:48:47Z</time>
      </trkpt>
      <trkpt lat="44.87468" lon="3.5023">
        <ele>1153.72</ele>
        <time>2024-08-15T08:49:00Z</time>
      </trkpt>
      <trkpt lat="44.87468" lon="3.5023">
        <ele>1153.24</ele>
        <time>2024-08-15T08:49:10Z</time>
      </trkpt>
      <trkpt lat="44.87465" lon="3.50251">
        <ele>1153.24</ele>
        <time>2024-08-15T08:49:22Z</time>
      </trkpt>
      <trkpt lat="44.87453" lon="3.50275">
        <ele>1154.2</ele>
        <time>2024-08-15T08:49:35Z</time>
      </trkpt>
      <trkpt lat="44.87453" lon="3.50289">
        <ele>1155.16</ele>
        <time>2024-08-15T08:49:43Z</time>
      </trkpt>
      <trkpt lat="44.87457" lon="3.50292">
        <ele>1154.68</ele>
        <time>2024-08-15T08:49:46Z</time>
      </trkpt>
      <trkpt lat="44.87476" lon="3.50279">
        <ele>1152.28</ele>
        <time>2024-08-15T08:50:03Z</time>
      </trkpt>
      <trkpt lat="44.875" lon="3.50274">
        <ele>1145.55</ele>
        <time>2024-08-15T08:50:19Z</time>
      </trkpt>
      <trkpt lat="44.87526" lon="3.50266">
        <ele>1140.26</ele>
        <time>2024-08-15T08:50:37Z</time>
      </trkpt>
      <trkpt lat="44.8755" lon="3.50253">
        <ele>1131.13</ele>
        <time>2024-08-15T08:50:55Z</time>
      </trkpt>
      <trkpt lat="44.87554" lon="3.50249">
        <ele>1129.69</ele>
        <time>2024-08-15T08:50:59Z</time>
      </trkpt>
      <trkpt lat="44.87575" lon="3.50227">
        <ele>1124.4</ele>
        <time>2024-08-15T08:51:16Z</time>
      </trkpt>
      <trkpt lat="44.87596" lon="3.50208">
        <ele>1119.59</ele>
        <time>2024-08-15T08:51:32Z</time>
      </trkpt>
      <trkpt lat="44.87622" lon="3.50196">
        <ele>1119.59</ele>
        <time>2024-08-15T08:51:50Z</time>
      </trkpt>
      <trkpt lat="44.8766" lon="3.50182">
        <ele>1118.15</ele>
        <time>2024-08-15T08:52:12Z</time>
      </trkpt>
      <trkpt lat="44.87687" lon="3.50159">
        <ele>1115.75</ele>
        <time>2024-08-15T08:52:31Z</time>
      </trkpt>
      <trkpt lat="44.87715" lon="3.50139">
        <ele>1113.82</ele>
        <time>2024-08-15T08:52:50Z</time>
      </trkpt>
      <trkpt lat="44.87733" lon="3.50114">
        <ele>1112.86</ele>
        <time>2024-08-15T08:53:07Z</time>
      </trkpt>
      <trkpt lat="44.87762" lon="3.50113">
        <ele>1111.42</ele>
        <time>2024-08-15T08:53:25Z</time>
      </trkpt>
      <trkpt lat="44.87778" lon="3.50131">
        <ele>1106.61</ele>
        <time>2024-08-15T08:53:41Z</time>
      </trkpt>
      <trkpt lat="44.87779" lon="3.50132">
        <ele>1106.61</ele>
        <time>2024-08-15T08:53:42Z</time>
      </trkpt>
      <trkpt lat="44.87784" lon="3.50134">
        <ele>1105.17</ele>
        <time>2024-08-15T08:53:46Z</time>
      </trkpt>
      <trkpt lat="44.87798" lon="3.5011">
        <ele>1100.37</ele>
        <time>2024-08-15T08:54:02Z</time>
      </trkpt>
      <trkpt lat="44.87807" lon="3.50077">
        <ele>1097.96</ele>
        <time>2024-08-15T08:54:19Z</time>
      </trkpt>
      <trkpt lat="44.87818" lon="3.50042">
        <ele>1094.6</ele>
        <time>2024-08-15T08:54:37Z</time>
      </trkpt>
      <trkpt lat="44.87832" lon="3.50009">
        <ele>1089.79</ele>
        <time>2024-08-15T08:54:54Z</time>
      </trkpt>
      <trkpt lat="44.87851" lon="3.50007">
        <ele>1087.87</ele>
        <time>2024-08-15T08:55:08Z</time>
      </trkpt>
      <trkpt lat="44.87882" lon="3.5002">
        <ele>1088.35</ele>
        <time>2024-08-15T08:55:24Z</time>
      </trkpt>
      <trkpt lat="44.87909" lon="3.50021">
        <ele>1089.31</ele>
        <time>2024-08-15T08:55:39Z</time>
      </trkpt>
      <trkpt lat="44.87943" lon="3.50016">
        <ele>1091.71</ele>
        <time>2024-08-15T08:56:00Z</time>
      </trkpt>
      <trkpt lat="44.87973" lon="3.50004">
        <ele>1095.56</ele>
        <time>2024-08-15T08:56:17Z</time>
      </trkpt>
      <trkpt lat="44.88001" lon="3.50007">
        <ele>1100.37</ele>
        <time>2024-08-15T08:56:35Z</time>
      </trkpt>
      <trkpt lat="44.88014" lon="3.50009">
        <ele>1104.21</ele>
        <time>2024-08-15T08:56:45Z</time>
      </trkpt>
      <trkpt lat="44.88015" lon="3.50007">
        <ele>1104.69</ele>
        <time>2024-08-15T08:56:46Z</time>
      </trkpt>
      <trkpt lat="44.88023" lon="3.49975">
        <ele>1115.27</ele>
        <time>2024-08-15T08:57:01Z</time>
      </trkpt>
      <trkpt lat="44.88022" lon="3.49967">
        <ele>1119.59</ele>
        <time>2024-08-15T08:57:18Z</time>
      </trkpt>
      <trkpt lat="44.88021" lon="3.4997">
        <ele>1120.07</ele>
        <time>2024-08-15T08:57:50Z</time>
      </trkpt>
      <trkpt lat="44.88022" lon="3.49968">
        <ele>1120.55</ele>
        <time>2024-08-15T08:58:11Z</time>
      </trkpt>
      <trkpt lat="44.88022" lon="3.49964">
        <ele>1119.59</ele>
        <time>2024-08-15T08:58:39Z</time>
      </trkpt>
      <trkpt lat="44.88021" lon="3.49957">
        <ele>1119.59</ele>
        <time>2024-08-15T08:58:47Z</time>
      </trkpt>
      <trkpt lat="44.88022" lon="3.4995">
        <ele>1118.63</ele>
        <time>2024-08-15T08:58:52Z</time>
      </trkpt>
      <trkpt lat="44.88033" lon="3.49938">
        <ele>1118.15</ele>
        <time>2024-08-15T08:59:04Z</time>
      </trkpt>
      <trkpt lat="44.88035" lon="3.49938">
        <ele>1118.15</ele>
        <time>2024-08-15T08:59:05Z</time>
      </trkpt>
      <trkpt lat="44.88036" lon="3.49937">
        <ele>1118.15</ele>
        <time>2024-08-15T08:59:06Z</time>
      </trkpt>
      <trkpt lat="44.88038" lon="3.49937">
        <ele>1118.15</ele>
        <time>2024-08-15T08:59:07Z</time>
      </trkpt>
      <trkpt lat="44.88039" lon="3.49936">
        <ele>1117.67</ele>
        <time>2024-08-15T08:59:08Z</time>
      </trkpt>
      <trkpt lat="44.88041" lon="3.49936">
        <ele>1118.15</ele>
        <time>2024-08-15T08:59:09Z</time>
      </trkpt>
      <trkpt lat="44.88043" lon="3.49935">
        <ele>1118.15</ele>
        <time>2024-08-15T08:59:10Z</time>
      </trkpt>
      <trkpt lat="44.88078" lon="3.4993">
        <ele>1127.28</ele>
        <time>2024-08-15T08:59:30Z</time>
      </trkpt>
      <trkpt lat="44.88087" lon="3.49932">
        <ele>1131.61</ele>
        <time>2024-08-15T08:59:41Z</time>
      </trkpt>
      <trkpt lat="44.88108" lon="3.49939">
        <ele>1134.97</ele>
        <time>2024-08-15T08:59:58Z</time>
      </trkpt>
      <trkpt lat="44.88133" lon="3.49916">
        <ele>1135.45</ele>
        <time>2024-08-15T09:00:17Z</time>
      </trkpt>
      <trkpt lat="44.88157" lon="3.49903">
        <ele>1138.34</ele>
        <time>2024-08-15T09:00:35Z</time>
      </trkpt>
      <trkpt lat="44.88178" lon="3.49895">
        <ele>1141.7</ele>
        <time>2024-08-15T09:00:49Z</time>
      </trkpt>
      <trkpt lat="44.88205" lon="3.49901">
        <ele>1144.11</ele>
        <time>2024-08-15T09:01:07Z</time>
      </trkpt>
      <trkpt lat="44.88235" lon="3.49903">
        <ele>1144.11</ele>
        <time>2024-08-15T09:01:27Z</time>
      </trkpt>
      <trkpt lat="44.88271" lon="3.49888">
        <ele>1146.03</ele>
        <time>2024-08-15T09:01:50Z</time>
      </trkpt>
      <trkpt lat="44.883" lon="3.49865">
        <ele>1147.95</ele>
        <time>2024-08-15T09:02:11Z</time>
      </trkpt>
      <trkpt lat="44.88325" lon="3.49837">
        <ele>1148.91</ele>
        <time>2024-08-15T09:02:30Z</time>
      </trkpt>
      <trkpt lat="44.88342" lon="3.49804">
        <ele>1149.39</ele>
        <time>2024-08-15T09:02:48Z</time>
      </trkpt>
      <trkpt lat="44.88356" lon="3.49774">
        <ele>1149.39</ele>
        <time>2024-08-15T09:03:04Z</time>
      </trkpt>
      <trkpt lat="44.88375" lon="3.49737">
        <ele>1149.39</ele>
        <time>2024-08-15T09:03:24Z</time>
      </trkpt>
      <trkpt lat="44.88392" lon="3.49701">
        <ele>1149.87</ele>
        <time>2024-08-15T09:03:42Z</time>
      </trkpt>
      <trkpt lat="44.8841" lon="3.49682">
        <ele>1150.84</ele>
        <time>2024-08-15T09:03:56Z</time>
      </trkpt>
      <trkpt lat="44.88439" lon="3.49675">
        <ele>1151.32</ele>
        <time>2024-08-15T09:04:14Z</time>
      </trkpt>
      <trkpt lat="44.88475" lon="3.49674">
        <ele>1151.8</ele>
        <time>2024-08-15T09:04:35Z</time>
      </trkpt>
      <trkpt lat="44.88509" lon="3.49678">
        <ele>1154.68</ele>
        <time>2024-08-15T09:04:54Z</time>
      </trkpt>
      <trkpt lat="44.8854" lon="3.49683">
        <ele>1155.16</ele>
        <time>2024-08-15T09:05:13Z</time>
      </trkpt>
      <trkpt lat="44.88575" lon="3.49687">
        <ele>1157.08</ele>
        <time>2024-08-15T09:05:34Z</time>
      </trkpt>
      <trkpt lat="44.88608" lon="3.49683">
        <ele>1156.6</ele>
        <time>2024-08-15T09:05:54Z</time>
      </trkpt>
      <trkpt lat="44.8864" lon="3.49671">
        <ele>1156.6</ele>
        <time>2024-08-15T09:06:14Z</time>
      </trkpt>
      <trkpt lat="44.88664" lon="3.49652">
        <ele>1157.56</ele>
        <time>2024-08-15T09:06:31Z</time>
      </trkpt>
      <trkpt lat="44.88687" lon="3.49628">
        <ele>1157.08</ele>
        <time>2024-08-15T09:06:49Z</time>
      </trkpt>
      <trkpt lat="44.88708" lon="3.49603">
        <ele>1155.64</ele>
        <time>2024-08-15T09:07:08Z</time>
      </trkpt>
      <trkpt lat="44.88723" lon="3.49581">
        <ele>1155.16</ele>
        <time>2024-08-15T09:07:25Z</time>
      </trkpt>
      <trkpt lat="44.88747" lon="3.49558">
        <ele>1155.16</ele>
        <time>2024-08-15T09:07:42Z</time>
      </trkpt>
      <trkpt lat="44.88768" lon="3.49519">
        <ele>1150.84</ele>
        <time>2024-08-15T09:08:02Z</time>
      </trkpt>
      <trkpt lat="44.88786" lon="3.49484">
        <ele>1146.51</ele>
        <time>2024-08-15T09:08:23Z</time>
      </trkpt>
      <trkpt lat="44.88804" lon="3.49449">
        <ele>1145.07</ele>
        <time>2024-08-15T09:08:42Z</time>
      </trkpt>
      <trkpt lat="44.88811" lon="3.49425">
        <ele>1144.11</ele>
        <time>2024-08-15T09:08:56Z</time>
      </trkpt>
      <trkpt lat="44.88811" lon="3.49425">
        <ele>1141.22</ele>
        <time>2024-08-15T09:09:22Z</time>
      </trkpt>
      <trkpt lat="44.8881" lon="3.49427">
        <ele>1141.7</ele>
        <time>2024-08-15T09:09:35Z</time>
      </trkpt>
      <trkpt lat="44.88809" lon="3.49412">
        <ele>1142.66</ele>
        <time>2024-08-15T09:09:47Z</time>
      </trkpt>
      <trkpt lat="44.88804" lon="3.49407">
        <ele>1143.14</ele>
        <time>2024-08-15T09:09:52Z</time>
      </trkpt>
      <trkpt lat="44.88791" lon="3.49388">
        <ele>1145.07</ele>
        <time>2024-08-15T09:10:09Z</time>
      </trkpt>
      <trkpt lat="44.88786" lon="3.49367">
        <ele>1145.55</ele>
        <time>2024-08-15T09:10:24Z</time>
      </trkpt>
      <trkpt lat="44.88777" lon="3.4934">
        <ele>1144.59</ele>
        <time>2024-08-15T09:10:41Z</time>
      </trkpt>
      <trkpt lat="44.88775" lon="3.49329">
        <ele>1145.55</ele>
        <time>2024-08-15T09:10:56Z</time>
      </trkpt>
      <trkpt lat="44.88774" lon="3.49327">
        <ele>1145.07</ele>
        <time>2024-08-15T09:11:13Z</time>
      </trkpt>
      <trkpt lat="44.88776" lon="3.49326">
        <ele>1146.51</ele>
        <time>2024-08-15T09:11:44Z</time>
      </trkpt>
      <trkpt lat="44.88777" lon="3.49333">
        <ele>1146.03</ele>
        <time>2024-08-15T09:12:04Z</time>
      </trkpt>
      <trkpt lat="44.88775" lon="3.49341">
        <ele>1146.03</ele>
        <time>2024-08-15T09:12:16Z</time>
      </trkpt>
      <trkpt lat="44.88781" lon="3.49369">
        <ele>1145.07</ele>
        <time>2024-08-15T09:12:34Z</time>
      </trkpt>
      <trkpt lat="44.88787" lon="3.49387">
        <ele>1142.18</ele>
        <time>2024-08-15T09:12:48Z</time>
      </trkpt>
      <trkpt lat="44.88802" lon="3.49415">
        <ele>1137.86</ele>
        <time>2024-08-15T09:13:07Z</time>
      </trkpt>
      <trkpt lat="44.88809" lon="3.4943">
        <ele>1137.38</ele>
        <time>2024-08-15T09:13:22Z</time>
      </trkpt>
      <trkpt lat="44.88809" lon="3.49431">
        <ele>1137.38</ele>
        <time>2024-08-15T09:13:32Z</time>
      </trkpt>
      <trkpt lat="44.8881" lon="3.49429">
        <ele>1140.26</ele>
        <time>2024-08-15T09:13:50Z</time>
      </trkpt>
      <trkpt lat="44.88812" lon="3.49427">
        <ele>1141.22</ele>
        <time>2024-08-15T09:14:09Z</time>
      </trkpt>
      <trkpt lat="44.88817" lon="3.4943">
        <ele>1142.18</ele>
        <time>2024-08-15T09:14:17Z</time>
      </trkpt>
      <trkpt lat="44.8882" lon="3.49434">
        <ele>1143.14</ele>
        <time>2024-08-15T09:14:31Z</time>
      </trkpt>
      <trkpt lat="44.88842" lon="3.49452">
        <ele>1140.74</ele>
        <time>2024-08-15T09:14:49Z</time>
      </trkpt>
      <trkpt lat="44.88862" lon="3.49468">
        <ele>1138.34</ele>
        <time>2024-08-15T09:15:04Z</time>
      </trkpt>
      <trkpt lat="44.88897" lon="3.49489">
        <ele>1136.42</ele>
        <time>2024-08-15T09:15:28Z</time>
      </trkpt>
      <trkpt lat="44.88934" lon="3.49496">
        <ele>1136.42</ele>
        <time>2024-08-15T09:15:51Z</time>
      </trkpt>
      <trkpt lat="44.88966" lon="3.49495">
        <ele>1139.3</ele>
        <time>2024-08-15T09:16:11Z</time>
      </trkpt>
      <trkpt lat="44.88981" lon="3.49509">
        <ele>1138.82</ele>
        <time>2024-08-15T09:16:23Z</time>
      </trkpt>
      <trkpt lat="44.88999" lon="3.49543">
        <ele>1134.01</ele>
        <time>2024-08-15T09:16:43Z</time>
      </trkpt>
      <trkpt lat="44.89016" lon="3.49574">
        <ele>1131.13</ele>
        <time>2024-08-15T09:17:01Z</time>
      </trkpt>
      <trkpt lat="44.89019" lon="3.49582">
        <ele>1133.05</ele>
        <time>2024-08-15T09:17:14Z</time>
      </trkpt>
      <trkpt lat="44.89035" lon="3.49613">
        <ele>1133.53</ele>
        <time>2024-08-15T09:17:32Z</time>
      </trkpt>
      <trkpt lat="44.8906" lon="3.49628">
        <ele>1134.01</ele>
        <time>2024-08-15T09:17:50Z</time>
      </trkpt>
      <trkpt lat="44.89081" lon="3.49636">
        <ele>1132.09</ele>
        <time>2024-08-15T09:18:07Z</time>
      </trkpt>
      <trkpt lat="44.89107" lon="3.49638">
        <ele>1131.13</ele>
        <time>2024-08-15T09:18:24Z</time>
      </trkpt>
      <trkpt lat="44.89112" lon="3.49639">
        <ele>1131.13</ele>
        <time>2024-08-15T09:18:27Z</time>
      </trkpt>
      <trkpt lat="44.89132" lon="3.49667">
        <ele>1130.17</ele>
        <time>2024-08-15T09:18:45Z</time>
      </trkpt>
      <trkpt lat="44.89147" lon="3.49711">
        <ele>1129.21</ele>
        <time>2024-08-15T09:19:07Z</time>
      </trkpt>
      <trkpt lat="44.89151" lon="3.49746">
        <ele>1128.73</ele>
        <time>2024-08-15T09:19:24Z</time>
      </trkpt>
      <trkpt lat="44.89155" lon="3.49795">
        <ele>1129.21</ele>
        <time>2024-08-15T09:19:41Z</time>
      </trkpt>
      <trkpt lat="44.89162" lon="3.49831">
        <ele>1127.28</ele>
        <time>2024-08-15T09:19:58Z</time>
      </trkpt>
      <trkpt lat="44.8918" lon="3.49869">
        <ele>1128.24</ele>
        <time>2024-08-15T09:20:15Z</time>
      </trkpt>
      <trkpt lat="44.89194" lon="3.49898">
        <ele>1132.09</ele>
        <time>2024-08-15T09:20:31Z</time>
      </trkpt>
      <trkpt lat="44.89213" lon="3.49936">
        <ele>1131.13</ele>
        <time>2024-08-15T09:20:51Z</time>
      </trkpt>
      <trkpt lat="44.89227" lon="3.49969">
        <ele>1130.17</ele>
        <time>2024-08-15T09:21:09Z</time>
      </trkpt>
      <trkpt lat="44.89239" lon="3.50006">
        <ele>1133.53</ele>
        <time>2024-08-15T09:21:28Z</time>
      </trkpt>
      <trkpt lat="44.89243" lon="3.50051">
        <ele>1133.53</ele>
        <time>2024-08-15T09:21:47Z</time>
      </trkpt>
      <trkpt lat="44.89242" lon="3.50101">
        <ele>1132.09</ele>
        <time>2024-08-15T09:22:08Z</time>
      </trkpt>
      <trkpt lat="44.89238" lon="3.5015">
        <ele>1129.21</ele>
        <time>2024-08-15T09:22:28Z</time>
      </trkpt>
      <trkpt lat="44.89224" lon="3.50179">
        <ele>1127.28</ele>
        <time>2024-08-15T09:22:44Z</time>
      </trkpt>
      <trkpt lat="44.89201" lon="3.5022">
        <ele>1126.32</ele>
        <time>2024-08-15T09:23:03Z</time>
      </trkpt>
      <trkpt lat="44.89177" lon="3.50263">
        <ele>1129.21</ele>
        <time>2024-08-15T09:23:23Z</time>
      </trkpt>
      <trkpt lat="44.89156" lon="3.50304">
        <ele>1129.21</ele>
        <time>2024-08-15T09:23:43Z</time>
      </trkpt>
      <trkpt lat="44.89147" lon="3.50345">
        <ele>1129.21</ele>
        <time>2024-08-15T09:24:02Z</time>
      </trkpt>
      <trkpt lat="44.89152" lon="3.50384">
        <ele>1128.73</ele>
        <time>2024-08-15T09:24:20Z</time>
      </trkpt>
      <trkpt lat="44.89175" lon="3.50414">
        <ele>1128.24</ele>
        <time>2024-08-15T09:24:39Z</time>
      </trkpt>
      <trkpt lat="44.892" lon="3.50435">
        <ele>1127.76</ele>
        <time>2024-08-15T09:24:57Z</time>
      </trkpt>
      <trkpt lat="44.89225" lon="3.50441">
        <ele>1128.24</ele>
        <time>2024-08-15T09:25:13Z</time>
      </trkpt>
      <trkpt lat="44.89254" lon="3.50441">
        <ele>1129.69</ele>
        <time>2024-08-15T09:25:30Z</time>
      </trkpt>
      <trkpt lat="44.89284" lon="3.5045">
        <ele>1130.65</ele>
        <time>2024-08-15T09:25:50Z</time>
      </trkpt>
      <trkpt lat="44.89313" lon="3.50467">
        <ele>1130.65</ele>
        <time>2024-08-15T09:26:07Z</time>
      </trkpt>
      <trkpt lat="44.89341" lon="3.50483">
        <ele>1133.53</ele>
        <time>2024-08-15T09:26:26Z</time>
      </trkpt>
      <trkpt lat="44.89371" lon="3.50494">
        <ele>1137.86</ele>
        <time>2024-08-15T09:26:45Z</time>
      </trkpt>
      <trkpt lat="44.89404" lon="3.50499">
        <ele>1141.22</ele>
        <time>2024-08-15T09:27:05Z</time>
      </trkpt>
      <trkpt lat="44.89433" lon="3.50487">
        <ele>1145.55</ele>
        <time>2024-08-15T09:27:25Z</time>
      </trkpt>
      <trkpt lat="44.89465" lon="3.50478">
        <ele>1144.59</ele>
        <time>2024-08-15T09:27:46Z</time>
      </trkpt>
      <trkpt lat="44.8949" lon="3.5048">
        <ele>1144.11</ele>
        <time>2024-08-15T09:28:04Z</time>
      </trkpt>
      <trkpt lat="44.89517" lon="3.50483">
        <ele>1144.59</ele>
        <time>2024-08-15T09:28:22Z</time>
      </trkpt>
      <trkpt lat="44.89542" lon="3.50487">
        <ele>1144.11</ele>
        <time>2024-08-15T09:28:39Z</time>
      </trkpt>
      <trkpt lat="44.8957" lon="3.50486">
        <ele>1143.14</ele>
        <time>2024-08-15T09:28:57Z</time>
      </trkpt>
      <trkpt lat="44.89598" lon="3.50489">
        <ele>1143.14</ele>
        <time>2024-08-15T09:29:14Z</time>
      </trkpt>
      <trkpt lat="44.89622" lon="3.50498">
        <ele>1142.18</ele>
        <time>2024-08-15T09:29:30Z</time>
      </trkpt>
      <trkpt lat="44.89651" lon="3.50496">
        <ele>1139.3</ele>
        <time>2024-08-15T09:29:48Z</time>
      </trkpt>
      <trkpt lat="44.89678" lon="3.50473">
        <ele>1142.66</ele>
        <time>2024-08-15T09:30:07Z</time>
      </trkpt>
      <trkpt lat="44.89706" lon="3.50463">
        <ele>1143.14</ele>
        <time>2024-08-15T09:30:28Z</time>
      </trkpt>
      <trkpt lat="44.89736" lon="3.50458">
        <ele>1142.18</ele>
        <time>2024-08-15T09:30:47Z</time>
      </trkpt>
      <trkpt lat="44.89754" lon="3.50453">
        <ele>1141.7</ele>
        <time>2024-08-15T09:31:03Z</time>
      </trkpt>
      <trkpt lat="44.89758" lon="3.50452">
        <ele>1144.11</ele>
        <time>2024-08-15T09:31:24Z</time>
      </trkpt>
      <trkpt lat="44.89758" lon="3.50452">
        <ele>1145.07</ele>
        <time>2024-08-15T09:31:42Z</time>
      </trkpt>
      <trkpt lat="44.8976" lon="3.50457">
        <ele>1146.51</ele>
        <time>2024-08-15T09:32:01Z</time>
      </trkpt>
      <trkpt lat="44.89758" lon="3.50451">
        <ele>1146.99</ele>
        <time>2024-08-15T09:32:19Z</time>
      </trkpt>
      <trkpt lat="44.89758" lon="3.50446">
        <ele>1146.51</ele>
        <time>2024-08-15T09:32:24Z</time>
      </trkpt>
      <trkpt lat="44.89755" lon="3.50425">
        <ele>1146.99</ele>
        <time>2024-08-15T09:32:40Z</time>
      </trkpt>
      <trkpt lat="44.89757" lon="3.50421">
        <ele>1147.95</ele>
        <time>2024-08-15T09:32:43Z</time>
      </trkpt>
      <trkpt lat="44.89759" lon="3.5042">
        <ele>1147.95</ele>
        <time>2024-08-15T09:32:44Z</time>
      </trkpt>
      <trkpt lat="44.8976" lon="3.5042">
        <ele>1147.95</ele>
        <time>2024-08-15T09:32:45Z</time>
      </trkpt>
      <trkpt lat="44.89762" lon="3.50421">
        <ele>1147.95</ele>
        <time>2024-08-15T09:32:46Z</time>
      </trkpt>
      <trkpt lat="44.89764" lon="3.50422">
        <ele>1147.47</ele>
        <time>2024-08-15T09:32:47Z</time>
      </trkpt>
      <trkpt lat="44.89765" lon="3.50424">
        <ele>1147.47</ele>
        <time>2024-08-15T09:32:48Z</time>
      </trkpt>
      <trkpt lat="44.89767" lon="3.50425">
        <ele>1147.47</ele>
        <time>2024-08-15T09:32:49Z</time>
      </trkpt>
      <trkpt lat="44.89768" lon="3.50427">
        <ele>1146.99</ele>
        <time>2024-08-15T09:32:50Z</time>
      </trkpt>
      <trkpt lat="44.89769" lon="3.50429">
        <ele>1146.99</ele>
        <time>2024-08-15T09:32:51Z</time>
      </trkpt>
      <trkpt lat="44.8979" lon="3.50458">
        <ele>1146.03</ele>
        <time>2024-08-15T09:33:08Z</time>
      </trkpt>
      <trkpt lat="44.89815" lon="3.50497">
        <ele>1145.07</ele>
        <time>2024-08-15T09:33:30Z</time>
      </trkpt>
      <trkpt lat="44.89838" lon="3.5053">
        <ele>1144.11</ele>
        <time>2024-08-15T09:33:51Z</time>
      </trkpt>
      <trkpt lat="44.89859" lon="3.50556">
        <ele>1143.14</ele>
        <time>2024-08-15T09:34:08Z</time>
      </trkpt>
      <trkpt lat="44.89867" lon="3.50581">
        <ele>1142.66</ele>
        <time>2024-08-15T09:34:23Z</time>
      </trkpt>
      <trkpt lat="44.89868" lon="3.50594">
        <ele>1142.66</ele>
        <time>2024-08-15T09:34:30Z</time>
      </trkpt>
      <trkpt lat="44.89868" lon="3.50596">
        <ele>1142.66</ele>
        <time>2024-08-15T09:34:31Z</time>
      </trkpt>
      <trkpt lat="44.89868" lon="3.50598">
        <ele>1142.66</ele>
        <time>2024-08-15T09:34:32Z</time>
      </trkpt>
      <trkpt lat="44.89868" lon="3.506">
        <ele>1142.66</ele>
        <time>2024-08-15T09:34:33Z</time>
      </trkpt>
      <trkpt lat="44.89868" lon="3.50602">
        <ele>1142.66</ele>
        <time>2024-08-15T09:34:34Z</time>
      </trkpt>
      <trkpt lat="44.89891" lon="3.50634">
        <ele>1144.11</ele>
        <time>2024-08-15T09:34:51Z</time>
      </trkpt>
      <trkpt lat="44.8991" lon="3.50668">
        <ele>1147.47</ele>
        <time>2024-08-15T09:35:11Z</time>
      </trkpt>
      <trkpt lat="44.89912" lon="3.50678">
        <ele>1147.47</ele>
        <time>2024-08-15T09:35:18Z</time>
      </trkpt>
      <trkpt lat="44.89913" lon="3.50679">
        <ele>1147.47</ele>
        <time>2024-08-15T09:35:19Z</time>
      </trkpt>
      <trkpt lat="44.89939" lon="3.50698">
        <ele>1149.87</ele>
        <time>2024-08-15T09:35:36Z</time>
      </trkpt>
      <trkpt lat="44.89966" lon="3.50698">
        <ele>1146.51</ele>
        <time>2024-08-15T09:35:55Z</time>
      </trkpt>
      <trkpt lat="44.89996" lon="3.50708">
        <ele>1143.63</ele>
        <time>2024-08-15T09:36:14Z</time>
      </trkpt>
      <trkpt lat="44.90025" lon="3.50704">
        <ele>1143.14</ele>
        <time>2024-08-15T09:36:32Z</time>
      </trkpt>
      <trkpt lat="44.90051" lon="3.50696">
        <ele>1142.18</ele>
        <time>2024-08-15T09:36:49Z</time>
      </trkpt>
      <trkpt lat="44.90076" lon="3.50701">
        <ele>1140.74</ele>
        <time>2024-08-15T09:37:07Z</time>
      </trkpt>
      <trkpt lat="44.90097" lon="3.5068">
        <ele>1141.22</ele>
        <time>2024-08-15T09:37:23Z</time>
      </trkpt>
      <trkpt lat="44.90125" lon="3.50657">
        <ele>1140.74</ele>
        <time>2024-08-15T09:37:43Z</time>
      </trkpt>
      <trkpt lat="44.90157" lon="3.50645">
        <ele>1137.38</ele>
        <time>2024-08-15T09:38:05Z</time>
      </trkpt>
      <trkpt lat="44.90184" lon="3.5064">
        <ele>1135.45</ele>
        <time>2024-08-15T09:38:21Z</time>
      </trkpt>
      <trkpt lat="44.90192" lon="3.50643">
        <ele>1134.97</ele>
        <time>2024-08-15T09:38:26Z</time>
      </trkpt>
      <trkpt lat="44.90193" lon="3.50644">
        <ele>1134.49</ele>
        <time>2024-08-15T09:38:27Z</time>
      </trkpt>
      <trkpt lat="44.90194" lon="3.50646">
        <ele>1134.49</ele>
        <time>2024-08-15T09:38:28Z</time>
      </trkpt>
      <trkpt lat="44.90194" lon="3.50648">
        <ele>1134.49</ele>
        <time>2024-08-15T09:38:29Z</time>
      </trkpt>
      <trkpt lat="44.90194" lon="3.5065">
        <ele>1134.01</ele>
        <time>2024-08-15T09:38:30Z</time>
      </trkpt>
      <trkpt lat="44.90194" lon="3.50653">
        <ele>1134.49</ele>
        <time>2024-08-15T09:38:31Z</time>
      </trkpt>
      <trkpt lat="44.90194" lon="3.50655">
        <ele>1134.49</ele>
        <time>2024-08-15T09:38:32Z</time>
      </trkpt>
      <trkpt lat="44.90186" lon="3.50705">
        <ele>1135.94</ele>
        <time>2024-08-15T09:38:55Z</time>
      </trkpt>
      <trkpt lat="44.90183" lon="3.50746">
        <ele>1135.45</ele>
        <time>2024-08-15T09:39:14Z</time>
      </trkpt>
      <trkpt lat="44.90188" lon="3.50761">
        <ele>1135.45</ele>
        <time>2024-08-15T09:39:22Z</time>
      </trkpt>
      <trkpt lat="44.90189" lon="3.50761">
        <ele>1135.45</ele>
        <time>2024-08-15T09:39:23Z</time>
      </trkpt>
      <trkpt lat="44.90191" lon="3.50762">
        <ele>1135.45</ele>
        <time>2024-08-15T09:39:24Z</time>
      </trkpt>
      <trkpt lat="44.90192" lon="3.50762">
        <ele>1135.94</ele>
        <time>2024-08-15T09:39:25Z</time>
      </trkpt>
      <trkpt lat="44.90194" lon="3.50761">
        <ele>1135.94</ele>
        <time>2024-08-15T09:39:26Z</time>
      </trkpt>
      <trkpt lat="44.90195" lon="3.50761">
        <ele>1135.94</ele>
        <time>2024-08-15T09:39:27Z</time>
      </trkpt>
      <trkpt lat="44.90196" lon="3.5076">
        <ele>1135.94</ele>
        <time>2024-08-15T09:39:28Z</time>
      </trkpt>
      <trkpt lat="44.9022" lon="3.50757">
        <ele>1133.53</ele>
        <time>2024-08-15T09:39:44Z</time>
      </trkpt>
      <trkpt lat="44.90245" lon="3.5077">
        <ele>1129.69</ele>
        <time>2024-08-15T09:40:02Z</time>
      </trkpt>
      <trkpt lat="44.90268" lon="3.50791">
        <ele>1127.76</ele>
        <time>2024-08-15T09:40:19Z</time>
      </trkpt>
      <trkpt lat="44.90292" lon="3.50809">
        <ele>1125.84</ele>
        <time>2024-08-15T09:40:36Z</time>
      </trkpt>
      <trkpt lat="44.90306" lon="3.50789">
        <ele>1123.92</ele>
        <time>2024-08-15T09:40:50Z</time>
      </trkpt>
      <trkpt lat="44.90324" lon="3.50751">
        <ele>1123.44</ele>
        <time>2024-08-15T09:41:10Z</time>
      </trkpt>
      <trkpt lat="44.90353" lon="3.50749">
        <ele>1123.92</ele>
        <time>2024-08-15T09:41:29Z</time>
      </trkpt>
      <trkpt lat="44.90384" lon="3.50753">
        <ele>1123.44</ele>
        <time>2024-08-15T09:41:50Z</time>
      </trkpt>
      <trkpt lat="44.90413" lon="3.50756">
        <ele>1123.92</ele>
        <time>2024-08-15T09:42:09Z</time>
      </trkpt>
      <trkpt lat="44.90442" lon="3.5075">
        <ele>1122.48</ele>
        <time>2024-08-15T09:42:28Z</time>
      </trkpt>
      <trkpt lat="44.90466" lon="3.50736">
        <ele>1122</ele>
        <time>2024-08-15T09:42:44Z</time>
      </trkpt>
      <trkpt lat="44.90488" lon="3.50719">
        <ele>1121.52</ele>
        <time>2024-08-15T09:43:01Z</time>
      </trkpt>
      <trkpt lat="44.90512" lon="3.50697">
        <ele>1119.59</ele>
        <time>2024-08-15T09:43:19Z</time>
      </trkpt>
      <trkpt lat="44.90531" lon="3.50679">
        <ele>1119.59</ele>
        <time>2024-08-15T09:43:37Z</time>
      </trkpt>
      <trkpt lat="44.90557" lon="3.50652">
        <ele>1119.11</ele>
        <time>2024-08-15T09:43:59Z</time>
      </trkpt>
      <trkpt lat="44.90578" lon="3.50625">
        <ele>1115.27</ele>
        <time>2024-08-15T09:44:16Z</time>
      </trkpt>
      <trkpt lat="44.90595" lon="3.50602">
        <ele>1110.94</ele>
        <time>2024-08-15T09:44:31Z</time>
      </trkpt>
      <trkpt lat="44.906" lon="3.50597">
        <ele>1109.5</ele>
        <time>2024-08-15T09:44:35Z</time>
      </trkpt>
      <trkpt lat="44.90624" lon="3.50578">
        <ele>1110.94</ele>
        <time>2024-08-15T09:44:52Z</time>
      </trkpt>
      <trkpt lat="44.90627" lon="3.50586">
        <ele>1109.5</ele>
        <time>2024-08-15T09:44:59Z</time>
      </trkpt>
      <trkpt lat="44.90621" lon="3.50618">
        <ele>1106.61</ele>
        <time>2024-08-15T09:45:16Z</time>
      </trkpt>
      <trkpt lat="44.90611" lon="3.50655">
        <ele>1106.13</ele>
        <time>2024-08-15T09:45:36Z</time>
      </trkpt>
      <trkpt lat="44.90616" lon="3.50702">
        <ele>1105.65</ele>
        <time>2024-08-15T09:45:55Z</time>
      </trkpt>
      <trkpt lat="44.90619" lon="3.50739">
        <ele>1106.13</ele>
        <time>2024-08-15T09:46:11Z</time>
      </trkpt>
      <trkpt lat="44.9062" lon="3.50739">
        <ele>1106.13</ele>
        <time>2024-08-15T09:46:12Z</time>
      </trkpt>
      <trkpt lat="44.90621" lon="3.50738">
        <ele>1106.13</ele>
        <time>2024-08-15T09:46:13Z</time>
      </trkpt>
      <trkpt lat="44.90623" lon="3.50738">
        <ele>1106.13</ele>
        <time>2024-08-15T09:46:14Z</time>
      </trkpt>
      <trkpt lat="44.90624" lon="3.50737">
        <ele>1106.13</ele>
        <time>2024-08-15T09:46:15Z</time>
      </trkpt>
      <trkpt lat="44.90626" lon="3.50736">
        <ele>1106.13</ele>
        <time>2024-08-15T09:46:16Z</time>
      </trkpt>
      <trkpt lat="44.90627" lon="3.50735">
        <ele>1105.65</ele>
        <time>2024-08-15T09:46:17Z</time>
      </trkpt>
      <trkpt lat="44.90641" lon="3.50721">
        <ele>1104.69</ele>
        <time>2024-08-15T09:46:28Z</time>
      </trkpt>
      <trkpt lat="44.90674" lon="3.50725">
        <ele>1103.25</ele>
        <time>2024-08-15T09:46:50Z</time>
      </trkpt>
      <trkpt lat="44.907" lon="3.50727">
        <ele>1102.77</ele>
        <time>2024-08-15T09:47:06Z</time>
      </trkpt>
      <trkpt lat="44.9073" lon="3.50732">
        <ele>1099.89</ele>
        <time>2024-08-15T09:47:26Z</time>
      </trkpt>
      <trkpt lat="44.9076" lon="3.5073">
        <ele>1098.44</ele>
        <time>2024-08-15T09:47:45Z</time>
      </trkpt>
      <trkpt lat="44.90785" lon="3.50711">
        <ele>1096.04</ele>
        <time>2024-08-15T09:48:03Z</time>
      </trkpt>
      <trkpt lat="44.90809" lon="3.50683">
        <ele>1092.68</ele>
        <time>2024-08-15T09:48:23Z</time>
      </trkpt>
      <trkpt lat="44.90827" lon="3.5067">
        <ele>1090.27</ele>
        <time>2024-08-15T09:48:39Z</time>
      </trkpt>
      <trkpt lat="44.90832" lon="3.50666">
        <ele>1092.68</ele>
        <time>2024-08-15T09:48:58Z</time>
      </trkpt>
      <trkpt lat="44.90859" lon="3.50643">
        <ele>1093.16</ele>
        <time>2024-08-15T09:49:20Z</time>
      </trkpt>
      <trkpt lat="44.90876" lon="3.50623">
        <ele>1091.71</ele>
        <time>2024-08-15T09:49:36Z</time>
      </trkpt>
      <trkpt lat="44.90876" lon="3.50621">
        <ele>1091.71</ele>
        <time>2024-08-15T09:49:37Z</time>
      </trkpt>
      <trkpt lat="44.9088" lon="3.50585">
        <ele>1087.39</ele>
        <time>2024-08-15T09:49:54Z</time>
      </trkpt>
      <trkpt lat="44.9089" lon="3.50564">
        <ele>1086.43</ele>
        <time>2024-08-15T09:50:05Z</time>
      </trkpt>
      <trkpt lat="44.90891" lon="3.50563">
        <ele>1086.43</ele>
        <time>2024-08-15T09:50:06Z</time>
      </trkpt>
      <trkpt lat="44.90893" lon="3.50561">
        <ele>1086.43</ele>
        <time>2024-08-15T09:50:07Z</time>
      </trkpt>
      <trkpt lat="44.90894" lon="3.5056">
        <ele>1086.43</ele>
        <time>2024-08-15T09:50:08Z</time>
      </trkpt>
      <trkpt lat="44.90896" lon="3.50558">
        <ele>1086.43</ele>
        <time>2024-08-15T09:50:09Z</time>
      </trkpt>
      <trkpt lat="44.90898" lon="3.50557">
        <ele>1086.91</ele>
        <time>2024-08-15T09:50:10Z</time>
      </trkpt>
      <trkpt lat="44.90899" lon="3.50555">
        <ele>1087.39</ele>
        <time>2024-08-15T09:50:11Z</time>
      </trkpt>
      <trkpt lat="44.90901" lon="3.50553">
        <ele>1087.87</ele>
        <time>2024-08-15T09:50:12Z</time>
      </trkpt>
      <trkpt lat="44.90921" lon="3.50523">
        <ele>1090.75</ele>
        <time>2024-08-15T09:50:30Z</time>
      </trkpt>
      <trkpt lat="44.90941" lon="3.50492">
        <ele>1093.64</ele>
        <time>2024-08-15T09:50:51Z</time>
      </trkpt>
      <trkpt lat="44.90957" lon="3.50486">
        <ele>1094.12</ele>
        <time>2024-08-15T09:51:06Z</time>
      </trkpt>
      <trkpt lat="44.90982" lon="3.50519">
        <ele>1096.04</ele>
        <time>2024-08-15T09:51:29Z</time>
      </trkpt>
      <trkpt lat="44.90995" lon="3.50549">
        <ele>1094.6</ele>
        <time>2024-08-15T09:51:46Z</time>
      </trkpt>
      <trkpt lat="44.90996" lon="3.50554">
        <ele>1094.6</ele>
        <time>2024-08-15T09:51:48Z</time>
      </trkpt>
      <trkpt lat="44.90996" lon="3.50557">
        <ele>1095.08</ele>
        <time>2024-08-15T09:51:49Z</time>
      </trkpt>
      <trkpt lat="44.90995" lon="3.50559">
        <ele>1095.08</ele>
        <time>2024-08-15T09:51:50Z</time>
      </trkpt>
      <trkpt lat="44.9099" lon="3.50564">
        <ele>1096.04</ele>
        <time>2024-08-15T09:51:53Z</time>
      </trkpt>
      <trkpt lat="44.90969" lon="3.50566">
        <ele>1099.89</ele>
        <time>2024-08-15T09:52:10Z</time>
      </trkpt>
      <trkpt lat="44.90969" lon="3.50565">
        <ele>1100.37</ele>
        <time>2024-08-15T09:52:34Z</time>
      </trkpt>
      <trkpt lat="44.9097" lon="3.50566">
        <ele>1100.37</ele>
        <time>2024-08-15T09:52:52Z</time>
      </trkpt>
      <trkpt lat="44.90967" lon="3.50568">
        <ele>1103.73</ele>
        <time>2024-08-15T09:53:19Z</time>
      </trkpt>
      <trkpt lat="44.90967" lon="3.50566">
        <ele>1101.33</ele>
        <time>2024-08-15T09:53:52Z</time>
      </trkpt>
      <trkpt lat="44.90968" lon="3.50566">
        <ele>1102.29</ele>
        <time>2024-08-15T09:54:23Z</time>
      </trkpt>
      <trkpt lat="44.90969" lon="3.50556">
        <ele>1100.37</ele>
        <time>2024-08-15T09:54:52Z</time>
      </trkpt>
      <trkpt lat="44.9097" lon="3.50558">
        <ele>1099.89</ele>
        <time>2024-08-15T09:55:27Z</time>
      </trkpt>
      <trkpt lat="44.9097" lon="3.50558">
        <ele>1101.33</ele>
        <time>2024-08-15T09:55:57Z</time>
      </trkpt>
      <trkpt lat="44.90968" lon="3.50554">
        <ele>1101.81</ele>
        <time>2024-08-15T09:56:17Z</time>
      </trkpt>
      <trkpt lat="44.90968" lon="3.50556">
        <ele>1100.85</ele>
        <time>2024-08-15T09:56:21Z</time>
      </trkpt>
      <trkpt lat="44.90965" lon="3.50569">
        <ele>1099.4</ele>
        <time>2024-08-15T09:56:36Z</time>
      </trkpt>
      <trkpt lat="44.90964" lon="3.50561">
        <ele>1101.33</ele>
        <time>2024-08-15T09:57:00Z</time>
      </trkpt>
      <trkpt lat="44.90972" lon="3.50562">
        <ele>1099.89</ele>
        <time>2024-08-15T09:57:22Z</time>
      </trkpt>
      <trkpt lat="44.90972" lon="3.50564">
        <ele>1100.37</ele>
        <time>2024-08-15T09:57:54Z</time>
      </trkpt>
      <trkpt lat="44.90972" lon="3.50564">
        <ele>1099.89</ele>
        <time>2024-08-15T09:58:24Z</time>
      </trkpt>
      <trkpt lat="44.90975" lon="3.50564">
        <ele>1100.37</ele>
        <time>2024-08-15T09:58:54Z</time>
      </trkpt>
      <trkpt lat="44.90974" lon="3.50562">
        <ele>1099.89</ele>
        <time>2024-08-15T09:59:25Z</time>
      </trkpt>
      <trkpt lat="44.90972" lon="3.50564">
        <ele>1101.81</ele>
        <time>2024-08-15T09:59:51Z</time>
      </trkpt>
      <trkpt lat="44.90979" lon="3.50563">
        <ele>1101.81</ele>
        <time>2024-08-15T10:00:09Z</time>
      </trkpt>
      <trkpt lat="44.90981" lon="3.50565">
        <ele>1100.85</ele>
        <time>2024-08-15T10:00:35Z</time>
      </trkpt>
      <trkpt lat="44.90979" lon="3.50567">
        <ele>1099.89</ele>
        <time>2024-08-15T10:00:55Z</time>
      </trkpt>
      <trkpt lat="44.90976" lon="3.50565">
        <ele>1099.89</ele>
        <time>2024-08-15T10:01:09Z</time>
      </trkpt>
      <trkpt lat="44.90978" lon="3.50561">
        <ele>1103.25</ele>
        <time>2024-08-15T10:01:38Z</time>
      </trkpt>
      <trkpt lat="44.9099" lon="3.50563">
        <ele>1100.37</ele>
        <time>2024-08-15T10:01:56Z</time>
      </trkpt>
      <trkpt lat="44.90997" lon="3.50557">
        <ele>1098.92</ele>
        <time>2024-08-15T10:02:08Z</time>
      </trkpt>
      <trkpt lat="44.90995" lon="3.50552">
        <ele>1097.48</ele>
        <time>2024-08-15T10:02:22Z</time>
      </trkpt>
      <trkpt lat="44.90994" lon="3.5055">
        <ele>1094.6</ele>
        <time>2024-08-15T10:02:40Z</time>
      </trkpt>
      <trkpt lat="44.90993" lon="3.50547">
        <ele>1096.04</ele>
        <time>2024-08-15T10:03:06Z</time>
      </trkpt>
      <trkpt lat="44.90993" lon="3.50547">
        <ele>1096.04</ele>
        <time>2024-08-15T10:03:24Z</time>
      </trkpt>
      <trkpt lat="44.90991" lon="3.50546">
        <ele>1096.52</ele>
        <time>2024-08-15T10:03:27Z</time>
      </trkpt>
      <trkpt lat="44.90987" lon="3.50537">
        <ele>1096.04</ele>
        <time>2024-08-15T10:03:36Z</time>
      </trkpt>
      <trkpt lat="44.90991" lon="3.50532">
        <ele>1096.04</ele>
        <time>2024-08-15T10:03:39Z</time>
      </trkpt>
      <trkpt lat="44.90999" lon="3.50533">
        <ele>1095.08</ele>
        <time>2024-08-15T10:03:55Z</time>
      </trkpt>
      <trkpt lat="44.90994" lon="3.50538">
        <ele>1095.08</ele>
        <time>2024-08-15T10:04:10Z</time>
      </trkpt>
      <trkpt lat="44.90993" lon="3.50539">
        <ele>1097</ele>
        <time>2024-08-15T10:04:36Z</time>
      </trkpt>
      <trkpt lat="44.90994" lon="3.50538">
        <ele>1098.44</ele>
        <time>2024-08-15T10:04:57Z</time>
      </trkpt>
      <trkpt lat="44.90994" lon="3.50538">
        <ele>1098.44</ele>
        <time>2024-08-15T10:05:23Z</time>
      </trkpt>
      <trkpt lat="44.90993" lon="3.50543">
        <ele>1098.92</ele>
        <time>2024-08-15T10:05:48Z</time>
      </trkpt>
      <trkpt lat="44.90994" lon="3.50541">
        <ele>1097.48</ele>
        <time>2024-08-15T10:06:08Z</time>
      </trkpt>
      <trkpt lat="44.90995" lon="3.50541">
        <ele>1097</ele>
        <time>2024-08-15T10:06:30Z</time>
      </trkpt>
      <trkpt lat="44.90992" lon="3.5053">
        <ele>1100.85</ele>
        <time>2024-08-15T10:06:51Z</time>
      </trkpt>
      <trkpt lat="44.90993" lon="3.50528">
        <ele>1100.85</ele>
        <time>2024-08-15T10:06:53Z</time>
      </trkpt>
      <trkpt lat="44.91008" lon="3.50532">
        <ele>1099.89</ele>
        <time>2024-08-15T10:07:02Z</time>
      </trkpt>
      <trkpt lat="44.9104" lon="3.50509">
        <ele>1099.89</ele>
        <time>2024-08-15T10:07:25Z</time>
      </trkpt>
      <trkpt lat="44.91061" lon="3.50478">
        <ele>1099.89</ele>
        <time>2024-08-15T10:07:46Z</time>
      </trkpt>
      <trkpt lat="44.91067" lon="3.50473">
        <ele>1101.33</ele>
        <time>2024-08-15T10:07:58Z</time>
      </trkpt>
      <trkpt lat="44.91085" lon="3.50454">
        <ele>1099.89</ele>
        <time>2024-08-15T10:08:15Z</time>
      </trkpt>
      <trkpt lat="44.91098" lon="3.50445">
        <ele>1098.44</ele>
        <time>2024-08-15T10:08:30Z</time>
      </trkpt>
      <trkpt lat="44.9112" lon="3.50426">
        <ele>1097.96</ele>
        <time>2024-08-15T10:08:48Z</time>
      </trkpt>
      <trkpt lat="44.91149" lon="3.50437">
        <ele>1096.52</ele>
        <time>2024-08-15T10:09:08Z</time>
      </trkpt>
      <trkpt lat="44.91167" lon="3.50458">
        <ele>1093.64</ele>
        <time>2024-08-15T10:09:24Z</time>
      </trkpt>
      <trkpt lat="44.9116" lon="3.50485">
        <ele>1093.16</ele>
        <time>2024-08-15T10:09:40Z</time>
      </trkpt>
      <trkpt lat="44.91156" lon="3.50492">
        <ele>1093.16</ele>
        <time>2024-08-15T10:09:46Z</time>
      </trkpt>
      <trkpt lat="44.9115" lon="3.50511">
        <ele>1090.75</ele>
        <time>2024-08-15T10:09:57Z</time>
      </trkpt>
      <trkpt lat="44.91147" lon="3.50519">
        <ele>1089.79</ele>
        <time>2024-08-15T10:10:01Z</time>
      </trkpt>
      <trkpt lat="44.91143" lon="3.50527">
        <ele>1091.71</ele>
        <time>2024-08-15T10:10:22Z</time>
      </trkpt>
      <trkpt lat="44.91139" lon="3.50531">
        <ele>1091.23</ele>
        <time>2024-08-15T10:10:45Z</time>
      </trkpt>
      <trkpt lat="44.91125" lon="3.50542">
        <ele>1089.31</ele>
        <time>2024-08-15T10:11:00Z</time>
      </trkpt>
      <trkpt lat="44.91123" lon="3.50541">
        <ele>1089.79</ele>
        <time>2024-08-15T10:11:08Z</time>
      </trkpt>
      <trkpt lat="44.91108" lon="3.50519">
        <ele>1090.27</ele>
        <time>2024-08-15T10:11:23Z</time>
      </trkpt>
      <trkpt lat="44.91106" lon="3.50519">
        <ele>1089.31</ele>
        <time>2024-08-15T10:11:35Z</time>
      </trkpt>
      <trkpt lat="44.91106" lon="3.5052">
        <ele>1089.31</ele>
        <time>2024-08-15T10:12:03Z</time>
      </trkpt>
      <trkpt lat="44.91105" lon="3.50523">
        <ele>1091.23</ele>
        <time>2024-08-15T10:12:32Z</time>
      </trkpt>
      <trkpt lat="44.91107" lon="3.50518">
        <ele>1089.79</ele>
        <time>2024-08-15T10:12:55Z</time>
      </trkpt>
      <trkpt lat="44.91128" lon="3.5055">
        <ele>1086.91</ele>
        <time>2024-08-15T10:13:17Z</time>
      </trkpt>
      <trkpt lat="44.91141" lon="3.50586">
        <ele>1084.5</ele>
        <time>2024-08-15T10:13:37Z</time>
      </trkpt>
      <trkpt lat="44.91144" lon="3.50631">
        <ele>1084.02</ele>
        <time>2024-08-15T10:13:57Z</time>
      </trkpt>
      <trkpt lat="44.91134" lon="3.50655">
        <ele>1080.18</ele>
        <time>2024-08-15T10:14:15Z</time>
      </trkpt>
      <trkpt lat="44.91131" lon="3.5066">
        <ele>1079.7</ele>
        <time>2024-08-15T10:14:18Z</time>
      </trkpt>
      <trkpt lat="44.91129" lon="3.50681">
        <ele>1078.26</ele>
        <time>2024-08-15T10:14:28Z</time>
      </trkpt>
      <trkpt lat="44.9113" lon="3.50692">
        <ele>1076.33</ele>
        <time>2024-08-15T10:14:34Z</time>
      </trkpt>
      <trkpt lat="44.91151" lon="3.50723">
        <ele>1075.37</ele>
        <time>2024-08-15T10:14:52Z</time>
      </trkpt>
      <trkpt lat="44.91152" lon="3.50731">
        <ele>1077.78</ele>
        <time>2024-08-15T10:15:09Z</time>
      </trkpt>
      <trkpt lat="44.9116" lon="3.50754">
        <ele>1081.14</ele>
        <time>2024-08-15T10:15:26Z</time>
      </trkpt>
      <trkpt lat="44.91172" lon="3.50772">
        <ele>1083.06</ele>
        <time>2024-08-15T10:15:44Z</time>
      </trkpt>
      <trkpt lat="44.91174" lon="3.50774">
        <ele>1082.58</ele>
        <time>2024-08-15T10:16:15Z</time>
      </trkpt>
      <trkpt lat="44.91179" lon="3.50784">
        <ele>1083.54</ele>
        <time>2024-08-15T10:16:34Z</time>
      </trkpt>
      <trkpt lat="44.91186" lon="3.5079">
        <ele>1084.5</ele>
        <time>2024-08-15T10:16:48Z</time>
      </trkpt>
      <trkpt lat="44.91219" lon="3.50799">
        <ele>1086.91</ele>
        <time>2024-08-15T10:17:11Z</time>
      </trkpt>
      <trkpt lat="44.91252" lon="3.50819">
        <ele>1087.87</ele>
        <time>2024-08-15T10:17:32Z</time>
      </trkpt>
      <trkpt lat="44.91286" lon="3.50837">
        <ele>1087.87</ele>
        <time>2024-08-15T10:17:55Z</time>
      </trkpt>
      <trkpt lat="44.91293" lon="3.50842">
        <ele>1089.31</ele>
        <time>2024-08-15T10:18:13Z</time>
      </trkpt>
      <trkpt lat="44.91294" lon="3.50851">
        <ele>1088.35</ele>
        <time>2024-08-15T10:18:31Z</time>
      </trkpt>
      <trkpt lat="44.91292" lon="3.50855">
        <ele>1088.83</ele>
        <time>2024-08-15T10:18:55Z</time>
      </trkpt>
      <trkpt lat="44.91293" lon="3.5087">
        <ele>1088.35</ele>
        <time>2024-08-15T10:19:13Z</time>
      </trkpt>
      <trkpt lat="44.91307" lon="3.50906">
        <ele>1085.95</ele>
        <time>2024-08-15T10:19:33Z</time>
      </trkpt>
      <trkpt lat="44.913" lon="3.50935">
        <ele>1083.54</ele>
        <time>2024-08-15T10:19:48Z</time>
      </trkpt>
      <trkpt lat="44.91308" lon="3.50981">
        <ele>1080.66</ele>
        <time>2024-08-15T10:20:10Z</time>
      </trkpt>
      <trkpt lat="44.91322" lon="3.51017">
        <ele>1077.78</ele>
        <time>2024-08-15T10:20:27Z</time>
      </trkpt>
      <trkpt lat="44.91321" lon="3.51061">
        <ele>1074.41</ele>
        <time>2024-08-15T10:20:46Z</time>
      </trkpt>
      <trkpt lat="44.91319" lon="3.51103">
        <ele>1072.01</ele>
        <time>2024-08-15T10:21:04Z</time>
      </trkpt>
      <trkpt lat="44.91315" lon="3.51134">
        <ele>1067.68</ele>
        <time>2024-08-15T10:21:19Z</time>
      </trkpt>
      <trkpt lat="44.91289" lon="3.51158">
        <ele>1063.36</ele>
        <time>2024-08-15T10:21:36Z</time>
      </trkpt>
      <trkpt lat="44.91263" lon="3.5118">
        <ele>1061.91</ele>
        <time>2024-08-15T10:21:54Z</time>
      </trkpt>
      <trkpt lat="44.91249" lon="3.51221">
        <ele>1061.43</ele>
        <time>2024-08-15T10:22:12Z</time>
      </trkpt>
      <trkpt lat="44.9125" lon="3.5126">
        <ele>1061.91</ele>
        <time>2024-08-15T10:22:29Z</time>
      </trkpt>
      <trkpt lat="44.91253" lon="3.51318">
        <ele>1061.43</ele>
        <time>2024-08-15T10:22:54Z</time>
      </trkpt>
      <trkpt lat="44.91251" lon="3.51374">
        <ele>1063.36</ele>
        <time>2024-08-15T10:23:18Z</time>
      </trkpt>
      <trkpt lat="44.91225" lon="3.51399">
        <ele>1065.28</ele>
        <time>2024-08-15T10:23:36Z</time>
      </trkpt>
      <trkpt lat="44.91191" lon="3.51423">
        <ele>1069.12</ele>
        <time>2024-08-15T10:23:58Z</time>
      </trkpt>
      <trkpt lat="44.91162" lon="3.51442">
        <ele>1076.33</ele>
        <time>2024-08-15T10:24:19Z</time>
      </trkpt>
      <trkpt lat="44.91134" lon="3.51449">
        <ele>1081.14</ele>
        <time>2024-08-15T10:24:37Z</time>
      </trkpt>
      <trkpt lat="44.9111" lon="3.51465">
        <ele>1082.1</ele>
        <time>2024-08-15T10:24:57Z</time>
      </trkpt>
      <trkpt lat="44.91114" lon="3.51496">
        <ele>1081.62</ele>
        <time>2024-08-15T10:25:13Z</time>
      </trkpt>
      <trkpt lat="44.91125" lon="3.5152">
        <ele>1083.54</ele>
        <time>2024-08-15T10:25:31Z</time>
      </trkpt>
      <trkpt lat="44.91143" lon="3.51547">
        <ele>1082.1</ele>
        <time>2024-08-15T10:25:52Z</time>
      </trkpt>
      <trkpt lat="44.91168" lon="3.5159">
        <ele>1079.22</ele>
        <time>2024-08-15T10:26:16Z</time>
      </trkpt>
      <trkpt lat="44.91184" lon="3.5164">
        <ele>1081.62</ele>
        <time>2024-08-15T10:26:40Z</time>
      </trkpt>
      <trkpt lat="44.91194" lon="3.51684">
        <ele>1085.47</ele>
        <time>2024-08-15T10:26:58Z</time>
      </trkpt>
      <trkpt lat="44.91195" lon="3.51717">
        <ele>1084.5</ele>
        <time>2024-08-15T10:27:14Z</time>
      </trkpt>
      <trkpt lat="44.91196" lon="3.51761">
        <ele>1086.43</ele>
        <time>2024-08-15T10:27:33Z</time>
      </trkpt>
      <trkpt lat="44.91212" lon="3.51794">
        <ele>1085.95</ele>
        <time>2024-08-15T10:27:52Z</time>
      </trkpt>
      <trkpt lat="44.91234" lon="3.51821">
        <ele>1086.43</ele>
        <time>2024-08-15T10:28:11Z</time>
      </trkpt>
      <trkpt lat="44.91252" lon="3.51862">
        <ele>1086.43</ele>
        <time>2024-08-15T10:28:33Z</time>
      </trkpt>
      <trkpt lat="44.91276" lon="3.51898">
        <ele>1084.99</ele>
        <time>2024-08-15T10:28:54Z</time>
      </trkpt>
      <trkpt lat="44.91291" lon="3.5193">
        <ele>1084.02</ele>
        <time>2024-08-15T10:29:10Z</time>
      </trkpt>
      <trkpt lat="44.91311" lon="3.5196">
        <ele>1080.66</ele>
        <time>2024-08-15T10:29:28Z</time>
      </trkpt>
      <trkpt lat="44.91333" lon="3.51995">
        <ele>1076.81</ele>
        <time>2024-08-15T10:29:50Z</time>
      </trkpt>
      <trkpt lat="44.91336" lon="3.51999">
        <ele>1076.33</ele>
        <time>2024-08-15T10:29:53Z</time>
      </trkpt>
      <trkpt lat="44.91348" lon="3.52031">
        <ele>1074.41</ele>
        <time>2024-08-15T10:30:10Z</time>
      </trkpt>
      <trkpt lat="44.91351" lon="3.52065">
        <ele>1073.93</ele>
        <time>2024-08-15T10:30:27Z</time>
      </trkpt>
      <trkpt lat="44.91331" lon="3.52091">
        <ele>1072.49</ele>
        <time>2024-08-15T10:30:45Z</time>
      </trkpt>
      <trkpt lat="44.91303" lon="3.52115">
        <ele>1072.49</ele>
        <time>2024-08-15T10:31:02Z</time>
      </trkpt>
      <trkpt lat="44.91277" lon="3.52126">
        <ele>1072.97</ele>
        <time>2024-08-15T10:31:20Z</time>
      </trkpt>
      <trkpt lat="44.91266" lon="3.52128">
        <ele>1072.49</ele>
        <time>2024-08-15T10:31:29Z</time>
      </trkpt>
      <trkpt lat="44.91234" lon="3.5213">
        <ele>1072.01</ele>
        <time>2024-08-15T10:31:46Z</time>
      </trkpt>
      <trkpt lat="44.91203" lon="3.52129">
        <ele>1073.45</ele>
        <time>2024-08-15T10:32:04Z</time>
      </trkpt>
      <trkpt lat="44.91172" lon="3.52133">
        <ele>1075.37</ele>
        <time>2024-08-15T10:32:23Z</time>
      </trkpt>
      <trkpt lat="44.91147" lon="3.52141">
        <ele>1076.81</ele>
        <time>2024-08-15T10:32:41Z</time>
      </trkpt>
      <trkpt lat="44.91139" lon="3.52164">
        <ele>1077.29</ele>
        <time>2024-08-15T10:32:56Z</time>
      </trkpt>
      <trkpt lat="44.9114" lon="3.52167">
        <ele>1077.78</ele>
        <time>2024-08-15T10:32:58Z</time>
      </trkpt>
      <trkpt lat="44.91143" lon="3.52177">
        <ele>1078.26</ele>
        <time>2024-08-15T10:33:02Z</time>
      </trkpt>
      <trkpt lat="44.91165" lon="3.52208">
        <ele>1081.14</ele>
        <time>2024-08-15T10:33:22Z</time>
      </trkpt>
      <trkpt lat="44.91183" lon="3.52246">
        <ele>1079.22</ele>
        <time>2024-08-15T10:33:42Z</time>
      </trkpt>
      <trkpt lat="44.91197" lon="3.52276">
        <ele>1076.33</ele>
        <time>2024-08-15T10:34:00Z</time>
      </trkpt>
      <trkpt lat="44.91219" lon="3.52297">
        <ele>1073.45</ele>
        <time>2024-08-15T10:34:14Z</time>
      </trkpt>
      <trkpt lat="44.9124" lon="3.52271">
        <ele>1073.93</ele>
        <time>2024-08-15T10:34:31Z</time>
      </trkpt>
      <trkpt lat="44.91265" lon="3.52269">
        <ele>1078.26</ele>
        <time>2024-08-15T10:34:47Z</time>
      </trkpt>
      <trkpt lat="44.91293" lon="3.52272">
        <ele>1080.66</ele>
        <time>2024-08-15T10:35:07Z</time>
      </trkpt>
      <trkpt lat="44.9132" lon="3.52293">
        <ele>1082.1</ele>
        <time>2024-08-15T10:35:24Z</time>
      </trkpt>
      <trkpt lat="44.9135" lon="3.52322">
        <ele>1078.74</ele>
        <time>2024-08-15T10:35:46Z</time>
      </trkpt>
      <trkpt lat="44.91375" lon="3.5235">
        <ele>1077.29</ele>
        <time>2024-08-15T10:36:06Z</time>
      </trkpt>
      <trkpt lat="44.91403" lon="3.52382">
        <ele>1078.74</ele>
        <time>2024-08-15T10:36:28Z</time>
      </trkpt>
      <trkpt lat="44.91429" lon="3.52396">
        <ele>1076.33</ele>
        <time>2024-08-15T10:36:46Z</time>
      </trkpt>
      <trkpt lat="44.91458" lon="3.52402">
        <ele>1076.33</ele>
        <time>2024-08-15T10:37:03Z</time>
      </trkpt>
      <trkpt lat="44.91474" lon="3.52429">
        <ele>1079.22</ele>
        <time>2024-08-15T10:37:20Z</time>
      </trkpt>
      <trkpt lat="44.91483" lon="3.52479">
        <ele>1082.58</ele>
        <time>2024-08-15T10:37:43Z</time>
      </trkpt>
      <trkpt lat="44.91493" lon="3.52532">
        <ele>1083.06</ele>
        <time>2024-08-15T10:38:08Z</time>
      </trkpt>
      <trkpt lat="44.91498" lon="3.52586">
        <ele>1084.5</ele>
        <time>2024-08-15T10:38:33Z</time>
      </trkpt>
      <trkpt lat="44.91509" lon="3.52623">
        <ele>1084.02</ele>
        <time>2024-08-15T10:38:51Z</time>
      </trkpt>
      <trkpt lat="44.91513" lon="3.52661">
        <ele>1080.66</ele>
        <time>2024-08-15T10:39:09Z</time>
      </trkpt>
      <trkpt lat="44.91507" lon="3.52704">
        <ele>1078.26</ele>
        <time>2024-08-15T10:39:29Z</time>
      </trkpt>
      <trkpt lat="44.91507" lon="3.52746">
        <ele>1078.26</ele>
        <time>2024-08-15T10:39:49Z</time>
      </trkpt>
      <trkpt lat="44.9151" lon="3.52793">
        <ele>1076.33</ele>
        <time>2024-08-15T10:40:11Z</time>
      </trkpt>
      <trkpt lat="44.91501" lon="3.52834">
        <ele>1073.93</ele>
        <time>2024-08-15T10:40:31Z</time>
      </trkpt>
      <trkpt lat="44.91498" lon="3.52865">
        <ele>1071.53</ele>
        <time>2024-08-15T10:40:48Z</time>
      </trkpt>
      <trkpt lat="44.91498" lon="3.52907">
        <ele>1067.68</ele>
        <time>2024-08-15T10:41:08Z</time>
      </trkpt>
      <trkpt lat="44.91494" lon="3.52928">
        <ele>1064.8</ele>
        <time>2024-08-15T10:41:20Z</time>
      </trkpt>
      <trkpt lat="44.915" lon="3.52948">
        <ele>1063.36</ele>
        <time>2024-08-15T10:41:33Z</time>
      </trkpt>
      <trkpt lat="44.91528" lon="3.52944">
        <ele>1062.39</ele>
        <time>2024-08-15T10:41:51Z</time>
      </trkpt>
      <trkpt lat="44.91551" lon="3.5295">
        <ele>1065.76</ele>
        <time>2024-08-15T10:42:08Z</time>
      </trkpt>
      <trkpt lat="44.91574" lon="3.52971">
        <ele>1064.8</ele>
        <time>2024-08-15T10:42:26Z</time>
      </trkpt>
      <trkpt lat="44.91567" lon="3.53018">
        <ele>1059.99</ele>
        <time>2024-08-15T10:42:46Z</time>
      </trkpt>
      <trkpt lat="44.9156" lon="3.5305">
        <ele>1052.78</ele>
        <time>2024-08-15T10:43:03Z</time>
      </trkpt>
      <trkpt lat="44.91568" lon="3.53093">
        <ele>1051.34</ele>
        <time>2024-08-15T10:43:22Z</time>
      </trkpt>
      <trkpt lat="44.91585" lon="3.53132">
        <ele>1052.3</ele>
        <time>2024-08-15T10:43:43Z</time>
      </trkpt>
      <trkpt lat="44.91593" lon="3.53179">
        <ele>1052.3</ele>
        <time>2024-08-15T10:44:06Z</time>
      </trkpt>
      <trkpt lat="44.91597" lon="3.5322">
        <ele>1050.86</ele>
        <time>2024-08-15T10:44:25Z</time>
      </trkpt>
      <trkpt lat="44.91598" lon="3.53256">
        <ele>1048.45</ele>
        <time>2024-08-15T10:44:42Z</time>
      </trkpt>
      <trkpt lat="44.91593" lon="3.53301">
        <ele>1044.13</ele>
        <time>2024-08-15T10:45:02Z</time>
      </trkpt>
      <trkpt lat="44.91592" lon="3.53338">
        <ele>1040.28</ele>
        <time>2024-08-15T10:45:19Z</time>
      </trkpt>
      <trkpt lat="44.91597" lon="3.53378">
        <ele>1037.88</ele>
        <time>2024-08-15T10:45:38Z</time>
      </trkpt>
      <trkpt lat="44.91612" lon="3.53414">
        <ele>1035.48</ele>
        <time>2024-08-15T10:45:57Z</time>
      </trkpt>
      <trkpt lat="44.91637" lon="3.53444">
        <ele>1030.67</ele>
        <time>2024-08-15T10:46:18Z</time>
      </trkpt>
      <trkpt lat="44.91665" lon="3.53475">
        <ele>1026.34</ele>
        <time>2024-08-15T10:46:40Z</time>
      </trkpt>
      <trkpt lat="44.91686" lon="3.53508">
        <ele>1023.46</ele>
        <time>2024-08-15T10:47:00Z</time>
      </trkpt>
      <trkpt lat="44.91696" lon="3.53543">
        <ele>1022.5</ele>
        <time>2024-08-15T10:47:17Z</time>
      </trkpt>
      <trkpt lat="44.91684" lon="3.53582">
        <ele>1018.65</ele>
        <time>2024-08-15T10:47:36Z</time>
      </trkpt>
      <trkpt lat="44.91669" lon="3.53617">
        <ele>1013.85</ele>
        <time>2024-08-15T10:47:55Z</time>
      </trkpt>
      <trkpt lat="44.91657" lon="3.5366">
        <ele>1012.89</ele>
        <time>2024-08-15T10:48:15Z</time>
      </trkpt>
      <trkpt lat="44.91651" lon="3.53692">
        <ele>1008.56</ele>
        <time>2024-08-15T10:48:30Z</time>
      </trkpt>
      <trkpt lat="44.91648" lon="3.5372">
        <ele>1004.72</ele>
        <time>2024-08-15T10:48:45Z</time>
      </trkpt>
      <trkpt lat="44.91659" lon="3.53762">
        <ele>1000.39</ele>
        <time>2024-08-15T10:49:05Z</time>
      </trkpt>
      <trkpt lat="44.91667" lon="3.53783">
        <ele>997.51</ele>
        <time>2024-08-15T10:49:18Z</time>
      </trkpt>
      <trkpt lat="44.91688" lon="3.53803">
        <ele>996.54</ele>
        <time>2024-08-15T10:49:36Z</time>
      </trkpt>
      <trkpt lat="44.91695" lon="3.53827">
        <ele>994.62</ele>
        <time>2024-08-15T10:49:51Z</time>
      </trkpt>
      <trkpt lat="44.917" lon="3.53835">
        <ele>994.14</ele>
        <time>2024-08-15T10:50:14Z</time>
      </trkpt>
      <trkpt lat="44.91707" lon="3.53837">
        <ele>993.18</ele>
        <time>2024-08-15T10:50:32Z</time>
      </trkpt>
      <trkpt lat="44.91717" lon="3.5386">
        <ele>989.33</ele>
        <time>2024-08-15T10:50:46Z</time>
      </trkpt>
      <trkpt lat="44.91721" lon="3.53862">
        <ele>988.37</ele>
        <time>2024-08-15T10:50:50Z</time>
      </trkpt>
      <trkpt lat="44.91746" lon="3.53862">
        <ele>985.97</ele>
        <time>2024-08-15T10:51:07Z</time>
      </trkpt>
      <trkpt lat="44.91772" lon="3.53864">
        <ele>983.09</ele>
        <time>2024-08-15T10:51:25Z</time>
      </trkpt>
      <trkpt lat="44.9178" lon="3.53875">
        <ele>982.12</ele>
        <time>2024-08-15T10:51:35Z</time>
      </trkpt>
      <trkpt lat="44.91796" lon="3.53912">
        <ele>976.84</ele>
        <time>2024-08-15T10:51:58Z</time>
      </trkpt>
      <trkpt lat="44.91801" lon="3.53955">
        <ele>976.36</ele>
        <time>2024-08-15T10:52:18Z</time>
      </trkpt>
      <trkpt lat="44.91826" lon="3.53996">
        <ele>975.39</ele>
        <time>2024-08-15T10:52:44Z</time>
      </trkpt>
      <trkpt lat="44.91847" lon="3.5401">
        <ele>972.51</ele>
        <time>2024-08-15T10:53:01Z</time>
      </trkpt>
      <trkpt lat="44.91851" lon="3.54018">
        <ele>971.55</ele>
        <time>2024-08-15T10:53:06Z</time>
      </trkpt>
      <trkpt lat="44.91847" lon="3.54024">
        <ele>971.07</ele>
        <time>2024-08-15T10:53:10Z</time>
      </trkpt>
      <trkpt lat="44.91816" lon="3.54047">
        <ele>973.47</ele>
        <time>2024-08-15T10:53:32Z</time>
      </trkpt>
      <trkpt lat="44.91787" lon="3.54051">
        <ele>977.8</ele>
        <time>2024-08-15T10:53:52Z</time>
      </trkpt>
      <trkpt lat="44.9176" lon="3.54039">
        <ele>982.6</ele>
        <time>2024-08-15T10:54:10Z</time>
      </trkpt>
      <trkpt lat="44.91734" lon="3.54031">
        <ele>987.41</ele>
        <time>2024-08-15T10:54:29Z</time>
      </trkpt>
      <trkpt lat="44.91711" lon="3.54024">
        <ele>989.81</ele>
        <time>2024-08-15T10:54:46Z</time>
      </trkpt>
      <trkpt lat="44.91678" lon="3.54012">
        <ele>994.14</ele>
        <time>2024-08-15T10:55:08Z</time>
      </trkpt>
      <trkpt lat="44.91656" lon="3.54004">
        <ele>997.02</ele>
        <time>2024-08-15T10:55:23Z</time>
      </trkpt>
      <trkpt lat="44.9165" lon="3.54001">
        <ele>997.51</ele>
        <time>2024-08-15T10:55:31Z</time>
      </trkpt>
      <trkpt lat="44.91621" lon="3.53986">
        <ele>998.95</ele>
        <time>2024-08-15T10:55:50Z</time>
      </trkpt>
      <trkpt lat="44.91599" lon="3.53979">
        <ele>1001.83</ele>
        <time>2024-08-15T10:56:04Z</time>
      </trkpt>
      <trkpt lat="44.91578" lon="3.53967">
        <ele>1005.68</ele>
        <time>2024-08-15T10:56:18Z</time>
      </trkpt>
      <trkpt lat="44.91566" lon="3.53955">
        <ele>1008.08</ele>
        <time>2024-08-15T10:56:31Z</time>
      </trkpt>
      <trkpt lat="44.91541" lon="3.53935">
        <ele>1007.6</ele>
        <time>2024-08-15T10:56:49Z</time>
      </trkpt>
      <trkpt lat="44.91512" lon="3.53916">
        <ele>1009.04</ele>
        <time>2024-08-15T10:57:10Z</time>
      </trkpt>
      <trkpt lat="44.91488" lon="3.53893">
        <ele>1008.08</ele>
        <time>2024-08-15T10:57:26Z</time>
      </trkpt>
      <trkpt lat="44.91461" lon="3.53878">
        <ele>1008.56</ele>
        <time>2024-08-15T10:57:43Z</time>
      </trkpt>
      <trkpt lat="44.91448" lon="3.5387">
        <ele>1004.23</ele>
        <time>2024-08-15T10:58:01Z</time>
      </trkpt>
      <trkpt lat="44.9145" lon="3.53878">
        <ele>996.54</ele>
        <time>2024-08-15T10:58:20Z</time>
      </trkpt>
      <trkpt lat="44.91446" lon="3.53875">
        <ele>999.43</ele>
        <time>2024-08-15T10:58:38Z</time>
      </trkpt>
      <trkpt lat="44.91446" lon="3.53874">
        <ele>1002.79</ele>
        <time>2024-08-15T10:59:03Z</time>
      </trkpt>
      <trkpt lat="44.91439" lon="3.53876">
        <ele>1011.93</ele>
        <time>2024-08-15T10:59:21Z</time>
      </trkpt>
      <trkpt lat="44.91438" lon="3.53884">
        <ele>1019.13</ele>
        <time>2024-08-15T10:59:41Z</time>
      </trkpt>
      <trkpt lat="44.91435" lon="3.5386">
        <ele>1046.53</ele>
        <time>2024-08-15T11:00:23Z</time>
      </trkpt>
      <trkpt lat="44.91427" lon="3.53872">
        <ele>1034.04</ele>
        <time>2024-08-15T11:00:47Z</time>
      </trkpt>
      <trkpt lat="44.91445" lon="3.53871">
        <ele>1033.55</ele>
        <time>2024-08-15T11:01:09Z</time>
      </trkpt>
      <trkpt lat="44.91449" lon="3.53861">
        <ele>1032.59</ele>
        <time>2024-08-15T11:01:28Z</time>
      </trkpt>
      <trkpt lat="44.9144" lon="3.53856">
        <ele>1027.79</ele>
        <time>2024-08-15T11:01:50Z</time>
      </trkpt>
      <trkpt lat="44.91433" lon="3.53857">
        <ele>1024.9</ele>
        <time>2024-08-15T11:02:07Z</time>
      </trkpt>
      <trkpt lat="44.91433" lon="3.53852">
        <ele>1021.54</ele>
        <time>2024-08-15T11:02:31Z</time>
      </trkpt>
      <trkpt lat="44.9143" lon="3.53849">
        <ele>1020.58</ele>
        <time>2024-08-15T11:02:52Z</time>
      </trkpt>
      <trkpt lat="44.9142" lon="3.53843">
        <ele>1022.98</ele>
        <time>2024-08-15T11:03:12Z</time>
      </trkpt>
      <trkpt lat="44.91396" lon="3.53832">
        <ele>1027.79</ele>
        <time>2024-08-15T11:03:31Z</time>
      </trkpt>
      <trkpt lat="44.91363" lon="3.53827">
        <ele>1028.75</ele>
        <time>2024-08-15T11:03:53Z</time>
      </trkpt>
      <trkpt lat="44.91351" lon="3.5382">
        <ele>1028.27</ele>
        <time>2024-08-15T11:04:01Z</time>
      </trkpt>
      <trkpt lat="44.91336" lon="3.53844">
        <ele>1029.71</ele>
        <time>2024-08-15T11:04:19Z</time>
      </trkpt>
      <trkpt lat="44.91334" lon="3.53881">
        <ele>1033.55</ele>
        <time>2024-08-15T11:04:37Z</time>
      </trkpt>
      <trkpt lat="44.91326" lon="3.53914">
        <ele>1032.11</ele>
        <time>2024-08-15T11:04:55Z</time>
      </trkpt>
      <trkpt lat="44.91313" lon="3.53953">
        <ele>1029.71</ele>
        <time>2024-08-15T11:05:10Z</time>
      </trkpt>
      <trkpt lat="44.91308" lon="3.53991">
        <ele>1029.71</ele>
        <time>2024-08-15T11:05:26Z</time>
      </trkpt>
      <trkpt lat="44.91304" lon="3.54025">
        <ele>1029.23</ele>
        <time>2024-08-15T11:05:42Z</time>
      </trkpt>
      <trkpt lat="44.91295" lon="3.54068">
        <ele>1030.67</ele>
        <time>2024-08-15T11:06:00Z</time>
      </trkpt>
      <trkpt lat="44.91281" lon="3.5411">
        <ele>1032.59</ele>
        <time>2024-08-15T11:06:21Z</time>
      </trkpt>
      <trkpt lat="44.9126" lon="3.54147">
        <ele>1035</ele>
        <time>2024-08-15T11:06:41Z</time>
      </trkpt>
      <trkpt lat="44.91231" lon="3.54179">
        <ele>1035.96</ele>
        <time>2024-08-15T11:07:04Z</time>
      </trkpt>
      <trkpt lat="44.91203" lon="3.54221">
        <ele>1036.92</ele>
        <time>2024-08-15T11:07:29Z</time>
      </trkpt>
      <trkpt lat="44.91186" lon="3.54252">
        <ele>1035.48</ele>
        <time>2024-08-15T11:07:47Z</time>
      </trkpt>
      <trkpt lat="44.91176" lon="3.54278">
        <ele>1031.63</ele>
        <time>2024-08-15T11:08:02Z</time>
      </trkpt>
      <trkpt lat="44.91162" lon="3.54311">
        <ele>1027.79</ele>
        <time>2024-08-15T11:08:20Z</time>
      </trkpt>
      <trkpt lat="44.91146" lon="3.54338">
        <ele>1025.86</ele>
        <time>2024-08-15T11:08:36Z</time>
      </trkpt>
      <trkpt lat="44.91143" lon="3.54345">
        <ele>1025.38</ele>
        <time>2024-08-15T11:08:39Z</time>
      </trkpt>
      <trkpt lat="44.91129" lon="3.54376">
        <ele>1023.94</ele>
        <time>2024-08-15T11:08:54Z</time>
      </trkpt>
      <trkpt lat="44.91117" lon="3.54414">
        <ele>1020.58</ele>
        <time>2024-08-15T11:09:12Z</time>
      </trkpt>
      <trkpt lat="44.911" lon="3.54449">
        <ele>1019.13</ele>
        <time>2024-08-15T11:09:31Z</time>
      </trkpt>
      <trkpt lat="44.91074" lon="3.54474">
        <ele>1022.5</ele>
        <time>2024-08-15T11:09:51Z</time>
      </trkpt>
      <trkpt lat="44.91043" lon="3.54491">
        <ele>1020.58</ele>
        <time>2024-08-15T11:10:09Z</time>
      </trkpt>
      <trkpt lat="44.91016" lon="3.54515">
        <ele>1018.17</ele>
        <time>2024-08-15T11:10:29Z</time>
      </trkpt>
      <trkpt lat="44.91021" lon="3.5455">
        <ele>1020.1</ele>
        <time>2024-08-15T11:10:45Z</time>
      </trkpt>
      <trkpt lat="44.91031" lon="3.546">
        <ele>1025.38</ele>
        <time>2024-08-15T11:11:03Z</time>
      </trkpt>
      <trkpt lat="44.9103" lon="3.54604">
        <ele>1026.34</ele>
        <time>2024-08-15T11:11:05Z</time>
      </trkpt>
      <trkpt lat="44.9102" lon="3.54611">
        <ele>1028.75</ele>
        <time>2024-08-15T11:11:11Z</time>
      </trkpt>
      <trkpt lat="44.90998" lon="3.54606">
        <ele>1035</ele>
        <time>2024-08-15T11:11:26Z</time>
      </trkpt>
      <trkpt lat="44.90972" lon="3.54623">
        <ele>1040.76</ele>
        <time>2024-08-15T11:11:46Z</time>
      </trkpt>
      <trkpt lat="44.90962" lon="3.54626">
        <ele>1046.05</ele>
        <time>2024-08-15T11:12:02Z</time>
      </trkpt>
      <trkpt lat="44.9096" lon="3.54626">
        <ele>1048.94</ele>
        <time>2024-08-15T11:12:21Z</time>
      </trkpt>
      <trkpt lat="44.90955" lon="3.54623">
        <ele>1048.94</ele>
        <time>2024-08-15T11:12:25Z</time>
      </trkpt>
      <trkpt lat="44.90929" lon="3.5462">
        <ele>1046.53</ele>
        <time>2024-08-15T11:12:43Z</time>
      </trkpt>
      <trkpt lat="44.90901" lon="3.54626">
        <ele>1045.09</ele>
        <time>2024-08-15T11:13:02Z</time>
      </trkpt>
      <trkpt lat="44.90882" lon="3.5461">
        <ele>1043.17</ele>
        <time>2024-08-15T11:13:18Z</time>
      </trkpt>
      <trkpt lat="44.90859" lon="3.54591">
        <ele>1042.21</ele>
        <time>2024-08-15T11:13:34Z</time>
      </trkpt>
      <trkpt lat="44.90834" lon="3.5457">
        <ele>1039.32</ele>
        <time>2024-08-15T11:13:53Z</time>
      </trkpt>
      <trkpt lat="44.90827" lon="3.54552">
        <ele>1039.8</ele>
        <time>2024-08-15T11:14:08Z</time>
      </trkpt>
      <trkpt lat="44.90828" lon="3.54547">
        <ele>1041.25</ele>
        <time>2024-08-15T11:14:23Z</time>
      </trkpt>
      <trkpt lat="44.90831" lon="3.54538">
        <ele>1040.76</ele>
        <time>2024-08-15T11:14:28Z</time>
      </trkpt>
      <trkpt lat="44.90838" lon="3.54516">
        <ele>1040.76</ele>
        <time>2024-08-15T11:14:44Z</time>
      </trkpt>
      <trkpt lat="44.90837" lon="3.54511">
        <ele>1042.21</ele>
        <time>2024-08-15T11:15:10Z</time>
      </trkpt>
      <trkpt lat="44.90837" lon="3.5451">
        <ele>1042.21</ele>
        <time>2024-08-15T11:15:26Z</time>
      </trkpt>
      <trkpt lat="44.90839" lon="3.54507">
        <ele>1042.69</ele>
        <time>2024-08-15T11:15:45Z</time>
      </trkpt>
      <trkpt lat="44.90842" lon="3.54508">
        <ele>1042.21</ele>
        <time>2024-08-15T11:16:02Z</time>
      </trkpt>
      <trkpt lat="44.90842" lon="3.54511">
        <ele>1039.8</ele>
        <time>2024-08-15T11:16:16Z</time>
      </trkpt>
      <trkpt lat="44.9084" lon="3.54511">
        <ele>1038.84</ele>
        <time>2024-08-15T11:16:35Z</time>
      </trkpt>
      <trkpt lat="44.90836" lon="3.5451">
        <ele>1038.84</ele>
        <time>2024-08-15T11:16:58Z</time>
      </trkpt>
      <trkpt lat="44.90834" lon="3.54509">
        <ele>1038.36</ele>
        <time>2024-08-15T11:17:16Z</time>
      </trkpt>
      <trkpt lat="44.90833" lon="3.54506">
        <ele>1039.32</ele>
        <time>2024-08-15T11:17:39Z</time>
      </trkpt>
      <trkpt lat="44.90834" lon="3.54506">
        <ele>1040.76</ele>
        <time>2024-08-15T11:18:02Z</time>
      </trkpt>
      <trkpt lat="44.90835" lon="3.54506">
        <ele>1040.28</ele>
        <time>2024-08-15T11:18:23Z</time>
      </trkpt>
      <trkpt lat="44.90836" lon="3.54508">
        <ele>1039.8</ele>
        <time>2024-08-15T11:18:43Z</time>
      </trkpt>
      <trkpt lat="44.90841" lon="3.54511">
        <ele>1038.84</ele>
        <time>2024-08-15T11:18:57Z</time>
      </trkpt>
      <trkpt lat="44.90838" lon="3.54511">
        <ele>1036.44</ele>
        <time>2024-08-15T11:19:17Z</time>
      </trkpt>
      <trkpt lat="44.9084" lon="3.5451">
        <ele>1035.48</ele>
        <time>2024-08-15T11:19:32Z</time>
      </trkpt>
      <trkpt lat="44.90835" lon="3.54507">
        <ele>1035.48</ele>
        <time>2024-08-15T11:19:43Z</time>
      </trkpt>
      <trkpt lat="44.90833" lon="3.54505">
        <ele>1036.92</ele>
        <time>2024-08-15T11:19:57Z</time>
      </trkpt>
      <trkpt lat="44.90831" lon="3.54508">
        <ele>1037.88</ele>
        <time>2024-08-15T11:20:19Z</time>
      </trkpt>
      <trkpt lat="44.90835" lon="3.54508">
        <ele>1037.4</ele>
        <time>2024-08-15T11:20:37Z</time>
      </trkpt>
      <trkpt lat="44.90836" lon="3.54508">
        <ele>1037.88</ele>
        <time>2024-08-15T11:20:55Z</time>
      </trkpt>
      <trkpt lat="44.90836" lon="3.54507">
        <ele>1038.36</ele>
        <time>2024-08-15T11:21:11Z</time>
      </trkpt>
      <trkpt lat="44.90839" lon="3.54509">
        <ele>1039.32</ele>
        <time>2024-08-15T11:21:30Z</time>
      </trkpt>
      <trkpt lat="44.90839" lon="3.54513">
        <ele>1039.32</ele>
        <time>2024-08-15T11:21:46Z</time>
      </trkpt>
      <trkpt lat="44.90839" lon="3.54513">
        <ele>1037.88</ele>
        <time>2024-08-15T11:22:03Z</time>
      </trkpt>
      <trkpt lat="44.90835" lon="3.54516">
        <ele>1038.84</ele>
        <time>2024-08-15T11:22:17Z</time>
      </trkpt>
      <trkpt lat="44.90835" lon="3.54515">
        <ele>1038.84</ele>
        <time>2024-08-15T11:22:39Z</time>
      </trkpt>
      <trkpt lat="44.90837" lon="3.5451">
        <ele>1038.36</ele>
        <time>2024-08-15T11:22:54Z</time>
      </trkpt>
      <trkpt lat="44.9084" lon="3.54512">
        <ele>1037.4</ele>
        <time>2024-08-15T11:23:12Z</time>
      </trkpt>
      <trkpt lat="44.90837" lon="3.54503">
        <ele>1037.4</ele>
        <time>2024-08-15T11:23:32Z</time>
      </trkpt>
      <trkpt lat="44.90837" lon="3.54502">
        <ele>1035.48</ele>
        <time>2024-08-15T11:23:50Z</time>
      </trkpt>
      <trkpt lat="44.90837" lon="3.54501">
        <ele>1033.55</ele>
        <time>2024-08-15T11:24:08Z</time>
      </trkpt>
      <trkpt lat="44.90837" lon="3.54499">
        <ele>1033.07</ele>
        <time>2024-08-15T11:24:33Z</time>
      </trkpt>
      <trkpt lat="44.90837" lon="3.54503">
        <ele>1033.07</ele>
        <time>2024-08-15T11:24:59Z</time>
      </trkpt>
      <trkpt lat="44.90838" lon="3.54506">
        <ele>1035</ele>
        <time>2024-08-15T11:25:19Z</time>
      </trkpt>
      <trkpt lat="44.90837" lon="3.54511">
        <ele>1035.48</ele>
        <time>2024-08-15T11:25:39Z</time>
      </trkpt>
      <trkpt lat="44.90836" lon="3.54515">
        <ele>1037.88</ele>
        <time>2024-08-15T11:25:55Z</time>
      </trkpt>
      <trkpt lat="44.90838" lon="3.54513">
        <ele>1035.96</ele>
        <time>2024-08-15T11:26:09Z</time>
      </trkpt>
      <trkpt lat="44.90835" lon="3.54511">
        <ele>1035.96</ele>
        <time>2024-08-15T11:26:37Z</time>
      </trkpt>
      <trkpt lat="44.90835" lon="3.54515">
        <ele>1036.92</ele>
        <time>2024-08-15T11:26:56Z</time>
      </trkpt>
      <trkpt lat="44.90836" lon="3.54525">
        <ele>1038.84</ele>
        <time>2024-08-15T11:27:11Z</time>
      </trkpt>
      <trkpt lat="44.90835" lon="3.54522">
        <ele>1039.8</ele>
        <time>2024-08-15T11:27:26Z</time>
      </trkpt>
      <trkpt lat="44.90831" lon="3.54524">
        <ele>1038.84</ele>
        <time>2024-08-15T11:27:40Z</time>
      </trkpt>
      <trkpt lat="44.90832" lon="3.54523">
        <ele>1038.84</ele>
        <time>2024-08-15T11:28:03Z</time>
      </trkpt>
      <trkpt lat="44.9083" lon="3.54523">
        <ele>1038.84</ele>
        <time>2024-08-15T11:28:24Z</time>
      </trkpt>
      <trkpt lat="44.90832" lon="3.54523">
        <ele>1041.73</ele>
        <time>2024-08-15T11:28:54Z</time>
      </trkpt>
      <trkpt lat="44.9083" lon="3.5452">
        <ele>1043.65</ele>
        <time>2024-08-15T11:29:15Z</time>
      </trkpt>
      <trkpt lat="44.90835" lon="3.5452">
        <ele>1043.17</ele>
        <time>2024-08-15T11:29:46Z</time>
      </trkpt>
      <trkpt lat="44.90835" lon="3.54519">
        <ele>1046.05</ele>
        <time>2024-08-15T11:30:20Z</time>
      </trkpt>
      <trkpt lat="44.90833" lon="3.5452">
        <ele>1047.01</ele>
        <time>2024-08-15T11:31:01Z</time>
      </trkpt>
      <trkpt lat="44.90829" lon="3.5452">
        <ele>1045.57</ele>
        <time>2024-08-15T11:31:35Z</time>
      </trkpt>
      <trkpt lat="44.90832" lon="3.54528">
        <ele>1043.65</ele>
        <time>2024-08-15T11:32:08Z</time>
      </trkpt>
      <trkpt lat="44.9083" lon="3.54523">
        <ele>1041.73</ele>
        <time>2024-08-15T11:32:39Z</time>
      </trkpt>
      <trkpt lat="44.90829" lon="3.5452">
        <ele>1041.73</ele>
        <time>2024-08-15T11:33:07Z</time>
      </trkpt>
      <trkpt lat="44.90833" lon="3.54521">
        <ele>1042.21</ele>
        <time>2024-08-15T11:33:38Z</time>
      </trkpt>
      <trkpt lat="44.90831" lon="3.54524">
        <ele>1038.84</ele>
        <time>2024-08-15T11:34:08Z</time>
      </trkpt>
      <trkpt lat="44.90832" lon="3.54523">
        <ele>1038.36</ele>
        <time>2024-08-15T11:34:44Z</time>
      </trkpt>
      <trkpt lat="44.90831" lon="3.54526">
        <ele>1037.4</ele>
        <time>2024-08-15T11:35:25Z</time>
      </trkpt>
      <trkpt lat="44.90836" lon="3.54521">
        <ele>1038.36</ele>
        <time>2024-08-15T11:36:07Z</time>
      </trkpt>
      <trkpt lat="44.90831" lon="3.54528">
        <ele>1038.36</ele>
        <time>2024-08-15T11:36:47Z</time>
      </trkpt>
      <trkpt lat="44.90831" lon="3.54526">
        <ele>1036.44</ele>
        <time>2024-08-15T11:37:21Z</time>
      </trkpt>
      <trkpt lat="44.90831" lon="3.54528">
        <ele>1035.96</ele>
        <time>2024-08-15T11:37:53Z</time>
      </trkpt>
      <trkpt lat="44.90831" lon="3.54527">
        <ele>1036.44</ele>
        <time>2024-08-15T11:37:54Z</time>
      </trkpt>
      <trkpt lat="44.90885" lon="3.54598">
        <ele>1066.72</ele>
        <time>2024-08-15T13:24:57Z</time>
      </trkpt>
      <trkpt lat="44.90888" lon="3.54606">
        <ele>1064.8</ele>
        <time>2024-08-15T13:25:00Z</time>
      </trkpt>
      <trkpt lat="44.9089" lon="3.5463">
        <ele>1047.49</ele>
        <time>2024-08-15T13:25:13Z</time>
      </trkpt>
      <trkpt lat="44.90881" lon="3.54653">
        <ele>1049.42</ele>
        <time>2024-08-15T13:25:27Z</time>
      </trkpt>
      <trkpt lat="44.9087" lon="3.54679">
        <ele>1054.7</ele>
        <time>2024-08-15T13:25:44Z</time>
      </trkpt>
      <trkpt lat="44.90855" lon="3.54701">
        <ele>1056.15</ele>
        <time>2024-08-15T13:26:01Z</time>
      </trkpt>
      <trkpt lat="44.90853" lon="3.54707">
        <ele>1056.63</ele>
        <time>2024-08-15T13:26:06Z</time>
      </trkpt>
      <trkpt lat="44.90854" lon="3.54712">
        <ele>1057.11</ele>
        <time>2024-08-15T13:26:25Z</time>
      </trkpt>
      <trkpt lat="44.90855" lon="3.54709">
        <ele>1056.15</ele>
        <time>2024-08-15T13:26:44Z</time>
      </trkpt>
      <trkpt lat="44.90854" lon="3.5471">
        <ele>1057.59</ele>
        <time>2024-08-15T13:27:10Z</time>
      </trkpt>
      <trkpt lat="44.90852" lon="3.5471">
        <ele>1057.59</ele>
        <time>2024-08-15T13:27:31Z</time>
      </trkpt>
      <trkpt lat="44.9085" lon="3.5471">
        <ele>1058.07</ele>
        <time>2024-08-15T13:27:33Z</time>
      </trkpt>
      <trkpt lat="44.90831" lon="3.54712">
        <ele>1060.47</ele>
        <time>2024-08-15T13:27:48Z</time>
      </trkpt>
      <trkpt lat="44.90808" lon="3.54712">
        <ele>1061.91</ele>
        <time>2024-08-15T13:28:07Z</time>
      </trkpt>
      <trkpt lat="44.90788" lon="3.54712">
        <ele>1064.8</ele>
        <time>2024-08-15T13:28:24Z</time>
      </trkpt>
      <trkpt lat="44.90759" lon="3.54714">
        <ele>1066.72</ele>
        <time>2024-08-15T13:28:42Z</time>
      </trkpt>
      <trkpt lat="44.90732" lon="3.54718">
        <ele>1072.49</ele>
        <time>2024-08-15T13:28:59Z</time>
      </trkpt>
      <trkpt lat="44.90703" lon="3.54723">
        <ele>1073.93</ele>
        <time>2024-08-15T13:29:19Z</time>
      </trkpt>
      <trkpt lat="44.90674" lon="3.54725">
        <ele>1076.33</ele>
        <time>2024-08-15T13:29:39Z</time>
      </trkpt>
      <trkpt lat="44.90649" lon="3.54726">
        <ele>1076.33</ele>
        <time>2024-08-15T13:29:57Z</time>
      </trkpt>
      <trkpt lat="44.90617" lon="3.54731">
        <ele>1074.89</ele>
        <time>2024-08-15T13:30:19Z</time>
      </trkpt>
      <trkpt lat="44.90592" lon="3.54735">
        <ele>1075.37</ele>
        <time>2024-08-15T13:30:37Z</time>
      </trkpt>
      <trkpt lat="44.90567" lon="3.54741">
        <ele>1077.78</ele>
        <time>2024-08-15T13:30:55Z</time>
      </trkpt>
      <trkpt lat="44.90539" lon="3.54755">
        <ele>1080.18</ele>
        <time>2024-08-15T13:31:15Z</time>
      </trkpt>
      <trkpt lat="44.90523" lon="3.54766">
        <ele>1081.62</ele>
        <time>2024-08-15T13:31:28Z</time>
      </trkpt>
      <trkpt lat="44.90501" lon="3.54781">
        <ele>1081.14</ele>
        <time>2024-08-15T13:31:45Z</time>
      </trkpt>
      <trkpt lat="44.90476" lon="3.54796">
        <ele>1081.14</ele>
        <time>2024-08-15T13:32:04Z</time>
      </trkpt>
      <trkpt lat="44.9045" lon="3.54808">
        <ele>1082.58</ele>
        <time>2024-08-15T13:32:23Z</time>
      </trkpt>
      <trkpt lat="44.90427" lon="3.54828">
        <ele>1081.62</ele>
        <time>2024-08-15T13:32:42Z</time>
      </trkpt>
      <trkpt lat="44.90393" lon="3.54848">
        <ele>1078.74</ele>
        <time>2024-08-15T13:33:08Z</time>
      </trkpt>
      <trkpt lat="44.90365" lon="3.54865">
        <ele>1077.78</ele>
        <time>2024-08-15T13:33:29Z</time>
      </trkpt>
      <trkpt lat="44.90336" lon="3.54883">
        <ele>1076.33</ele>
        <time>2024-08-15T13:33:51Z</time>
      </trkpt>
      <trkpt lat="44.90309" lon="3.54908">
        <ele>1073.45</ele>
        <time>2024-08-15T13:34:13Z</time>
      </trkpt>
      <trkpt lat="44.90286" lon="3.54933">
        <ele>1071.53</ele>
        <time>2024-08-15T13:34:33Z</time>
      </trkpt>
      <trkpt lat="44.90261" lon="3.54963">
        <ele>1069.6</ele>
        <time>2024-08-15T13:34:55Z</time>
      </trkpt>
      <trkpt lat="44.90235" lon="3.54995">
        <ele>1067.2</ele>
        <time>2024-08-15T13:35:18Z</time>
      </trkpt>
      <trkpt lat="44.90209" lon="3.55028">
        <ele>1064.32</ele>
        <time>2024-08-15T13:35:41Z</time>
      </trkpt>
      <trkpt lat="44.90173" lon="3.55069">
        <ele>1061.43</ele>
        <time>2024-08-15T13:36:11Z</time>
      </trkpt>
      <trkpt lat="44.90144" lon="3.55103">
        <ele>1060.47</ele>
        <time>2024-08-15T13:36:36Z</time>
      </trkpt>
      <trkpt lat="44.90122" lon="3.55129">
        <ele>1059.99</ele>
        <time>2024-08-15T13:36:55Z</time>
      </trkpt>
      <trkpt lat="44.901" lon="3.55152">
        <ele>1059.99</ele>
        <time>2024-08-15T13:37:12Z</time>
      </trkpt>
      <trkpt lat="44.90071" lon="3.55176">
        <ele>1059.99</ele>
        <time>2024-08-15T13:37:34Z</time>
      </trkpt>
      <trkpt lat="44.9004" lon="3.552">
        <ele>1059.51</ele>
        <time>2024-08-15T13:37:54Z</time>
      </trkpt>
      <trkpt lat="44.9001" lon="3.55222">
        <ele>1058.07</ele>
        <time>2024-08-15T13:38:14Z</time>
      </trkpt>
      <trkpt lat="44.89982" lon="3.5523">
        <ele>1058.55</ele>
        <time>2024-08-15T13:38:32Z</time>
      </trkpt>
      <trkpt lat="44.89961" lon="3.55222">
        <ele>1059.99</ele>
        <time>2024-08-15T13:38:47Z</time>
      </trkpt>
      <trkpt lat="44.89938" lon="3.55204">
        <ele>1062.39</ele>
        <time>2024-08-15T13:39:02Z</time>
      </trkpt>
      <trkpt lat="44.89917" lon="3.55182">
        <ele>1068.64</ele>
        <time>2024-08-15T13:39:19Z</time>
      </trkpt>
      <trkpt lat="44.89883" lon="3.55169">
        <ele>1071.05</ele>
        <time>2024-08-15T13:39:40Z</time>
      </trkpt>
      <trkpt lat="44.89854" lon="3.5515">
        <ele>1073.45</ele>
        <time>2024-08-15T13:39:59Z</time>
      </trkpt>
      <trkpt lat="44.89832" lon="3.55122">
        <ele>1074.89</ele>
        <time>2024-08-15T13:40:19Z</time>
      </trkpt>
      <trkpt lat="44.89805" lon="3.55102">
        <ele>1076.81</ele>
        <time>2024-08-15T13:40:39Z</time>
      </trkpt>
      <trkpt lat="44.89771" lon="3.55085">
        <ele>1080.18</ele>
        <time>2024-08-15T13:41:01Z</time>
      </trkpt>
      <trkpt lat="44.8974" lon="3.55079">
        <ele>1084.02</ele>
        <time>2024-08-15T13:41:21Z</time>
      </trkpt>
      <trkpt lat="44.89706" lon="3.55072">
        <ele>1088.35</ele>
        <time>2024-08-15T13:41:40Z</time>
      </trkpt>
      <trkpt lat="44.89672" lon="3.55068">
        <ele>1091.71</ele>
        <time>2024-08-15T13:42:01Z</time>
      </trkpt>
      <trkpt lat="44.89639" lon="3.55055">
        <ele>1095.08</ele>
        <time>2024-08-15T13:42:23Z</time>
      </trkpt>
      <trkpt lat="44.89616" lon="3.55046">
        <ele>1096.04</ele>
        <time>2024-08-15T13:42:39Z</time>
      </trkpt>
      <trkpt lat="44.89585" lon="3.55036">
        <ele>1098.44</ele>
        <time>2024-08-15T13:42:57Z</time>
      </trkpt>
      <trkpt lat="44.89554" lon="3.55031">
        <ele>1102.77</ele>
        <time>2024-08-15T13:43:16Z</time>
      </trkpt>
      <trkpt lat="44.89527" lon="3.55035">
        <ele>1103.25</ele>
        <time>2024-08-15T13:43:33Z</time>
      </trkpt>
      <trkpt lat="44.89496" lon="3.55046">
        <ele>1105.17</ele>
        <time>2024-08-15T13:43:52Z</time>
      </trkpt>
      <trkpt lat="44.89468" lon="3.55061">
        <ele>1107.1</ele>
        <time>2024-08-15T13:44:09Z</time>
      </trkpt>
      <trkpt lat="44.89444" lon="3.55066">
        <ele>1108.54</ele>
        <time>2024-08-15T13:44:23Z</time>
      </trkpt>
      <trkpt lat="44.89415" lon="3.55073">
        <ele>1108.06</ele>
        <time>2024-08-15T13:44:39Z</time>
      </trkpt>
      <trkpt lat="44.89385" lon="3.55079">
        <ele>1109.02</ele>
        <time>2024-08-15T13:44:57Z</time>
      </trkpt>
      <trkpt lat="44.89354" lon="3.55097">
        <ele>1110.46</ele>
        <time>2024-08-15T13:45:17Z</time>
      </trkpt>
      <trkpt lat="44.89326" lon="3.55113">
        <ele>1111.9</ele>
        <time>2024-08-15T13:45:36Z</time>
      </trkpt>
      <trkpt lat="44.89299" lon="3.55133">
        <ele>1112.86</ele>
        <time>2024-08-15T13:45:53Z</time>
      </trkpt>
      <trkpt lat="44.89276" lon="3.55157">
        <ele>1114.31</ele>
        <time>2024-08-15T13:46:08Z</time>
      </trkpt>
      <trkpt lat="44.89251" lon="3.55184">
        <ele>1115.27</ele>
        <time>2024-08-15T13:46:19Z</time>
      </trkpt>
      <trkpt lat="44.89227" lon="3.55207">
        <ele>1121.03</ele>
        <time>2024-08-15T13:46:34Z</time>
      </trkpt>
      <trkpt lat="44.89201" lon="3.55236">
        <ele>1123.92</ele>
        <time>2024-08-15T13:46:54Z</time>
      </trkpt>
      <trkpt lat="44.89186" lon="3.55257">
        <ele>1123.92</ele>
        <time>2024-08-15T13:47:07Z</time>
      </trkpt>
      <trkpt lat="44.89172" lon="3.55288">
        <ele>1126.32</ele>
        <time>2024-08-15T13:47:24Z</time>
      </trkpt>
      <trkpt lat="44.89157" lon="3.55318">
        <ele>1129.21</ele>
        <time>2024-08-15T13:47:40Z</time>
      </trkpt>
      <trkpt lat="44.89125" lon="3.55346">
        <ele>1127.76</ele>
        <time>2024-08-15T13:47:56Z</time>
      </trkpt>
      <trkpt lat="44.89098" lon="3.55352">
        <ele>1124.4</ele>
        <time>2024-08-15T13:48:13Z</time>
      </trkpt>
      <trkpt lat="44.89079" lon="3.5536">
        <ele>1121.52</ele>
        <time>2024-08-15T13:48:28Z</time>
      </trkpt>
      <trkpt lat="44.8905" lon="3.55367">
        <ele>1119.59</ele>
        <time>2024-08-15T13:48:43Z</time>
      </trkpt>
      <trkpt lat="44.89024" lon="3.55369">
        <ele>1118.63</ele>
        <time>2024-08-15T13:48:57Z</time>
      </trkpt>
      <trkpt lat="44.89002" lon="3.55368">
        <ele>1121.03</ele>
        <time>2024-08-15T13:49:12Z</time>
      </trkpt>
      <trkpt lat="44.88972" lon="3.5538">
        <ele>1122.96</ele>
        <time>2024-08-15T13:49:29Z</time>
      </trkpt>
      <trkpt lat="44.88945" lon="3.55381">
        <ele>1123.92</ele>
        <time>2024-08-15T13:49:46Z</time>
      </trkpt>
      <trkpt lat="44.88919" lon="3.55385">
        <ele>1122.96</ele>
        <time>2024-08-15T13:50:01Z</time>
      </trkpt>
      <trkpt lat="44.8889" lon="3.55389">
        <ele>1122</ele>
        <time>2024-08-15T13:50:18Z</time>
      </trkpt>
      <trkpt lat="44.88861" lon="3.55394">
        <ele>1121.03</ele>
        <time>2024-08-15T13:50:36Z</time>
      </trkpt>
      <trkpt lat="44.88835" lon="3.55401">
        <ele>1121.52</ele>
        <time>2024-08-15T13:50:51Z</time>
      </trkpt>
      <trkpt lat="44.88809" lon="3.554">
        <ele>1123.92</ele>
        <time>2024-08-15T13:51:05Z</time>
      </trkpt>
      <trkpt lat="44.88795" lon="3.55396">
        <ele>1123.44</ele>
        <time>2024-08-15T13:51:17Z</time>
      </trkpt>
      <trkpt lat="44.88769" lon="3.55396">
        <ele>1124.88</ele>
        <time>2024-08-15T13:51:34Z</time>
      </trkpt>
      <trkpt lat="44.88738" lon="3.55397">
        <ele>1129.69</ele>
        <time>2024-08-15T13:51:53Z</time>
      </trkpt>
      <trkpt lat="44.88715" lon="3.55406">
        <ele>1133.05</ele>
        <time>2024-08-15T13:52:09Z</time>
      </trkpt>
      <trkpt lat="44.88688" lon="3.55407">
        <ele>1134.97</ele>
        <time>2024-08-15T13:52:26Z</time>
      </trkpt>
      <trkpt lat="44.88661" lon="3.55403">
        <ele>1135.45</ele>
        <time>2024-08-15T13:52:43Z</time>
      </trkpt>
      <trkpt lat="44.88635" lon="3.55402">
        <ele>1136.9</ele>
        <time>2024-08-15T13:53:00Z</time>
      </trkpt>
      <trkpt lat="44.88613" lon="3.55404">
        <ele>1134.97</ele>
        <time>2024-08-15T13:53:16Z</time>
      </trkpt>
      <trkpt lat="44.88581" lon="3.55418">
        <ele>1136.9</ele>
        <time>2024-08-15T13:53:37Z</time>
      </trkpt>
      <trkpt lat="44.88552" lon="3.55423">
        <ele>1136.42</ele>
        <time>2024-08-15T13:53:56Z</time>
      </trkpt>
      <trkpt lat="44.88526" lon="3.55421">
        <ele>1134.97</ele>
        <time>2024-08-15T13:54:12Z</time>
      </trkpt>
      <trkpt lat="44.88496" lon="3.5542">
        <ele>1132.57</ele>
        <time>2024-08-15T13:54:31Z</time>
      </trkpt>
      <trkpt lat="44.88471" lon="3.55425">
        <ele>1127.28</ele>
        <time>2024-08-15T13:54:47Z</time>
      </trkpt>
      <trkpt lat="44.88443" lon="3.55449">
        <ele>1125.84</ele>
        <time>2024-08-15T13:55:07Z</time>
      </trkpt>
      <trkpt lat="44.88419" lon="3.55476">
        <ele>1125.84</ele>
        <time>2024-08-15T13:55:26Z</time>
      </trkpt>
      <trkpt lat="44.88393" lon="3.55499">
        <ele>1126.32</ele>
        <time>2024-08-15T13:55:44Z</time>
      </trkpt>
      <trkpt lat="44.88354" lon="3.55514">
        <ele>1128.24</ele>
        <time>2024-08-15T13:56:09Z</time>
      </trkpt>
      <trkpt lat="44.88318" lon="3.55525">
        <ele>1125.36</ele>
        <time>2024-08-15T13:56:33Z</time>
      </trkpt>
      <trkpt lat="44.88286" lon="3.55538">
        <ele>1123.92</ele>
        <time>2024-08-15T13:56:52Z</time>
      </trkpt>
      <trkpt lat="44.88263" lon="3.55555">
        <ele>1123.92</ele>
        <time>2024-08-15T13:57:11Z</time>
      </trkpt>
      <trkpt lat="44.88262" lon="3.55555">
        <ele>1124.4</ele>
        <time>2024-08-15T13:57:31Z</time>
      </trkpt>
      <trkpt lat="44.88259" lon="3.55556">
        <ele>1124.88</ele>
        <time>2024-08-15T13:57:51Z</time>
      </trkpt>
      <trkpt lat="44.88259" lon="3.55556">
        <ele>1122.96</ele>
        <time>2024-08-15T13:58:19Z</time>
      </trkpt>
      <trkpt lat="44.8825" lon="3.55566">
        <ele>1121.52</ele>
        <time>2024-08-15T13:58:37Z</time>
      </trkpt>
      <trkpt lat="44.8823" lon="3.55589">
        <ele>1122</ele>
        <time>2024-08-15T13:58:55Z</time>
      </trkpt>
      <trkpt lat="44.88202" lon="3.55609">
        <ele>1118.63</ele>
        <time>2024-08-15T13:59:17Z</time>
      </trkpt>
      <trkpt lat="44.88172" lon="3.55625">
        <ele>1112.86</ele>
        <time>2024-08-15T13:59:37Z</time>
      </trkpt>
      <trkpt lat="44.88137" lon="3.5564">
        <ele>1109.98</ele>
        <time>2024-08-15T14:00:00Z</time>
      </trkpt>
      <trkpt lat="44.88107" lon="3.55649">
        <ele>1106.61</ele>
        <time>2024-08-15T14:00:20Z</time>
      </trkpt>
      <trkpt lat="44.88074" lon="3.55651">
        <ele>1104.69</ele>
        <time>2024-08-15T14:00:42Z</time>
      </trkpt>
      <trkpt lat="44.88045" lon="3.55651">
        <ele>1104.21</ele>
        <time>2024-08-15T14:01:02Z</time>
      </trkpt>
      <trkpt lat="44.88022" lon="3.55637">
        <ele>1100.85</ele>
        <time>2024-08-15T14:01:19Z</time>
      </trkpt>
      <trkpt lat="44.87995" lon="3.55631">
        <ele>1096.52</ele>
        <time>2024-08-15T14:01:37Z</time>
      </trkpt>
      <trkpt lat="44.87968" lon="3.55644">
        <ele>1094.12</ele>
        <time>2024-08-15T14:01:57Z</time>
      </trkpt>
      <trkpt lat="44.87943" lon="3.55634">
        <ele>1092.68</ele>
        <time>2024-08-15T14:02:16Z</time>
      </trkpt>
      <trkpt lat="44.87915" lon="3.55614">
        <ele>1089.31</ele>
        <time>2024-08-15T14:02:35Z</time>
      </trkpt>
      <trkpt lat="44.87884" lon="3.55611">
        <ele>1085.95</ele>
        <time>2024-08-15T14:02:56Z</time>
      </trkpt>
      <trkpt lat="44.8785" lon="3.55607">
        <ele>1084.5</ele>
        <time>2024-08-15T14:03:17Z</time>
      </trkpt>
      <trkpt lat="44.87823" lon="3.55613">
        <ele>1081.62</ele>
        <time>2024-08-15T14:03:35Z</time>
      </trkpt>
      <trkpt lat="44.87793" lon="3.55632">
        <ele>1079.22</ele>
        <time>2024-08-15T14:03:55Z</time>
      </trkpt>
      <trkpt lat="44.87767" lon="3.55648">
        <ele>1076.33</ele>
        <time>2024-08-15T14:04:12Z</time>
      </trkpt>
      <trkpt lat="44.87737" lon="3.5566">
        <ele>1072.49</ele>
        <time>2024-08-15T14:04:30Z</time>
      </trkpt>
      <trkpt lat="44.87705" lon="3.55675">
        <ele>1067.2</ele>
        <time>2024-08-15T14:04:51Z</time>
      </trkpt>
      <trkpt lat="44.87674" lon="3.55695">
        <ele>1063.36</ele>
        <time>2024-08-15T14:05:11Z</time>
      </trkpt>
      <trkpt lat="44.87648" lon="3.55721">
        <ele>1059.51</ele>
        <time>2024-08-15T14:05:29Z</time>
      </trkpt>
      <trkpt lat="44.87616" lon="3.55744">
        <ele>1056.15</ele>
        <time>2024-08-15T14:05:49Z</time>
      </trkpt>
      <trkpt lat="44.87603" lon="3.55755">
        <ele>1053.74</ele>
        <time>2024-08-15T14:06:03Z</time>
      </trkpt>
      <trkpt lat="44.87606" lon="3.55753">
        <ele>1053.26</ele>
        <time>2024-08-15T14:06:13Z</time>
      </trkpt>
      <trkpt lat="44.87616" lon="3.55734">
        <ele>1052.78</ele>
        <time>2024-08-15T14:06:23Z</time>
      </trkpt>
      <trkpt lat="44.87606" lon="3.55722">
        <ele>1055.18</ele>
        <time>2024-08-15T14:06:38Z</time>
      </trkpt>
      <trkpt lat="44.87604" lon="3.55729">
        <ele>1055.67</ele>
        <time>2024-08-15T14:07:01Z</time>
      </trkpt>
      <trkpt lat="44.87605" lon="3.55729">
        <ele>1055.67</ele>
        <time>2024-08-15T14:07:03Z</time>
      </trkpt>
      <trkpt lat="44.87613" lon="3.55745">
        <ele>1054.22</ele>
        <time>2024-08-15T14:07:16Z</time>
      </trkpt>
      <trkpt lat="44.87586" lon="3.55772">
        <ele>1052.78</ele>
        <time>2024-08-15T14:07:37Z</time>
      </trkpt>
      <trkpt lat="44.8756" lon="3.558">
        <ele>1052.3</ele>
        <time>2024-08-15T14:07:57Z</time>
      </trkpt>
      <trkpt lat="44.87533" lon="3.55834">
        <ele>1050.86</ele>
        <time>2024-08-15T14:08:18Z</time>
      </trkpt>
      <trkpt lat="44.87505" lon="3.55855">
        <ele>1051.82</ele>
        <time>2024-08-15T14:08:38Z</time>
      </trkpt>
      <trkpt lat="44.8748" lon="3.55866">
        <ele>1052.78</ele>
        <time>2024-08-15T14:08:54Z</time>
      </trkpt>
      <trkpt lat="44.87451" lon="3.55873">
        <ele>1053.74</ele>
        <time>2024-08-15T14:09:13Z</time>
      </trkpt>
      <trkpt lat="44.87423" lon="3.55888">
        <ele>1057.59</ele>
        <time>2024-08-15T14:09:31Z</time>
      </trkpt>
      <trkpt lat="44.87393" lon="3.55905">
        <ele>1062.39</ele>
        <time>2024-08-15T14:09:50Z</time>
      </trkpt>
      <trkpt lat="44.87362" lon="3.55917">
        <ele>1064.32</ele>
        <time>2024-08-15T14:10:10Z</time>
      </trkpt>
      <trkpt lat="44.87337" lon="3.5593">
        <ele>1066.72</ele>
        <time>2024-08-15T14:10:26Z</time>
      </trkpt>
      <trkpt lat="44.87312" lon="3.5596">
        <ele>1071.53</ele>
        <time>2024-08-15T14:10:45Z</time>
      </trkpt>
      <trkpt lat="44.8729" lon="3.55989">
        <ele>1077.29</ele>
        <time>2024-08-15T14:11:05Z</time>
      </trkpt>
      <trkpt lat="44.87268" lon="3.56019">
        <ele>1081.62</ele>
        <time>2024-08-15T14:11:25Z</time>
      </trkpt>
      <trkpt lat="44.8725" lon="3.56042">
        <ele>1085.95</ele>
        <time>2024-08-15T14:11:43Z</time>
      </trkpt>
      <trkpt lat="44.87223" lon="3.56061">
        <ele>1089.31</ele>
        <time>2024-08-15T14:12:02Z</time>
      </trkpt>
      <trkpt lat="44.87197" lon="3.56079">
        <ele>1090.75</ele>
        <time>2024-08-15T14:12:22Z</time>
      </trkpt>
      <trkpt lat="44.87168" lon="3.56101">
        <ele>1092.68</ele>
        <time>2024-08-15T14:12:42Z</time>
      </trkpt>
      <trkpt lat="44.87137" lon="3.56117">
        <ele>1095.08</ele>
        <time>2024-08-15T14:13:01Z</time>
      </trkpt>
      <trkpt lat="44.87112" lon="3.56128">
        <ele>1098.44</ele>
        <time>2024-08-15T14:13:18Z</time>
      </trkpt>
      <trkpt lat="44.87093" lon="3.56152">
        <ele>1100.37</ele>
        <time>2024-08-15T14:13:33Z</time>
      </trkpt>
      <trkpt lat="44.87074" lon="3.56172">
        <ele>1104.21</ele>
        <time>2024-08-15T14:13:48Z</time>
      </trkpt>
      <trkpt lat="44.87051" lon="3.56206">
        <ele>1107.58</ele>
        <time>2024-08-15T14:14:07Z</time>
      </trkpt>
      <trkpt lat="44.87031" lon="3.56229">
        <ele>1113.34</ele>
        <time>2024-08-15T14:14:23Z</time>
      </trkpt>
      <trkpt lat="44.8702" lon="3.56256">
        <ele>1119.11</ele>
        <time>2024-08-15T14:14:38Z</time>
      </trkpt>
      <trkpt lat="44.86996" lon="3.5628">
        <ele>1123.92</ele>
        <time>2024-08-15T14:14:55Z</time>
      </trkpt>
      <trkpt lat="44.86972" lon="3.56302">
        <ele>1128.73</ele>
        <time>2024-08-15T14:15:14Z</time>
      </trkpt>
      <trkpt lat="44.86943" lon="3.56323">
        <ele>1128.24</ele>
        <time>2024-08-15T14:15:37Z</time>
      </trkpt>
      <trkpt lat="44.86913" lon="3.56335">
        <ele>1122</ele>
        <time>2024-08-15T14:15:59Z</time>
      </trkpt>
      <trkpt lat="44.86905" lon="3.56338">
        <ele>1119.59</ele>
        <time>2024-08-15T14:16:06Z</time>
      </trkpt>
      <trkpt lat="44.86883" lon="3.56344">
        <ele>1116.23</ele>
        <time>2024-08-15T14:16:21Z</time>
      </trkpt>
      <trkpt lat="44.86856" lon="3.56348">
        <ele>1110.46</ele>
        <time>2024-08-15T14:16:38Z</time>
      </trkpt>
      <trkpt lat="44.86832" lon="3.56336">
        <ele>1106.13</ele>
        <time>2024-08-15T14:16:54Z</time>
      </trkpt>
      <trkpt lat="44.868" lon="3.56318">
        <ele>1100.85</ele>
        <time>2024-08-15T14:17:16Z</time>
      </trkpt>
      <trkpt lat="44.86769" lon="3.56306">
        <ele>1096.52</ele>
        <time>2024-08-15T14:17:37Z</time>
      </trkpt>
      <trkpt lat="44.86736" lon="3.56296">
        <ele>1095.08</ele>
        <time>2024-08-15T14:17:58Z</time>
      </trkpt>
      <trkpt lat="44.86703" lon="3.56284">
        <ele>1093.64</ele>
        <time>2024-08-15T14:18:20Z</time>
      </trkpt>
      <trkpt lat="44.86667" lon="3.56269">
        <ele>1093.16</ele>
        <time>2024-08-15T14:18:44Z</time>
      </trkpt>
      <trkpt lat="44.86642" lon="3.56259">
        <ele>1088.83</ele>
        <time>2024-08-15T14:19:02Z</time>
      </trkpt>
      <trkpt lat="44.86619" lon="3.56249">
        <ele>1087.39</ele>
        <time>2024-08-15T14:19:19Z</time>
      </trkpt>
      <trkpt lat="44.86591" lon="3.56245">
        <ele>1086.91</ele>
        <time>2024-08-15T14:19:37Z</time>
      </trkpt>
      <trkpt lat="44.86562" lon="3.56257">
        <ele>1086.91</ele>
        <time>2024-08-15T14:19:56Z</time>
      </trkpt>
      <trkpt lat="44.86535" lon="3.56277">
        <ele>1087.39</ele>
        <time>2024-08-15T14:20:15Z</time>
      </trkpt>
      <trkpt lat="44.86535" lon="3.56278">
        <ele>1087.87</ele>
        <time>2024-08-15T14:20:16Z</time>
      </trkpt>
      <trkpt lat="44.86534" lon="3.56279">
        <ele>1088.35</ele>
        <time>2024-08-15T14:20:17Z</time>
      </trkpt>
      <trkpt lat="44.86531" lon="3.56282">
        <ele>1090.75</ele>
        <time>2024-08-15T14:20:33Z</time>
      </trkpt>
      <trkpt lat="44.86527" lon="3.56291">
        <ele>1089.79</ele>
        <time>2024-08-15T14:20:50Z</time>
      </trkpt>
      <trkpt lat="44.86521" lon="3.56298">
        <ele>1089.31</ele>
        <time>2024-08-15T14:21:09Z</time>
      </trkpt>
      <trkpt lat="44.86525" lon="3.56285">
        <ele>1088.83</ele>
        <time>2024-08-15T14:21:32Z</time>
      </trkpt>
      <trkpt lat="44.8653" lon="3.56276">
        <ele>1091.71</ele>
        <time>2024-08-15T14:21:48Z</time>
      </trkpt>
      <trkpt lat="44.8653" lon="3.56279">
        <ele>1090.75</ele>
        <time>2024-08-15T14:22:13Z</time>
      </trkpt>
      <trkpt lat="44.86526" lon="3.56277">
        <ele>1092.2</ele>
        <time>2024-08-15T14:22:31Z</time>
      </trkpt>
      <trkpt lat="44.86527" lon="3.56271">
        <ele>1095.56</ele>
        <time>2024-08-15T14:22:56Z</time>
      </trkpt>
      <trkpt lat="44.86526" lon="3.56261">
        <ele>1094.12</ele>
        <time>2024-08-15T14:23:21Z</time>
      </trkpt>
      <trkpt lat="44.86525" lon="3.5626">
        <ele>1094.12</ele>
        <time>2024-08-15T14:23:22Z</time>
      </trkpt>
      <trkpt lat="44.86525" lon="3.56259">
        <ele>1094.6</ele>
        <time>2024-08-15T14:23:23Z</time>
      </trkpt>
      <trkpt lat="44.86516" lon="3.56247">
        <ele>1091.23</ele>
        <time>2024-08-15T14:23:39Z</time>
      </trkpt>
      <trkpt lat="44.86501" lon="3.56257">
        <ele>1085.95</ele>
        <time>2024-08-15T14:23:56Z</time>
      </trkpt>
      <trkpt lat="44.86491" lon="3.56283">
        <ele>1084.99</ele>
        <time>2024-08-15T14:24:15Z</time>
      </trkpt>
      <trkpt lat="44.86491" lon="3.56285">
        <ele>1084.5</ele>
        <time>2024-08-15T14:24:42Z</time>
      </trkpt>
      <trkpt lat="44.86492" lon="3.56286">
        <ele>1089.79</ele>
        <time>2024-08-15T14:25:02Z</time>
      </trkpt>
      <trkpt lat="44.86492" lon="3.56282">
        <ele>1095.08</ele>
        <time>2024-08-15T14:25:20Z</time>
      </trkpt>
      <trkpt lat="44.86492" lon="3.5628">
        <ele>1095.08</ele>
        <time>2024-08-15T14:25:21Z</time>
      </trkpt>
      <trkpt lat="44.86501" lon="3.56251">
        <ele>1094.6</ele>
        <time>2024-08-15T14:25:38Z</time>
      </trkpt>
      <trkpt lat="44.86496" lon="3.5625">
        <ele>1093.64</ele>
        <time>2024-08-15T14:25:42Z</time>
      </trkpt>
      <trkpt lat="44.86494" lon="3.56251">
        <ele>1093.64</ele>
        <time>2024-08-15T14:25:43Z</time>
      </trkpt>
      <trkpt lat="44.86471" lon="3.56259">
        <ele>1088.83</ele>
        <time>2024-08-15T14:25:59Z</time>
      </trkpt>
      <trkpt lat="44.86455" lon="3.56279">
        <ele>1082.58</ele>
        <time>2024-08-15T14:26:15Z</time>
      </trkpt>
      <trkpt lat="44.86444" lon="3.56295">
        <ele>1077.78</ele>
        <time>2024-08-15T14:26:30Z</time>
      </trkpt>
      <trkpt lat="44.86437" lon="3.56304">
        <ele>1075.37</ele>
        <time>2024-08-15T14:26:49Z</time>
      </trkpt>
      <trkpt lat="44.86434" lon="3.56303">
        <ele>1074.89</ele>
        <time>2024-08-15T14:26:53Z</time>
      </trkpt>
      <trkpt lat="44.86432" lon="3.56303">
        <ele>1074.89</ele>
        <time>2024-08-15T14:26:54Z</time>
      </trkpt>
      <trkpt lat="44.86402" lon="3.56298">
        <ele>1076.33</ele>
        <time>2024-08-15T14:27:12Z</time>
      </trkpt>
      <trkpt lat="44.86393" lon="3.56294">
        <ele>1073.45</ele>
        <time>2024-08-15T14:27:27Z</time>
      </trkpt>
      <trkpt lat="44.86394" lon="3.56292">
        <ele>1072.49</ele>
        <time>2024-08-15T14:28:00Z</time>
      </trkpt>
      <trkpt lat="44.86393" lon="3.56288">
        <ele>1073.45</ele>
        <time>2024-08-15T14:28:29Z</time>
      </trkpt>
      <trkpt lat="44.86393" lon="3.56287">
        <ele>1075.85</ele>
        <time>2024-08-15T14:28:57Z</time>
      </trkpt>
      <trkpt lat="44.86384" lon="3.56298">
        <ele>1075.37</ele>
        <time>2024-08-15T14:29:09Z</time>
      </trkpt>
      <trkpt lat="44.86371" lon="3.5633">
        <ele>1073.93</ele>
        <time>2024-08-15T14:29:27Z</time>
      </trkpt>
      <trkpt lat="44.86355" lon="3.56358">
        <ele>1074.41</ele>
        <time>2024-08-15T14:29:46Z</time>
      </trkpt>
      <trkpt lat="44.86325" lon="3.56361">
        <ele>1076.33</ele>
        <time>2024-08-15T14:30:05Z</time>
      </trkpt>
      <trkpt lat="44.86292" lon="3.56371">
        <ele>1076.33</ele>
        <time>2024-08-15T14:30:26Z</time>
      </trkpt>
      <trkpt lat="44.8626" lon="3.56369">
        <ele>1076.33</ele>
        <time>2024-08-15T14:30:46Z</time>
      </trkpt>
      <trkpt lat="44.8624" lon="3.56353">
        <ele>1076.33</ele>
        <time>2024-08-15T14:31:04Z</time>
      </trkpt>
      <trkpt lat="44.86237" lon="3.56357">
        <ele>1074.41</ele>
        <time>2024-08-15T14:31:30Z</time>
      </trkpt>
      <trkpt lat="44.86233" lon="3.56353">
        <ele>1074.41</ele>
        <time>2024-08-15T14:31:56Z</time>
      </trkpt>
      <trkpt lat="44.86204" lon="3.56326">
        <ele>1077.78</ele>
        <time>2024-08-15T14:32:19Z</time>
      </trkpt>
      <trkpt lat="44.86182" lon="3.56306">
        <ele>1081.14</ele>
        <time>2024-08-15T14:32:37Z</time>
      </trkpt>
      <trkpt lat="44.86153" lon="3.56299">
        <ele>1084.02</ele>
        <time>2024-08-15T14:32:56Z</time>
      </trkpt>
      <trkpt lat="44.86126" lon="3.56289">
        <ele>1087.87</ele>
        <time>2024-08-15T14:33:16Z</time>
      </trkpt>
      <trkpt lat="44.86102" lon="3.56264">
        <ele>1088.35</ele>
        <time>2024-08-15T14:33:36Z</time>
      </trkpt>
      <trkpt lat="44.86077" lon="3.56242">
        <ele>1089.79</ele>
        <time>2024-08-15T14:33:56Z</time>
      </trkpt>
      <trkpt lat="44.86047" lon="3.56223">
        <ele>1094.6</ele>
        <time>2024-08-15T14:34:17Z</time>
      </trkpt>
      <trkpt lat="44.86015" lon="3.56221">
        <ele>1100.85</ele>
        <time>2024-08-15T14:34:38Z</time>
      </trkpt>
      <trkpt lat="44.85995" lon="3.5622">
        <ele>1104.69</ele>
        <time>2024-08-15T14:34:51Z</time>
      </trkpt>
      <trkpt lat="44.85993" lon="3.5622">
        <ele>1104.69</ele>
        <time>2024-08-15T14:34:52Z</time>
      </trkpt>
      <trkpt lat="44.85992" lon="3.5622">
        <ele>1105.17</ele>
        <time>2024-08-15T14:34:53Z</time>
      </trkpt>
      <trkpt lat="44.8599" lon="3.56221">
        <ele>1105.17</ele>
        <time>2024-08-15T14:34:54Z</time>
      </trkpt>
      <trkpt lat="44.85989" lon="3.5622">
        <ele>1105.65</ele>
        <time>2024-08-15T14:34:55Z</time>
      </trkpt>
      <trkpt lat="44.85987" lon="3.5622">
        <ele>1106.13</ele>
        <time>2024-08-15T14:34:56Z</time>
      </trkpt>
      <trkpt lat="44.85985" lon="3.56221">
        <ele>1106.13</ele>
        <time>2024-08-15T14:34:57Z</time>
      </trkpt>
      <trkpt lat="44.85984" lon="3.56221">
        <ele>1106.61</ele>
        <time>2024-08-15T14:34:58Z</time>
      </trkpt>
      <trkpt lat="44.85959" lon="3.56219">
        <ele>1111.42</ele>
        <time>2024-08-15T14:35:14Z</time>
      </trkpt>
      <trkpt lat="44.85956" lon="3.56218">
        <ele>1111.42</ele>
        <time>2024-08-15T14:35:16Z</time>
      </trkpt>
      <trkpt lat="44.85955" lon="3.56218">
        <ele>1111.9</ele>
        <time>2024-08-15T14:35:17Z</time>
      </trkpt>
      <trkpt lat="44.85933" lon="3.56218">
        <ele>1115.75</ele>
        <time>2024-08-15T14:35:32Z</time>
      </trkpt>
      <trkpt lat="44.85911" lon="3.56219">
        <ele>1118.15</ele>
        <time>2024-08-15T14:35:45Z</time>
      </trkpt>
      <trkpt lat="44.85894" lon="3.56219">
        <ele>1121.03</ele>
        <time>2024-08-15T14:35:55Z</time>
      </trkpt>
      <trkpt lat="44.85872" lon="3.56205">
        <ele>1125.84</ele>
        <time>2024-08-15T14:36:12Z</time>
      </trkpt>
      <trkpt lat="44.8585" lon="3.56182">
        <ele>1131.61</ele>
        <time>2024-08-15T14:36:31Z</time>
      </trkpt>
      <trkpt lat="44.85833" lon="3.56163">
        <ele>1136.9</ele>
        <time>2024-08-15T14:36:46Z</time>
      </trkpt>
      <trkpt lat="44.85813" lon="3.56145">
        <ele>1140.74</ele>
        <time>2024-08-15T14:37:03Z</time>
      </trkpt>
      <trkpt lat="44.85805" lon="3.56131">
        <ele>1141.7</ele>
        <time>2024-08-15T14:37:13Z</time>
      </trkpt>
      <trkpt lat="44.85805" lon="3.56129">
        <ele>1142.18</ele>
        <time>2024-08-15T14:37:14Z</time>
      </trkpt>
      <trkpt lat="44.85789" lon="3.56104">
        <ele>1146.99</ele>
        <time>2024-08-15T14:37:32Z</time>
      </trkpt>
      <trkpt lat="44.85777" lon="3.56089">
        <ele>1150.35</ele>
        <time>2024-08-15T14:37:43Z</time>
      </trkpt>
      <trkpt lat="44.85776" lon="3.56088">
        <ele>1150.35</ele>
        <time>2024-08-15T14:37:44Z</time>
      </trkpt>
      <trkpt lat="44.85775" lon="3.56087">
        <ele>1150.84</ele>
        <time>2024-08-15T14:37:45Z</time>
      </trkpt>
      <trkpt lat="44.85774" lon="3.56086">
        <ele>1150.84</ele>
        <time>2024-08-15T14:37:46Z</time>
      </trkpt>
      <trkpt lat="44.85772" lon="3.56085">
        <ele>1150.84</ele>
        <time>2024-08-15T14:37:47Z</time>
      </trkpt>
      <trkpt lat="44.85771" lon="3.56084">
        <ele>1150.84</ele>
        <time>2024-08-15T14:37:48Z</time>
      </trkpt>
      <trkpt lat="44.8575" lon="3.56074">
        <ele>1153.24</ele>
        <time>2024-08-15T14:38:03Z</time>
      </trkpt>
      <trkpt lat="44.8573" lon="3.5606">
        <ele>1154.68</ele>
        <time>2024-08-15T14:38:18Z</time>
      </trkpt>
      <trkpt lat="44.85707" lon="3.56052">
        <ele>1156.12</ele>
        <time>2024-08-15T14:38:33Z</time>
      </trkpt>
      <trkpt lat="44.85681" lon="3.56048">
        <ele>1159.01</ele>
        <time>2024-08-15T14:38:48Z</time>
      </trkpt>
      <trkpt lat="44.85664" lon="3.56031">
        <ele>1160.93</ele>
        <time>2024-08-15T14:39:02Z</time>
      </trkpt>
      <trkpt lat="44.85646" lon="3.5601">
        <ele>1163.33</ele>
        <time>2024-08-15T14:39:15Z</time>
      </trkpt>
      <trkpt lat="44.85625" lon="3.55984">
        <ele>1166.7</ele>
        <time>2024-08-15T14:39:32Z</time>
      </trkpt>
      <trkpt lat="44.85619" lon="3.55978">
        <ele>1167.66</ele>
        <time>2024-08-15T14:39:37Z</time>
      </trkpt>
      <trkpt lat="44.85618" lon="3.55976">
        <ele>1167.66</ele>
        <time>2024-08-15T14:39:38Z</time>
      </trkpt>
      <trkpt lat="44.85617" lon="3.55975">
        <ele>1167.66</ele>
        <time>2024-08-15T14:39:39Z</time>
      </trkpt>
      <trkpt lat="44.85615" lon="3.55974">
        <ele>1167.66</ele>
        <time>2024-08-15T14:39:40Z</time>
      </trkpt>
      <trkpt lat="44.85614" lon="3.55973">
        <ele>1168.14</ele>
        <time>2024-08-15T14:39:41Z</time>
      </trkpt>
      <trkpt lat="44.85613" lon="3.55972">
        <ele>1168.14</ele>
        <time>2024-08-15T14:39:42Z</time>
      </trkpt>
      <trkpt lat="44.85611" lon="3.55971">
        <ele>1168.14</ele>
        <time>2024-08-15T14:39:43Z</time>
      </trkpt>
      <trkpt lat="44.8561" lon="3.5597">
        <ele>1168.62</ele>
        <time>2024-08-15T14:39:44Z</time>
      </trkpt>
      <trkpt lat="44.85608" lon="3.55969">
        <ele>1168.62</ele>
        <time>2024-08-15T14:39:45Z</time>
      </trkpt>
      <trkpt lat="44.85606" lon="3.55968">
        <ele>1169.1</ele>
        <time>2024-08-15T14:39:46Z</time>
      </trkpt>
      <trkpt lat="44.85605" lon="3.55967">
        <ele>1169.1</ele>
        <time>2024-08-15T14:39:47Z</time>
      </trkpt>
      <trkpt lat="44.85603" lon="3.55967">
        <ele>1169.1</ele>
        <time>2024-08-15T14:39:48Z</time>
      </trkpt>
      <trkpt lat="44.85577" lon="3.55961">
        <ele>1172.47</ele>
        <time>2024-08-15T14:40:04Z</time>
      </trkpt>
      <trkpt lat="44.85549" lon="3.5595">
        <ele>1175.35</ele>
        <time>2024-08-15T14:40:22Z</time>
      </trkpt>
      <trkpt lat="44.85526" lon="3.55943">
        <ele>1178.71</ele>
        <time>2024-08-15T14:40:38Z</time>
      </trkpt>
      <trkpt lat="44.85501" lon="3.55928">
        <ele>1180.16</ele>
        <time>2024-08-15T14:40:56Z</time>
      </trkpt>
      <trkpt lat="44.8548" lon="3.55913">
        <ele>1178.71</ele>
        <time>2024-08-15T14:41:12Z</time>
      </trkpt>
      <trkpt lat="44.85463" lon="3.55902">
        <ele>1177.27</ele>
        <time>2024-08-15T14:41:25Z</time>
      </trkpt>
      <trkpt lat="44.85462" lon="3.55901">
        <ele>1177.27</ele>
        <time>2024-08-15T14:41:26Z</time>
      </trkpt>
      <trkpt lat="44.85461" lon="3.55901">
        <ele>1176.79</ele>
        <time>2024-08-15T14:41:27Z</time>
      </trkpt>
      <trkpt lat="44.85438" lon="3.55886">
        <ele>1173.43</ele>
        <time>2024-08-15T14:41:44Z</time>
      </trkpt>
      <trkpt lat="44.85414" lon="3.55871">
        <ele>1172.95</ele>
        <time>2024-08-15T14:42:01Z</time>
      </trkpt>
      <trkpt lat="44.85392" lon="3.55849">
        <ele>1171.5</ele>
        <time>2024-08-15T14:42:18Z</time>
      </trkpt>
      <trkpt lat="44.85372" lon="3.55823">
        <ele>1169.1</ele>
        <time>2024-08-15T14:42:35Z</time>
      </trkpt>
      <trkpt lat="44.85354" lon="3.55791">
        <ele>1166.7</ele>
        <time>2024-08-15T14:42:55Z</time>
      </trkpt>
      <trkpt lat="44.85337" lon="3.55762">
        <ele>1165.26</ele>
        <time>2024-08-15T14:43:12Z</time>
      </trkpt>
      <trkpt lat="44.85313" lon="3.55718">
        <ele>1163.81</ele>
        <time>2024-08-15T14:43:38Z</time>
      </trkpt>
      <trkpt lat="44.85295" lon="3.55689">
        <ele>1163.33</ele>
        <time>2024-08-15T14:43:57Z</time>
      </trkpt>
      <trkpt lat="44.85272" lon="3.5566">
        <ele>1161.41</ele>
        <time>2024-08-15T14:44:17Z</time>
      </trkpt>
      <trkpt lat="44.8525" lon="3.55642">
        <ele>1161.41</ele>
        <time>2024-08-15T14:44:33Z</time>
      </trkpt>
      <trkpt lat="44.85225" lon="3.55619">
        <ele>1159.01</ele>
        <time>2024-08-15T14:44:52Z</time>
      </trkpt>
      <trkpt lat="44.85201" lon="3.5559">
        <ele>1156.6</ele>
        <time>2024-08-15T14:45:11Z</time>
      </trkpt>
      <trkpt lat="44.8517" lon="3.55564">
        <ele>1153.24</ele>
        <time>2024-08-15T14:45:34Z</time>
      </trkpt>
      <trkpt lat="44.85142" lon="3.55537">
        <ele>1151.32</ele>
        <time>2024-08-15T14:45:55Z</time>
      </trkpt>
      <trkpt lat="44.85113" lon="3.55514">
        <ele>1150.84</ele>
        <time>2024-08-15T14:46:15Z</time>
      </trkpt>
      <trkpt lat="44.85085" lon="3.55511">
        <ele>1154.2</ele>
        <time>2024-08-15T14:46:33Z</time>
      </trkpt>
      <trkpt lat="44.85068" lon="3.5551">
        <ele>1155.16</ele>
        <time>2024-08-15T14:46:47Z</time>
      </trkpt>
      <trkpt lat="44.85054" lon="3.55518">
        <ele>1155.64</ele>
        <time>2024-08-15T14:47:02Z</time>
      </trkpt>
      <trkpt lat="44.85042" lon="3.55527">
        <ele>1155.64</ele>
        <time>2024-08-15T14:47:22Z</time>
      </trkpt>
      <trkpt lat="44.85018" lon="3.55559">
        <ele>1155.64</ele>
        <time>2024-08-15T14:47:31Z</time>
      </trkpt>
      <trkpt lat="44.84987" lon="3.55583">
        <ele>1155.64</ele>
        <time>2024-08-15T14:47:38Z</time>
      </trkpt>
      <trkpt lat="44.8491" lon="3.55611">
        <ele>1154.2</ele>
        <time>2024-08-15T14:47:55Z</time>
      </trkpt>
      <trkpt lat="44.84847" lon="3.55628">
        <ele>1152.28</ele>
        <time>2024-08-15T14:48:11Z</time>
      </trkpt>
      <trkpt lat="44.84841" lon="3.55627">
        <ele>1153.72</ele>
        <time>2024-08-15T14:48:23Z</time>
      </trkpt>
      <trkpt lat="44.84821" lon="3.55626">
        <ele>1155.64</ele>
        <time>2024-08-15T14:48:42Z</time>
      </trkpt>
      <trkpt lat="44.84822" lon="3.55625">
        <ele>1157.08</ele>
        <time>2024-08-15T14:48:45Z</time>
      </trkpt>
      <trkpt lat="44.84827" lon="3.55624">
        <ele>1159.49</ele>
        <time>2024-08-15T14:48:55Z</time>
      </trkpt>
      <trkpt lat="44.84806" lon="3.55622">
        <ele>1159.49</ele>
        <time>2024-08-15T14:49:11Z</time>
      </trkpt>
      <trkpt lat="44.84785" lon="3.55614">
        <ele>1159.01</ele>
        <time>2024-08-15T14:49:29Z</time>
      </trkpt>
      <trkpt lat="44.84767" lon="3.55609">
        <ele>1159.01</ele>
        <time>2024-08-15T14:49:44Z</time>
      </trkpt>
      <trkpt lat="44.84745" lon="3.55605">
        <ele>1157.56</ele>
        <time>2024-08-15T14:50:01Z</time>
      </trkpt>
      <trkpt lat="44.84723" lon="3.55603">
        <ele>1155.64</ele>
        <time>2024-08-15T14:50:18Z</time>
      </trkpt>
      <trkpt lat="44.847" lon="3.55601">
        <ele>1154.2</ele>
        <time>2024-08-15T14:50:36Z</time>
      </trkpt>
      <trkpt lat="44.84674" lon="3.556">
        <ele>1151.32</ele>
        <time>2024-08-15T14:50:55Z</time>
      </trkpt>
      <trkpt lat="44.84651" lon="3.55606">
        <ele>1150.84</ele>
        <time>2024-08-15T14:51:12Z</time>
      </trkpt>
      <trkpt lat="44.84628" lon="3.55619">
        <ele>1149.39</ele>
        <time>2024-08-15T14:51:31Z</time>
      </trkpt>
      <trkpt lat="44.84604" lon="3.55635">
        <ele>1148.43</ele>
        <time>2024-08-15T14:51:50Z</time>
      </trkpt>
      <trkpt lat="44.84575" lon="3.55653">
        <ele>1147.47</ele>
        <time>2024-08-15T14:52:11Z</time>
      </trkpt>
      <trkpt lat="44.84547" lon="3.5567">
        <ele>1147.47</ele>
        <time>2024-08-15T14:52:33Z</time>
      </trkpt>
      <trkpt lat="44.84512" lon="3.55691">
        <ele>1146.51</ele>
        <time>2024-08-15T14:52:56Z</time>
      </trkpt>
      <trkpt lat="44.84479" lon="3.55711">
        <ele>1144.11</ele>
        <time>2024-08-15T14:53:19Z</time>
      </trkpt>
      <trkpt lat="44.84452" lon="3.5573">
        <ele>1143.14</ele>
        <time>2024-08-15T14:53:37Z</time>
      </trkpt>
      <trkpt lat="44.84423" lon="3.55749">
        <ele>1140.26</ele>
        <time>2024-08-15T14:53:58Z</time>
      </trkpt>
      <trkpt lat="44.84404" lon="3.5574">
        <ele>1139.3</ele>
        <time>2024-08-15T14:54:12Z</time>
      </trkpt>
      <trkpt lat="44.84384" lon="3.55708">
        <ele>1139.3</ele>
        <time>2024-08-15T14:54:32Z</time>
      </trkpt>
      <trkpt lat="44.8436" lon="3.55679">
        <ele>1139.78</ele>
        <time>2024-08-15T14:54:53Z</time>
      </trkpt>
      <trkpt lat="44.84328" lon="3.55665">
        <ele>1141.22</ele>
        <time>2024-08-15T14:55:14Z</time>
      </trkpt>
      <trkpt lat="44.84303" lon="3.5563">
        <ele>1145.55</ele>
        <time>2024-08-15T14:55:38Z</time>
      </trkpt>
      <trkpt lat="44.84278" lon="3.55593">
        <ele>1147.47</ele>
        <time>2024-08-15T14:56:02Z</time>
      </trkpt>
      <trkpt lat="44.84263" lon="3.55564">
        <ele>1150.35</ele>
        <time>2024-08-15T14:56:19Z</time>
      </trkpt>
      <trkpt lat="44.84251" lon="3.55536">
        <ele>1150.84</ele>
        <time>2024-08-15T14:56:37Z</time>
      </trkpt>
      <trkpt lat="44.84241" lon="3.55499">
        <ele>1152.76</ele>
        <time>2024-08-15T14:56:55Z</time>
      </trkpt>
      <trkpt lat="44.84256" lon="3.55458">
        <ele>1155.16</ele>
        <time>2024-08-15T14:57:14Z</time>
      </trkpt>
      <trkpt lat="44.84275" lon="3.55408">
        <ele>1159.01</ele>
        <time>2024-08-15T14:57:40Z</time>
      </trkpt>
      <trkpt lat="44.84282" lon="3.5535">
        <ele>1159.49</ele>
        <time>2024-08-15T14:58:07Z</time>
      </trkpt>
      <trkpt lat="44.84286" lon="3.55321">
        <ele>1161.41</ele>
        <time>2024-08-15T14:58:21Z</time>
      </trkpt>
      <trkpt lat="44.84292" lon="3.55278">
        <ele>1162.85</ele>
        <time>2024-08-15T14:58:40Z</time>
      </trkpt>
      <trkpt lat="44.84302" lon="3.55234">
        <ele>1166.7</ele>
        <time>2024-08-15T14:59:00Z</time>
      </trkpt>
      <trkpt lat="44.84307" lon="3.55206">
        <ele>1169.1</ele>
        <time>2024-08-15T14:59:15Z</time>
      </trkpt>
      <trkpt lat="44.84307" lon="3.55204">
        <ele>1169.58</ele>
        <time>2024-08-15T14:59:16Z</time>
      </trkpt>
      <trkpt lat="44.84307" lon="3.5516">
        <ele>1173.43</ele>
        <time>2024-08-15T14:59:37Z</time>
      </trkpt>
      <trkpt lat="44.84306" lon="3.55115">
        <ele>1176.79</ele>
        <time>2024-08-15T14:59:58Z</time>
      </trkpt>
      <trkpt lat="44.84308" lon="3.55067">
        <ele>1182.56</ele>
        <time>2024-08-15T15:00:19Z</time>
      </trkpt>
      <trkpt lat="44.84313" lon="3.55028">
        <ele>1184.96</ele>
        <time>2024-08-15T15:00:37Z</time>
      </trkpt>
      <trkpt lat="44.84304" lon="3.54989">
        <ele>1185.92</ele>
        <time>2024-08-15T15:00:56Z</time>
      </trkpt>
      <trkpt lat="44.84285" lon="3.54971">
        <ele>1185.92</ele>
        <time>2024-08-15T15:01:15Z</time>
      </trkpt>
      <trkpt lat="44.84288" lon="3.54966">
        <ele>1184.96</ele>
        <time>2024-08-15T15:01:37Z</time>
      </trkpt>
      <trkpt lat="44.84279" lon="3.54959">
        <ele>1185.92</ele>
        <time>2024-08-15T15:01:51Z</time>
      </trkpt>
      <trkpt lat="44.84262" lon="3.54941">
        <ele>1185.92</ele>
        <time>2024-08-15T15:02:10Z</time>
      </trkpt>
      <trkpt lat="44.84253" lon="3.54934">
        <ele>1185.92</ele>
        <time>2024-08-15T15:02:20Z</time>
      </trkpt>
      <trkpt lat="44.84232" lon="3.54924">
        <ele>1182.56</ele>
        <time>2024-08-15T15:02:39Z</time>
      </trkpt>
      <trkpt lat="44.84219" lon="3.54919">
        <ele>1183.52</ele>
        <time>2024-08-15T15:02:56Z</time>
      </trkpt>
      <trkpt lat="44.8421" lon="3.54913">
        <ele>1181.6</ele>
        <time>2024-08-15T15:03:14Z</time>
      </trkpt>
      <trkpt lat="44.842" lon="3.54909">
        <ele>1180.64</ele>
        <time>2024-08-15T15:03:30Z</time>
      </trkpt>
      <trkpt lat="44.84182" lon="3.54899">
        <ele>1178.71</ele>
        <time>2024-08-15T15:03:45Z</time>
      </trkpt>
      <trkpt lat="44.84181" lon="3.54898">
        <ele>1178.71</ele>
        <time>2024-08-15T15:03:46Z</time>
      </trkpt>
      <trkpt lat="44.8418" lon="3.54898">
        <ele>1178.71</ele>
        <time>2024-08-15T15:03:47Z</time>
      </trkpt>
      <trkpt lat="44.84177" lon="3.54897">
        <ele>1179.19</ele>
        <time>2024-08-15T15:03:49Z</time>
      </trkpt>
      <trkpt lat="44.84174" lon="3.54894">
        <ele>1178.23</ele>
        <time>2024-08-15T15:03:53Z</time>
      </trkpt>
      <trkpt lat="44.84172" lon="3.54894">
        <ele>1177.75</ele>
        <time>2024-08-15T15:03:54Z</time>
      </trkpt>
      <trkpt lat="44.84166" lon="3.54892">
        <ele>1174.39</ele>
        <time>2024-08-15T15:04:04Z</time>
      </trkpt>
      <trkpt lat="44.84154" lon="3.54885">
        <ele>1176.31</ele>
        <time>2024-08-15T15:04:18Z</time>
      </trkpt>
      <trkpt lat="44.84152" lon="3.54885">
        <ele>1176.31</ele>
        <time>2024-08-15T15:04:19Z</time>
      </trkpt>
      <trkpt lat="44.84151" lon="3.54885">
        <ele>1176.31</ele>
        <time>2024-08-15T15:04:20Z</time>
      </trkpt>
      <trkpt lat="44.84148" lon="3.54891">
        <ele>1175.83</ele>
        <time>2024-08-15T15:04:31Z</time>
      </trkpt>
      <trkpt lat="44.84148" lon="3.54899">
        <ele>1175.35</ele>
        <time>2024-08-15T15:04:36Z</time>
      </trkpt>
      <trkpt lat="44.84136" lon="3.54904">
        <ele>1179.19</ele>
        <time>2024-08-15T15:04:50Z</time>
      </trkpt>
      <trkpt lat="44.84133" lon="3.54905">
        <ele>1180.16</ele>
        <time>2024-08-15T15:05:07Z</time>
      </trkpt>
      <trkpt lat="44.8413" lon="3.54901">
        <ele>1180.16</ele>
        <time>2024-08-15T15:05:22Z</time>
      </trkpt>
      <trkpt lat="44.8413" lon="3.549">
        <ele>1182.08</ele>
        <time>2024-08-15T15:05:34Z</time>
      </trkpt>
      <trkpt lat="44.84125" lon="3.549">
        <ele>1182.08</ele>
        <time>2024-08-15T15:05:37Z</time>
      </trkpt>
      <trkpt lat="44.84108" lon="3.54886">
        <ele>1180.16</ele>
        <time>2024-08-15T15:05:56Z</time>
      </trkpt>
      <trkpt lat="44.84108" lon="3.54883">
        <ele>1180.16</ele>
        <time>2024-08-15T15:06:17Z</time>
      </trkpt>
      <trkpt lat="44.84101" lon="3.5488">
        <ele>1178.71</ele>
        <time>2024-08-15T15:06:31Z</time>
      </trkpt>
      <trkpt lat="44.84101" lon="3.54879">
        <ele>1178.71</ele>
        <time>2024-08-15T15:06:49Z</time>
      </trkpt>
      <trkpt lat="44.84099" lon="3.54879">
        <ele>1179.67</ele>
        <time>2024-08-15T15:07:07Z</time>
      </trkpt>
      <trkpt lat="44.841" lon="3.54879">
        <ele>1181.12</ele>
        <time>2024-08-15T15:07:23Z</time>
      </trkpt>
      <trkpt lat="44.84102" lon="3.54881">
        <ele>1181.12</ele>
        <time>2024-08-15T15:07:40Z</time>
      </trkpt>
      <trkpt lat="44.84103" lon="3.54878">
        <ele>1181.6</ele>
        <time>2024-08-15T15:07:58Z</time>
      </trkpt>
      <trkpt lat="44.84105" lon="3.54881">
        <ele>1183.04</ele>
        <time>2024-08-15T15:08:13Z</time>
      </trkpt>
      <trkpt lat="44.84104" lon="3.54882">
        <ele>1182.08</ele>
        <time>2024-08-15T15:08:28Z</time>
      </trkpt>
      <trkpt lat="44.84103" lon="3.54882">
        <ele>1179.19</ele>
        <time>2024-08-15T15:08:47Z</time>
      </trkpt>
      <trkpt lat="44.84105" lon="3.5488">
        <ele>1180.64</ele>
        <time>2024-08-15T15:09:02Z</time>
      </trkpt>
      <trkpt lat="44.84105" lon="3.5488">
        <ele>1180.64</ele>
        <time>2024-08-15T15:09:20Z</time>
      </trkpt>
      <trkpt lat="44.84105" lon="3.54883">
        <ele>1178.23</ele>
        <time>2024-08-15T15:09:39Z</time>
      </trkpt>
      <trkpt lat="44.84103" lon="3.54882">
        <ele>1180.64</ele>
        <time>2024-08-15T15:09:56Z</time>
      </trkpt>
      <trkpt lat="44.84102" lon="3.5488">
        <ele>1180.64</ele>
        <time>2024-08-15T15:10:18Z</time>
      </trkpt>
      <trkpt lat="44.84104" lon="3.54881">
        <ele>1179.67</ele>
        <time>2024-08-15T15:10:30Z</time>
      </trkpt>
      <trkpt lat="44.84105" lon="3.54886">
        <ele>1178.23</ele>
        <time>2024-08-15T15:10:46Z</time>
      </trkpt>
      <trkpt lat="44.84105" lon="3.54885">
        <ele>1180.16</ele>
        <time>2024-08-15T15:11:04Z</time>
      </trkpt>
      <trkpt lat="44.84105" lon="3.54885">
        <ele>1179.67</ele>
        <time>2024-08-15T15:11:18Z</time>
      </trkpt>
      <trkpt lat="44.84105" lon="3.54883">
        <ele>1181.12</ele>
        <time>2024-08-15T15:11:34Z</time>
      </trkpt>
      <trkpt lat="44.84105" lon="3.54884">
        <ele>1180.64</ele>
        <time>2024-08-15T15:11:48Z</time>
      </trkpt>
      <trkpt lat="44.84105" lon="3.54886">
        <ele>1179.19</ele>
        <time>2024-08-15T15:12:03Z</time>
      </trkpt>
      <trkpt lat="44.84105" lon="3.54886">
        <ele>1178.23</ele>
        <time>2024-08-15T15:12:21Z</time>
      </trkpt>
      <trkpt lat="44.84103" lon="3.54883">
        <ele>1178.71</ele>
        <time>2024-08-15T15:12:36Z</time>
      </trkpt>
      <trkpt lat="44.84107" lon="3.54885">
        <ele>1177.75</ele>
        <time>2024-08-15T15:12:49Z</time>
      </trkpt>
      <trkpt lat="44.8411" lon="3.54889">
        <ele>1178.71</ele>
        <time>2024-08-15T15:13:16Z</time>
      </trkpt>
      <trkpt lat="44.84113" lon="3.54892">
        <ele>1179.19</ele>
        <time>2024-08-15T15:13:31Z</time>
      </trkpt>
      <trkpt lat="44.84113" lon="3.54893">
        <ele>1179.19</ele>
        <time>2024-08-15T15:13:52Z</time>
      </trkpt>
      <trkpt lat="44.84112" lon="3.54896">
        <ele>1179.19</ele>
        <time>2024-08-15T15:14:06Z</time>
      </trkpt>
      <trkpt lat="44.84112" lon="3.54896">
        <ele>1179.67</ele>
        <time>2024-08-15T15:14:22Z</time>
      </trkpt>
      <trkpt lat="44.84114" lon="3.54893">
        <ele>1179.67</ele>
        <time>2024-08-15T15:14:34Z</time>
      </trkpt>
      <trkpt lat="44.84116" lon="3.54895">
        <ele>1180.16</ele>
        <time>2024-08-15T15:15:04Z</time>
      </trkpt>
      <trkpt lat="44.84116" lon="3.54896">
        <ele>1181.12</ele>
        <time>2024-08-15T15:15:14Z</time>
      </trkpt>
      <trkpt lat="44.84109" lon="3.54889">
        <ele>1182.08</ele>
        <time>2024-08-15T15:15:29Z</time>
      </trkpt>
      <trkpt lat="44.84106" lon="3.54885">
        <ele>1182.56</ele>
        <time>2024-08-15T15:15:42Z</time>
      </trkpt>
      <trkpt lat="44.84106" lon="3.54887">
        <ele>1182.56</ele>
        <time>2024-08-15T15:15:48Z</time>
      </trkpt>
      <trkpt lat="44.84108" lon="3.54889">
        <ele>1182.56</ele>
        <time>2024-08-15T15:15:52Z</time>
      </trkpt>
      <trkpt lat="44.84108" lon="3.54892">
        <ele>1182.08</ele>
        <time>2024-08-15T15:16:08Z</time>
      </trkpt>
      <trkpt lat="44.84107" lon="3.54894">
        <ele>1181.6</ele>
        <time>2024-08-15T15:16:11Z</time>
      </trkpt>
      <trkpt lat="44.84106" lon="3.54893">
        <ele>1182.56</ele>
        <time>2024-08-15T15:16:24Z</time>
      </trkpt>
      <trkpt lat="44.84107" lon="3.54893">
        <ele>1184</ele>
        <time>2024-08-15T15:16:58Z</time>
      </trkpt>
      <trkpt lat="44.84107" lon="3.54892">
        <ele>1184.96</ele>
        <time>2024-08-15T15:17:23Z</time>
      </trkpt>
      <trkpt lat="44.84108" lon="3.54896">
        <ele>1184</ele>
        <time>2024-08-15T15:17:57Z</time>
      </trkpt>
      <trkpt lat="44.84107" lon="3.54895">
        <ele>1184.96</ele>
        <time>2024-08-15T15:18:23Z</time>
        <extensions>
          <visugpx:TrkExtension xmlns:visugpx="https://www.visugpx.com/editgpx/">
            <visugpx:node>1</visugpx:node>
            </visugpx:TrkExtension>
        </extensions>
      </trkpt>
    </trkseg>
  </trk>
</gpx>